<?xml version="1.0" encoding="UTF-8" standalone="no" ?>
<gpx xmlns="http://www.topografix.com/GPX/1/1" xmlns:gpxtpx="http://www.garmin.com/xmlschemas/TrackPointExtension/v1" creator="OruxMaps v.7.4.22" version="1.1" xmlns:xsi="http://www.w3.org/2001/XMLSchema-instance" xsi:schemaLocation="http://www.topografix.com/GPX/1/1 http://www.topografix.com/GPX/1/1/gpx.xsd">
<metadata>
<name><![CDATA[2021-09-07 14:30]]></name>
<link href="https://www.oruxmaps.com">
<text>OruxMaps</text>
</link>
<time>2021-09-07T12:30:06Z</time><bounds maxlat="42.5092174" maxlon="2.7108302" minlat="42.4674633" minlon="2.6343559"/>
</metadata>
<wpt lat="42.4940699" lon="2.7033738">
<ele>177.80</ele>
<time>2021-09-07T12:30:06Z</time>
<name><![CDATA[0000182]]></name>
<sym>Waypoint</sym>
<type>Point de départ</type>
<extensions>
<om:oruxmapsextensions xmlns:om="http://www.oruxmaps.com/oruxmapsextensions/1/0">
<om:ext type="ICON" subtype="0">38</om:ext>
</om:oruxmapsextensions>
</extensions>
</wpt>
<wpt lat="42.4940699" lon="2.7033738">
<ele>177.80</ele>
<time>2021-09-07T12:30:06Z</time>
<name><![CDATA[0000182]]></name>
<sym>Waypoint</sym>
<type>Point de départ</type>
<extensions>
<om:oruxmapsextensions xmlns:om="http://www.oruxmaps.com/oruxmapsextensions/1/0">
<om:ext type="ICON" subtype="0">38</om:ext>
</om:oruxmapsextensions>
</extensions>
</wpt>
<wpt lat="42.4942132" lon="2.7032809">
<ele>176.16</ele>
<time>2021-09-07T16:07:04Z</time>
<name><![CDATA[0000184]]></name>
<desc><![CDATA[<p><br /><h3>Nom: Segment: 1</h3><br />Heure de départ: 14:30 7 sept. 2021<br/>Heure d'arrivée: 18:06 7 sept. 2021<br/>Distance: 34,8km (03:36)<br/>Temps déplacement: 02:57<br/>Vitesse moyenne: 9,62 km/h<br/>Vitesse moyenne mouv.: 11,73 km/h<br/>Vitesse Max.: 34,99 km/h<br/>Altitude minimale: 171 m<br/>Altitude maximale: 865 m<br/>Vitesse de montée: 576 m/h<br/>Vitesse de descente: -791,5 m/h<br/>Gain d'altitude: 1188 m<br/>Perte d'altitude: -1183 m<br/>Temps de montée: 02:03<br/>Temps de descente: 01:29<br/></p>]]></desc>
<sym>Waypoint</sym>
<type>Point d'arrivée</type>
<extensions>
<om:oruxmapsextensions xmlns:om="http://www.oruxmaps.com/oruxmapsextensions/1/0">
<om:ext type="ICON" subtype="0">15</om:ext>
</om:oruxmapsextensions>
</extensions>
</wpt>
<trk>
<name><![CDATA[2021-09-07 14:30]]></name>
<desc><![CDATA[<p>Heure de départ: 14:30 7 sept. 2021<br/>Heure d'arrivée: 18:06 7 sept. 2021<br/>Distance: 34,8 km (03:36)<br/>Temps déplacement: 02:57<br/>Vitesse moyenne: 9,62 km/h<br/>Vitesse moyenne mouv.: 11,74 km/h<br/>Vitesse Max.: 34,99 km/h<br/>Altitude minimale: 171 m<br/>Altitude maximale: 865 m<br/>Vitesse de montée: 532,5 m/h<br/>Vitesse de descente: -728,9 m/h<br/>Gain d'altitude: 1102 m<br/>Perte d'altitude: -1101 m<br/>Temps de montée: 02:04<br/>Temps de descente: 01:30<br/></p><hr align="center" width="480" style="height: 2px; width: 517px"/>]]></desc>
<type>Indéfini</type>
<extensions>
<om:oruxmapsextensions xmlns:om="http://www.oruxmaps.com/oruxmapsextensions/1/0">
<om:ext type="TYPE" subtype="0">0</om:ext>
<om:ext type="DIFFICULTY">0</om:ext>
</om:oruxmapsextensions>
</extensions>
<trkseg>
<trkpt lat="42.4940699" lon="2.7033738">
<ele>177.80</ele>
<time>2021-09-07T12:30:08Z</time>
</trkpt>
<trkpt lat="42.4939504" lon="2.7031900">
<ele>178.46</ele>
<time>2021-09-07T12:30:18Z</time>
</trkpt>
<trkpt lat="42.4939808" lon="2.7029415">
<ele>178.12</ele>
<time>2021-09-07T12:30:28Z</time>
</trkpt>
<trkpt lat="42.4937755" lon="2.7029074">
<ele>181.57</ele>
<time>2021-09-07T12:30:56Z</time>
</trkpt>
<trkpt lat="42.4935938" lon="2.7028253">
<ele>179.31</ele>
<time>2021-09-07T12:31:02Z</time>
</trkpt>
<trkpt lat="42.4933975" lon="2.7027442">
<ele>180.29</ele>
<time>2021-09-07T12:31:08Z</time>
</trkpt>
<trkpt lat="42.4931865" lon="2.7026724">
<ele>179.58</ele>
<time>2021-09-07T12:31:13Z</time>
</trkpt>
<trkpt lat="42.4930130" lon="2.7025775">
<ele>178.80</ele>
<time>2021-09-07T12:31:17Z</time>
</trkpt>
<trkpt lat="42.4928433" lon="2.7024828">
<ele>180.53</ele>
<time>2021-09-07T12:31:21Z</time>
</trkpt>
<trkpt lat="42.4926481" lon="2.7023942">
<ele>180.68</ele>
<time>2021-09-07T12:31:25Z</time>
</trkpt>
<trkpt lat="42.4924533" lon="2.7023075">
<ele>181.24</ele>
<time>2021-09-07T12:31:29Z</time>
</trkpt>
<trkpt lat="42.4922813" lon="2.7021909">
<ele>180.15</ele>
<time>2021-09-07T12:31:33Z</time>
</trkpt>
<trkpt lat="42.4920826" lon="2.7021122">
<ele>179.36</ele>
<time>2021-09-07T12:31:38Z</time>
</trkpt>
<trkpt lat="42.4919141" lon="2.7020018">
<ele>187.18</ele>
<time>2021-09-07T12:31:45Z</time>
</trkpt>
<trkpt lat="42.4917198" lon="2.7018578">
<ele>187.54</ele>
<time>2021-09-07T12:31:52Z</time>
</trkpt>
<trkpt lat="42.4915126" lon="2.7017168">
<ele>187.58</ele>
<time>2021-09-07T12:31:57Z</time>
</trkpt>
<trkpt lat="42.4913274" lon="2.7016417">
<ele>188.39</ele>
<time>2021-09-07T12:32:01Z</time>
</trkpt>
<trkpt lat="42.4911381" lon="2.7015429">
<ele>187.96</ele>
<time>2021-09-07T12:32:05Z</time>
</trkpt>
<trkpt lat="42.4909321" lon="2.7014518">
<ele>186.95</ele>
<time>2021-09-07T12:32:09Z</time>
</trkpt>
<trkpt lat="42.4907610" lon="2.7013444">
<ele>183.82</ele>
<time>2021-09-07T12:32:13Z</time>
</trkpt>
<trkpt lat="42.4905841" lon="2.7012510">
<ele>182.25</ele>
<time>2021-09-07T12:32:17Z</time>
</trkpt>
<trkpt lat="42.4904133" lon="2.7011423">
<ele>181.65</ele>
<time>2021-09-07T12:32:21Z</time>
</trkpt>
<trkpt lat="42.4902380" lon="2.7010387">
<ele>181.59</ele>
<time>2021-09-07T12:32:25Z</time>
</trkpt>
<trkpt lat="42.4900483" lon="2.7009049">
<ele>182.80</ele>
<time>2021-09-07T12:32:29Z</time>
</trkpt>
<trkpt lat="42.4898672" lon="2.7007486">
<ele>183.12</ele>
<time>2021-09-07T12:32:33Z</time>
</trkpt>
<trkpt lat="42.4896795" lon="2.7005833">
<ele>182.13</ele>
<time>2021-09-07T12:32:37Z</time>
</trkpt>
<trkpt lat="42.4894895" lon="2.7004208">
<ele>182.76</ele>
<time>2021-09-07T12:32:41Z</time>
</trkpt>
<trkpt lat="42.4892949" lon="2.7002697">
<ele>182.08</ele>
<time>2021-09-07T12:32:45Z</time>
</trkpt>
<trkpt lat="42.4890997" lon="2.7001015">
<ele>181.75</ele>
<time>2021-09-07T12:32:49Z</time>
</trkpt>
<trkpt lat="42.4889125" lon="2.6999398">
<ele>182.15</ele>
<time>2021-09-07T12:32:53Z</time>
</trkpt>
<trkpt lat="42.4887161" lon="2.6997889">
<ele>182.42</ele>
<time>2021-09-07T12:32:57Z</time>
</trkpt>
<trkpt lat="42.4885203" lon="2.6996257">
<ele>182.50</ele>
<time>2021-09-07T12:33:01Z</time>
</trkpt>
<trkpt lat="42.4883375" lon="2.6994714">
<ele>182.65</ele>
<time>2021-09-07T12:33:05Z</time>
</trkpt>
<trkpt lat="42.4881482" lon="2.6993374">
<ele>183.42</ele>
<time>2021-09-07T12:33:09Z</time>
</trkpt>
<trkpt lat="42.4879512" lon="2.6991800">
<ele>182.81</ele>
<time>2021-09-07T12:33:13Z</time>
</trkpt>
<trkpt lat="42.4877673" lon="2.6990397">
<ele>182.24</ele>
<time>2021-09-07T12:33:17Z</time>
</trkpt>
<trkpt lat="42.4875858" lon="2.6988958">
<ele>182.72</ele>
<time>2021-09-07T12:33:21Z</time>
</trkpt>
<trkpt lat="42.4873925" lon="2.6987641">
<ele>183.38</ele>
<time>2021-09-07T12:33:25Z</time>
</trkpt>
<trkpt lat="42.4872041" lon="2.6986321">
<ele>183.40</ele>
<time>2021-09-07T12:33:29Z</time>
</trkpt>
<trkpt lat="42.4870102" lon="2.6984946">
<ele>182.97</ele>
<time>2021-09-07T12:33:33Z</time>
</trkpt>
<trkpt lat="42.4868412" lon="2.6983523">
<ele>181.66</ele>
<time>2021-09-07T12:33:37Z</time>
</trkpt>
<trkpt lat="42.4866536" lon="2.6982111">
<ele>181.35</ele>
<time>2021-09-07T12:33:41Z</time>
</trkpt>
<trkpt lat="42.4864538" lon="2.6980764">
<ele>182.04</ele>
<time>2021-09-07T12:33:45Z</time>
</trkpt>
<trkpt lat="42.4862768" lon="2.6979503">
<ele>181.28</ele>
<time>2021-09-07T12:33:49Z</time>
</trkpt>
<trkpt lat="42.4860957" lon="2.6978497">
<ele>182.23</ele>
<time>2021-09-07T12:33:53Z</time>
</trkpt>
<trkpt lat="42.4859183" lon="2.6977096">
<ele>182.55</ele>
<time>2021-09-07T12:33:57Z</time>
</trkpt>
<trkpt lat="42.4857487" lon="2.6975706">
<ele>182.88</ele>
<time>2021-09-07T12:34:01Z</time>
</trkpt>
<trkpt lat="42.4855861" lon="2.6974136">
<ele>182.24</ele>
<time>2021-09-07T12:34:05Z</time>
</trkpt>
<trkpt lat="42.4854471" lon="2.6972511">
<ele>182.77</ele>
<time>2021-09-07T12:34:09Z</time>
</trkpt>
<trkpt lat="42.4853001" lon="2.6970947">
<ele>182.63</ele>
<time>2021-09-07T12:34:13Z</time>
</trkpt>
<trkpt lat="42.4851374" lon="2.6969011">
<ele>183.31</ele>
<time>2021-09-07T12:34:18Z</time>
</trkpt>
<trkpt lat="42.4849850" lon="2.6966885">
<ele>184.09</ele>
<time>2021-09-07T12:35:52Z</time>
</trkpt>
<trkpt lat="42.4848022" lon="2.6965161">
<ele>183.80</ele>
<time>2021-09-07T12:35:57Z</time>
</trkpt>
<trkpt lat="42.4846295" lon="2.6963543">
<ele>186.28</ele>
<time>2021-09-07T12:36:02Z</time>
</trkpt>
<trkpt lat="42.4844681" lon="2.6961887">
<ele>187.60</ele>
<time>2021-09-07T12:36:06Z</time>
</trkpt>
<trkpt lat="42.4843122" lon="2.6960160">
<ele>189.20</ele>
<time>2021-09-07T12:36:11Z</time>
</trkpt>
<trkpt lat="42.4841446" lon="2.6958208">
<ele>187.50</ele>
<time>2021-09-07T12:36:16Z</time>
</trkpt>
<trkpt lat="42.4839833" lon="2.6956356">
<ele>187.21</ele>
<time>2021-09-07T12:36:20Z</time>
</trkpt>
<trkpt lat="42.4838355" lon="2.6954387">
<ele>187.45</ele>
<time>2021-09-07T12:36:24Z</time>
</trkpt>
<trkpt lat="42.4837070" lon="2.6952425">
<ele>186.82</ele>
<time>2021-09-07T12:36:28Z</time>
</trkpt>
<trkpt lat="42.4835974" lon="2.6950330">
<ele>187.92</ele>
<time>2021-09-07T12:36:32Z</time>
</trkpt>
<trkpt lat="42.4834984" lon="2.6947979">
<ele>189.53</ele>
<time>2021-09-07T12:36:36Z</time>
</trkpt>
<trkpt lat="42.4833777" lon="2.6945263">
<ele>189.70</ele>
<time>2021-09-07T12:36:41Z</time>
</trkpt>
<trkpt lat="42.4832782" lon="2.6942445">
<ele>190.02</ele>
<time>2021-09-07T12:36:46Z</time>
</trkpt>
<trkpt lat="42.4832174" lon="2.6939599">
<ele>188.97</ele>
<time>2021-09-07T12:36:51Z</time>
</trkpt>
<trkpt lat="42.4831504" lon="2.6937074">
<ele>187.78</ele>
<time>2021-09-07T12:36:55Z</time>
</trkpt>
<trkpt lat="42.4831073" lon="2.6934299">
<ele>188.04</ele>
<time>2021-09-07T12:36:59Z</time>
</trkpt>
<trkpt lat="42.4830766" lon="2.6931710">
<ele>188.84</ele>
<time>2021-09-07T12:37:03Z</time>
</trkpt>
<trkpt lat="42.4830872" lon="2.6929254">
<ele>189.40</ele>
<time>2021-09-07T12:37:07Z</time>
</trkpt>
<trkpt lat="42.4831056" lon="2.6926269">
<ele>190.32</ele>
<time>2021-09-07T12:37:12Z</time>
</trkpt>
<trkpt lat="42.4831121" lon="2.6923513">
<ele>189.53</ele>
<time>2021-09-07T12:37:16Z</time>
</trkpt>
<trkpt lat="42.4831283" lon="2.6920992">
<ele>189.37</ele>
<time>2021-09-07T12:37:20Z</time>
</trkpt>
<trkpt lat="42.4831305" lon="2.6918072">
<ele>190.12</ele>
<time>2021-09-07T12:37:25Z</time>
</trkpt>
<trkpt lat="42.4831958" lon="2.6915431">
<ele>190.74</ele>
<time>2021-09-07T12:37:30Z</time>
</trkpt>
<trkpt lat="42.4833410" lon="2.6913487">
<ele>190.77</ele>
<time>2021-09-07T12:37:37Z</time>
</trkpt>
<trkpt lat="42.4833765" lon="2.6911004">
<ele>189.59</ele>
<time>2021-09-07T12:37:41Z</time>
</trkpt>
<trkpt lat="42.4834254" lon="2.6908429">
<ele>186.50</ele>
<time>2021-09-07T12:37:45Z</time>
</trkpt>
<trkpt lat="42.4835300" lon="2.6906209">
<ele>187.46</ele>
<time>2021-09-07T12:37:49Z</time>
</trkpt>
<trkpt lat="42.4836681" lon="2.6904102">
<ele>184.27</ele>
<time>2021-09-07T12:37:55Z</time>
</trkpt>
<trkpt lat="42.4837631" lon="2.6901625">
<ele>183.34</ele>
<time>2021-09-07T12:38:03Z</time>
</trkpt>
<trkpt lat="42.4837098" lon="2.6899239">
<ele>183.87</ele>
<time>2021-09-07T12:38:08Z</time>
</trkpt>
<trkpt lat="42.4836445" lon="2.6896828">
<ele>185.68</ele>
<time>2021-09-07T12:38:13Z</time>
</trkpt>
<trkpt lat="42.4836005" lon="2.6894184">
<ele>185.29</ele>
<time>2021-09-07T12:38:19Z</time>
</trkpt>
<trkpt lat="42.4835672" lon="2.6891612">
<ele>185.46</ele>
<time>2021-09-07T12:38:23Z</time>
</trkpt>
<trkpt lat="42.4835066" lon="2.6889287">
<ele>186.19</ele>
<time>2021-09-07T12:38:28Z</time>
</trkpt>
<trkpt lat="42.4834455" lon="2.6886600">
<ele>186.31</ele>
<time>2021-09-07T12:38:34Z</time>
</trkpt>
<trkpt lat="42.4833539" lon="2.6884191">
<ele>185.50</ele>
<time>2021-09-07T12:38:39Z</time>
</trkpt>
<trkpt lat="42.4832435" lon="2.6881984">
<ele>186.22</ele>
<time>2021-09-07T12:38:44Z</time>
</trkpt>
<trkpt lat="42.4831215" lon="2.6880040">
<ele>187.12</ele>
<time>2021-09-07T12:38:50Z</time>
</trkpt>
<trkpt lat="42.4829803" lon="2.6877754">
<ele>187.13</ele>
<time>2021-09-07T12:38:54Z</time>
</trkpt>
<trkpt lat="42.4828374" lon="2.6875650">
<ele>187.00</ele>
<time>2021-09-07T12:38:59Z</time>
</trkpt>
<trkpt lat="42.4827156" lon="2.6873447">
<ele>187.45</ele>
<time>2021-09-07T12:39:04Z</time>
</trkpt>
<trkpt lat="42.4826211" lon="2.6870942">
<ele>188.82</ele>
<time>2021-09-07T12:39:09Z</time>
</trkpt>
<trkpt lat="42.4825632" lon="2.6868023">
<ele>189.63</ele>
<time>2021-09-07T12:39:14Z</time>
</trkpt>
<trkpt lat="42.4824869" lon="2.6865591">
<ele>189.66</ele>
<time>2021-09-07T12:39:18Z</time>
</trkpt>
<trkpt lat="42.4824224" lon="2.6863112">
<ele>189.08</ele>
<time>2021-09-07T12:39:23Z</time>
</trkpt>
<trkpt lat="42.4823613" lon="2.6860809">
<ele>189.09</ele>
<time>2021-09-07T12:39:27Z</time>
</trkpt>
<trkpt lat="42.4822908" lon="2.6858203">
<ele>189.57</ele>
<time>2021-09-07T12:39:32Z</time>
</trkpt>
<trkpt lat="42.4822271" lon="2.6855641">
<ele>190.56</ele>
<time>2021-09-07T12:39:37Z</time>
</trkpt>
<trkpt lat="42.4821555" lon="2.6853083">
<ele>192.19</ele>
<time>2021-09-07T12:39:42Z</time>
</trkpt>
<trkpt lat="42.4820919" lon="2.6850587">
<ele>192.90</ele>
<time>2021-09-07T12:39:47Z</time>
</trkpt>
<trkpt lat="42.4820255" lon="2.6848261">
<ele>193.42</ele>
<time>2021-09-07T12:39:52Z</time>
</trkpt>
<trkpt lat="42.4819582" lon="2.6845936">
<ele>194.60</ele>
<time>2021-09-07T12:39:57Z</time>
</trkpt>
<trkpt lat="42.4819500" lon="2.6843284">
<ele>196.07</ele>
<time>2021-09-07T12:40:03Z</time>
</trkpt>
<trkpt lat="42.4819802" lon="2.6840848">
<ele>197.14</ele>
<time>2021-09-07T12:40:08Z</time>
</trkpt>
<trkpt lat="42.4820147" lon="2.6838443">
<ele>197.68</ele>
<time>2021-09-07T12:40:13Z</time>
</trkpt>
<trkpt lat="42.4820384" lon="2.6836020">
<ele>197.42</ele>
<time>2021-09-07T12:40:18Z</time>
</trkpt>
<trkpt lat="42.4820717" lon="2.6833501">
<ele>197.61</ele>
<time>2021-09-07T12:40:23Z</time>
</trkpt>
<trkpt lat="42.4820980" lon="2.6830901">
<ele>198.47</ele>
<time>2021-09-07T12:40:27Z</time>
</trkpt>
<trkpt lat="42.4821276" lon="2.6828141">
<ele>198.56</ele>
<time>2021-09-07T12:40:32Z</time>
</trkpt>
<trkpt lat="42.4821597" lon="2.6825628">
<ele>199.20</ele>
<time>2021-09-07T12:40:36Z</time>
</trkpt>
<trkpt lat="42.4821775" lon="2.6822972">
<ele>199.79</ele>
<time>2021-09-07T12:40:40Z</time>
</trkpt>
<trkpt lat="42.4822047" lon="2.6820298">
<ele>199.73</ele>
<time>2021-09-07T12:40:44Z</time>
</trkpt>
<trkpt lat="42.4822290" lon="2.6817753">
<ele>199.93</ele>
<time>2021-09-07T12:40:48Z</time>
</trkpt>
<trkpt lat="42.4822236" lon="2.6814888">
<ele>200.93</ele>
<time>2021-09-07T12:40:53Z</time>
</trkpt>
<trkpt lat="42.4821745" lon="2.6812144">
<ele>202.11</ele>
<time>2021-09-07T12:40:58Z</time>
</trkpt>
<trkpt lat="42.4820991" lon="2.6809448">
<ele>203.77</ele>
<time>2021-09-07T12:41:03Z</time>
</trkpt>
<trkpt lat="42.4820191" lon="2.6806848">
<ele>204.06</ele>
<time>2021-09-07T12:41:08Z</time>
</trkpt>
<trkpt lat="42.4819343" lon="2.6804290">
<ele>204.20</ele>
<time>2021-09-07T12:41:13Z</time>
</trkpt>
<trkpt lat="42.4818625" lon="2.6801625">
<ele>204.90</ele>
<time>2021-09-07T12:41:18Z</time>
</trkpt>
<trkpt lat="42.4817944" lon="2.6799089">
<ele>204.02</ele>
<time>2021-09-07T12:41:23Z</time>
</trkpt>
<trkpt lat="42.4817463" lon="2.6796659">
<ele>204.16</ele>
<time>2021-09-07T12:41:29Z</time>
</trkpt>
<trkpt lat="42.4816494" lon="2.6793911">
<ele>204.00</ele>
<time>2021-09-07T12:41:33Z</time>
</trkpt>
<trkpt lat="42.4815805" lon="2.6791578">
<ele>204.60</ele>
<time>2021-09-07T12:41:37Z</time>
</trkpt>
<trkpt lat="42.4815170" lon="2.6788898">
<ele>205.89</ele>
<time>2021-09-07T12:41:42Z</time>
</trkpt>
<trkpt lat="42.4814492" lon="2.6786527">
<ele>206.80</ele>
<time>2021-09-07T12:41:47Z</time>
</trkpt>
<trkpt lat="42.4813495" lon="2.6783959">
<ele>206.61</ele>
<time>2021-09-07T12:41:52Z</time>
</trkpt>
<trkpt lat="42.4812928" lon="2.6781264">
<ele>206.55</ele>
<time>2021-09-07T12:41:57Z</time>
</trkpt>
<trkpt lat="42.4810810" lon="2.6782048">
<ele>207.66</ele>
<time>2021-09-07T12:42:03Z</time>
</trkpt>
<trkpt lat="42.4808991" lon="2.6781156">
<ele>207.89</ele>
<time>2021-09-07T12:42:09Z</time>
</trkpt>
<trkpt lat="42.4808701" lon="2.6778374">
<ele>209.06</ele>
<time>2021-09-07T12:42:16Z</time>
</trkpt>
<trkpt lat="42.4808280" lon="2.6775669">
<ele>211.88</ele>
<time>2021-09-07T12:42:22Z</time>
</trkpt>
<trkpt lat="42.4807433" lon="2.6773514">
<ele>211.87</ele>
<time>2021-09-07T12:42:28Z</time>
</trkpt>
<trkpt lat="42.4806547" lon="2.6771244">
<ele>212.84</ele>
<time>2021-09-07T12:42:35Z</time>
</trkpt>
<trkpt lat="42.4805406" lon="2.6768849">
<ele>212.27</ele>
<time>2021-09-07T12:42:41Z</time>
</trkpt>
<trkpt lat="42.4804216" lon="2.6766940">
<ele>212.00</ele>
<time>2021-09-07T12:42:46Z</time>
</trkpt>
<trkpt lat="42.4802729" lon="2.6764893">
<ele>212.09</ele>
<time>2021-09-07T12:42:52Z</time>
</trkpt>
<trkpt lat="42.4801189" lon="2.6762994">
<ele>213.02</ele>
<time>2021-09-07T12:42:58Z</time>
</trkpt>
<trkpt lat="42.4799544" lon="2.6761589">
<ele>213.23</ele>
<time>2021-09-07T12:43:03Z</time>
</trkpt>
<trkpt lat="42.4797576" lon="2.6760098">
<ele>213.08</ele>
<time>2021-09-07T12:43:07Z</time>
</trkpt>
<trkpt lat="42.4795525" lon="2.6758805">
<ele>212.93</ele>
<time>2021-09-07T12:43:12Z</time>
</trkpt>
<trkpt lat="42.4793894" lon="2.6757664">
<ele>215.00</ele>
<time>2021-09-07T12:43:16Z</time>
</trkpt>
<trkpt lat="42.4792169" lon="2.6756885">
<ele>214.26</ele>
<time>2021-09-07T12:43:20Z</time>
</trkpt>
<trkpt lat="42.4790038" lon="2.6755908">
<ele>214.87</ele>
<time>2021-09-07T12:43:25Z</time>
</trkpt>
<trkpt lat="42.4787985" lon="2.6755209">
<ele>214.96</ele>
<time>2021-09-07T12:43:30Z</time>
</trkpt>
<trkpt lat="42.4786024" lon="2.6754610">
<ele>214.85</ele>
<time>2021-09-07T12:43:35Z</time>
</trkpt>
<trkpt lat="42.4783980" lon="2.6753779">
<ele>215.02</ele>
<time>2021-09-07T12:43:40Z</time>
</trkpt>
<trkpt lat="42.4781985" lon="2.6753176">
<ele>213.74</ele>
<time>2021-09-07T12:43:45Z</time>
</trkpt>
<trkpt lat="42.4780197" lon="2.6752473">
<ele>215.38</ele>
<time>2021-09-07T12:43:50Z</time>
</trkpt>
<trkpt lat="42.4778413" lon="2.6751461">
<ele>216.27</ele>
<time>2021-09-07T12:43:55Z</time>
</trkpt>
<trkpt lat="42.4776663" lon="2.6750398">
<ele>215.47</ele>
<time>2021-09-07T12:44:00Z</time>
</trkpt>
<trkpt lat="42.4774814" lon="2.6749102">
<ele>214.93</ele>
<time>2021-09-07T12:44:05Z</time>
</trkpt>
<trkpt lat="42.4773340" lon="2.6747452">
<ele>216.08</ele>
<time>2021-09-07T12:44:10Z</time>
</trkpt>
<trkpt lat="42.4771867" lon="2.6745817">
<ele>216.31</ele>
<time>2021-09-07T12:44:16Z</time>
</trkpt>
<trkpt lat="42.4770387" lon="2.6744362">
<ele>218.18</ele>
<time>2021-09-07T12:44:21Z</time>
</trkpt>
<trkpt lat="42.4768898" lon="2.6742657">
<ele>217.19</ele>
<time>2021-09-07T12:44:26Z</time>
</trkpt>
<trkpt lat="42.4767399" lon="2.6740674">
<ele>215.94</ele>
<time>2021-09-07T12:44:32Z</time>
</trkpt>
<trkpt lat="42.4765957" lon="2.6738664">
<ele>215.65</ele>
<time>2021-09-07T12:44:38Z</time>
</trkpt>
<trkpt lat="42.4764684" lon="2.6736907">
<ele>215.67</ele>
<time>2021-09-07T12:44:43Z</time>
</trkpt>
<trkpt lat="42.4763329" lon="2.6734707">
<ele>216.75</ele>
<time>2021-09-07T12:44:49Z</time>
</trkpt>
<trkpt lat="42.4762221" lon="2.6732298">
<ele>217.43</ele>
<time>2021-09-07T12:44:55Z</time>
</trkpt>
<trkpt lat="42.4761027" lon="2.6729887">
<ele>216.29</ele>
<time>2021-09-07T12:45:00Z</time>
</trkpt>
<trkpt lat="42.4760037" lon="2.6727466">
<ele>217.76</ele>
<time>2021-09-07T12:45:05Z</time>
</trkpt>
<trkpt lat="42.4759277" lon="2.6725205">
<ele>218.62</ele>
<time>2021-09-07T12:45:10Z</time>
</trkpt>
<trkpt lat="42.4757400" lon="2.6725158">
<ele>219.10</ele>
<time>2021-09-07T12:45:18Z</time>
</trkpt>
<trkpt lat="42.4755734" lon="2.6726205">
<ele>220.29</ele>
<time>2021-09-07T12:45:24Z</time>
</trkpt>
<trkpt lat="42.4754045" lon="2.6727286">
<ele>222.87</ele>
<time>2021-09-07T12:45:31Z</time>
</trkpt>
<trkpt lat="42.4752148" lon="2.6728267">
<ele>224.10</ele>
<time>2021-09-07T12:45:37Z</time>
</trkpt>
<trkpt lat="42.4750130" lon="2.6727841">
<ele>223.76</ele>
<time>2021-09-07T12:45:43Z</time>
</trkpt>
<trkpt lat="42.4749019" lon="2.6725661">
<ele>225.56</ele>
<time>2021-09-07T12:45:48Z</time>
</trkpt>
<trkpt lat="42.4748406" lon="2.6723319">
<ele>225.88</ele>
<time>2021-09-07T12:45:52Z</time>
</trkpt>
<trkpt lat="42.4747796" lon="2.6720802">
<ele>225.37</ele>
<time>2021-09-07T12:45:56Z</time>
</trkpt>
<trkpt lat="42.4747215" lon="2.6718251">
<ele>224.16</ele>
<time>2021-09-07T12:46:00Z</time>
</trkpt>
<trkpt lat="42.4746473" lon="2.6715591">
<ele>223.42</ele>
<time>2021-09-07T12:46:04Z</time>
</trkpt>
<trkpt lat="42.4746480" lon="2.6712790">
<ele>221.84</ele>
<time>2021-09-07T12:46:08Z</time>
</trkpt>
<trkpt lat="42.4745905" lon="2.6710478">
<ele>220.98</ele>
<time>2021-09-07T12:46:11Z</time>
</trkpt>
<trkpt lat="42.4745378" lon="2.6707734">
<ele>219.63</ele>
<time>2021-09-07T12:46:14Z</time>
</trkpt>
<trkpt lat="42.4745227" lon="2.6704770">
<ele>217.81</ele>
<time>2021-09-07T12:46:17Z</time>
</trkpt>
<trkpt lat="42.4745361" lon="2.6702119">
<ele>216.78</ele>
<time>2021-09-07T12:46:20Z</time>
</trkpt>
<trkpt lat="42.4746315" lon="2.6699608">
<ele>214.57</ele>
<time>2021-09-07T12:46:23Z</time>
</trkpt>
<trkpt lat="42.4747329" lon="2.6697445">
<ele>212.65</ele>
<time>2021-09-07T12:46:26Z</time>
</trkpt>
<trkpt lat="42.4748524" lon="2.6695394">
<ele>212.11</ele>
<time>2021-09-07T12:46:30Z</time>
</trkpt>
<trkpt lat="42.4749653" lon="2.6693259">
<ele>212.75</ele>
<time>2021-09-07T12:46:34Z</time>
</trkpt>
<trkpt lat="42.4751182" lon="2.6690797">
<ele>211.91</ele>
<time>2021-09-07T12:46:38Z</time>
</trkpt>
<trkpt lat="42.4752185" lon="2.6688756">
<ele>212.11</ele>
<time>2021-09-07T12:46:41Z</time>
</trkpt>
<trkpt lat="42.4753363" lon="2.6686723">
<ele>211.30</ele>
<time>2021-09-07T12:46:44Z</time>
</trkpt>
<trkpt lat="42.4754523" lon="2.6684700">
<ele>211.71</ele>
<time>2021-09-07T12:46:47Z</time>
</trkpt>
<trkpt lat="42.4756059" lon="2.6683181">
<ele>211.45</ele>
<time>2021-09-07T12:46:50Z</time>
</trkpt>
<trkpt lat="42.4756584" lon="2.6680760">
<ele>211.96</ele>
<time>2021-09-07T12:46:53Z</time>
</trkpt>
<trkpt lat="42.4757482" lon="2.6678528">
<ele>213.24</ele>
<time>2021-09-07T12:46:56Z</time>
</trkpt>
<trkpt lat="42.4758423" lon="2.6676246">
<ele>214.18</ele>
<time>2021-09-07T12:46:59Z</time>
</trkpt>
<trkpt lat="42.4759149" lon="2.6673814">
<ele>214.95</ele>
<time>2021-09-07T12:47:02Z</time>
</trkpt>
<trkpt lat="42.4759692" lon="2.6671392">
<ele>216.17</ele>
<time>2021-09-07T12:47:05Z</time>
</trkpt>
<trkpt lat="42.4760215" lon="2.6668908">
<ele>217.03</ele>
<time>2021-09-07T12:47:08Z</time>
</trkpt>
<trkpt lat="42.4760501" lon="2.6666370">
<ele>217.53</ele>
<time>2021-09-07T12:47:11Z</time>
</trkpt>
<trkpt lat="42.4760633" lon="2.6663708">
<ele>218.30</ele>
<time>2021-09-07T12:47:14Z</time>
</trkpt>
<trkpt lat="42.4760699" lon="2.6661107">
<ele>219.14</ele>
<time>2021-09-07T12:47:17Z</time>
</trkpt>
<trkpt lat="42.4760477" lon="2.6658623">
<ele>219.19</ele>
<time>2021-09-07T12:47:20Z</time>
</trkpt>
<trkpt lat="42.4760269" lon="2.6656112">
<ele>220.00</ele>
<time>2021-09-07T12:47:23Z</time>
</trkpt>
<trkpt lat="42.4759943" lon="2.6653605">
<ele>220.59</ele>
<time>2021-09-07T12:47:26Z</time>
</trkpt>
<trkpt lat="42.4759481" lon="2.6651216">
<ele>220.29</ele>
<time>2021-09-07T12:47:29Z</time>
</trkpt>
<trkpt lat="42.4758831" lon="2.6648847">
<ele>221.60</ele>
<time>2021-09-07T12:47:32Z</time>
</trkpt>
<trkpt lat="42.4758156" lon="2.6646522">
<ele>221.29</ele>
<time>2021-09-07T12:47:35Z</time>
</trkpt>
<trkpt lat="42.4757260" lon="2.6644338">
<ele>221.31</ele>
<time>2021-09-07T12:47:38Z</time>
</trkpt>
<trkpt lat="42.4756127" lon="2.6641570">
<ele>221.95</ele>
<time>2021-09-07T12:47:42Z</time>
</trkpt>
<trkpt lat="42.4755178" lon="2.6639486">
<ele>222.73</ele>
<time>2021-09-07T12:47:45Z</time>
</trkpt>
<trkpt lat="42.4754011" lon="2.6637567">
<ele>222.77</ele>
<time>2021-09-07T12:47:48Z</time>
</trkpt>
<trkpt lat="42.4752915" lon="2.6635522">
<ele>222.66</ele>
<time>2021-09-07T12:47:51Z</time>
</trkpt>
<trkpt lat="42.4752094" lon="2.6633232">
<ele>223.37</ele>
<time>2021-09-07T12:47:54Z</time>
</trkpt>
<trkpt lat="42.4751088" lon="2.6630505">
<ele>223.59</ele>
<time>2021-09-07T12:47:58Z</time>
</trkpt>
<trkpt lat="42.4750233" lon="2.6628248">
<ele>223.78</ele>
<time>2021-09-07T12:48:02Z</time>
</trkpt>
<trkpt lat="42.4748760" lon="2.6626225">
<ele>224.02</ele>
<time>2021-09-07T12:48:07Z</time>
</trkpt>
<trkpt lat="42.4747166" lon="2.6624366">
<ele>224.09</ele>
<time>2021-09-07T12:48:12Z</time>
</trkpt>
<trkpt lat="42.4745497" lon="2.6622446">
<ele>224.93</ele>
<time>2021-09-07T12:48:17Z</time>
</trkpt>
<trkpt lat="42.4743747" lon="2.6620589">
<ele>225.84</ele>
<time>2021-09-07T12:48:22Z</time>
</trkpt>
<trkpt lat="42.4742057" lon="2.6618803">
<ele>226.01</ele>
<time>2021-09-07T12:48:27Z</time>
</trkpt>
<trkpt lat="42.4740634" lon="2.6616882">
<ele>226.28</ele>
<time>2021-09-07T12:48:32Z</time>
</trkpt>
<trkpt lat="42.4738908" lon="2.6614978">
<ele>226.66</ele>
<time>2021-09-07T12:48:37Z</time>
</trkpt>
<trkpt lat="42.4737164" lon="2.6613044">
<ele>226.06</ele>
<time>2021-09-07T12:48:42Z</time>
</trkpt>
<trkpt lat="42.4735508" lon="2.6611456">
<ele>224.87</ele>
<time>2021-09-07T12:48:46Z</time>
</trkpt>
<trkpt lat="42.4733805" lon="2.6609910">
<ele>226.69</ele>
<time>2021-09-07T12:48:50Z</time>
</trkpt>
<trkpt lat="42.4732125" lon="2.6608340">
<ele>226.40</ele>
<time>2021-09-07T12:48:55Z</time>
</trkpt>
<trkpt lat="42.4730703" lon="2.6606223">
<ele>229.55</ele>
<time>2021-09-07T12:49:01Z</time>
</trkpt>
<trkpt lat="42.4729221" lon="2.6604503">
<ele>231.60</ele>
<time>2021-09-07T12:49:07Z</time>
</trkpt>
<trkpt lat="42.4727650" lon="2.6603297">
<ele>230.07</ele>
<time>2021-09-07T12:49:13Z</time>
</trkpt>
<trkpt lat="42.4726239" lon="2.6601664">
<ele>229.49</ele>
<time>2021-09-07T12:49:20Z</time>
</trkpt>
<trkpt lat="42.4724466" lon="2.6600365">
<ele>229.64</ele>
<time>2021-09-07T12:49:25Z</time>
</trkpt>
<trkpt lat="42.4723064" lon="2.6598796">
<ele>229.54</ele>
<time>2021-09-07T12:49:29Z</time>
</trkpt>
<trkpt lat="42.4721969" lon="2.6596715">
<ele>229.99</ele>
<time>2021-09-07T12:49:33Z</time>
</trkpt>
<trkpt lat="42.4721184" lon="2.6594099">
<ele>230.80</ele>
<time>2021-09-07T12:49:38Z</time>
</trkpt>
<trkpt lat="42.4720168" lon="2.6591817">
<ele>232.11</ele>
<time>2021-09-07T12:49:43Z</time>
</trkpt>
<trkpt lat="42.4718889" lon="2.6589664">
<ele>233.09</ele>
<time>2021-09-07T12:49:49Z</time>
</trkpt>
<trkpt lat="42.4717432" lon="2.6588033">
<ele>232.59</ele>
<time>2021-09-07T12:49:54Z</time>
</trkpt>
<trkpt lat="42.4715867" lon="2.6586177">
<ele>234.48</ele>
<time>2021-09-07T12:50:00Z</time>
</trkpt>
<trkpt lat="42.4714516" lon="2.6584250">
<ele>235.75</ele>
<time>2021-09-07T12:50:06Z</time>
</trkpt>
<trkpt lat="42.4713150" lon="2.6582436">
<ele>237.68</ele>
<time>2021-09-07T12:50:12Z</time>
</trkpt>
<trkpt lat="42.4711768" lon="2.6580670">
<ele>239.32</ele>
<time>2021-09-07T12:50:18Z</time>
</trkpt>
<trkpt lat="42.4710360" lon="2.6578674">
<ele>238.47</ele>
<time>2021-09-07T12:50:24Z</time>
</trkpt>
<trkpt lat="42.4708908" lon="2.6576490">
<ele>239.89</ele>
<time>2021-09-07T12:50:30Z</time>
</trkpt>
<trkpt lat="42.4707999" lon="2.6574130">
<ele>239.86</ele>
<time>2021-09-07T12:50:35Z</time>
</trkpt>
<trkpt lat="42.4706827" lon="2.6571640">
<ele>240.50</ele>
<time>2021-09-07T12:50:40Z</time>
</trkpt>
<trkpt lat="42.4705753" lon="2.6569089">
<ele>241.48</ele>
<time>2021-09-07T12:50:45Z</time>
</trkpt>
<trkpt lat="42.4704619" lon="2.6566647">
<ele>241.66</ele>
<time>2021-09-07T12:50:50Z</time>
</trkpt>
<trkpt lat="42.4703706" lon="2.6564110">
<ele>241.47</ele>
<time>2021-09-07T12:50:55Z</time>
</trkpt>
<trkpt lat="42.4702917" lon="2.6561309">
<ele>241.43</ele>
<time>2021-09-07T12:51:00Z</time>
</trkpt>
<trkpt lat="42.4703097" lon="2.6558351">
<ele>242.24</ele>
<time>2021-09-07T12:51:05Z</time>
</trkpt>
<trkpt lat="42.4703557" lon="2.6555760">
<ele>242.42</ele>
<time>2021-09-07T12:51:09Z</time>
</trkpt>
<trkpt lat="42.4703386" lon="2.6553122">
<ele>242.12</ele>
<time>2021-09-07T12:51:13Z</time>
</trkpt>
<trkpt lat="42.4702889" lon="2.6550399">
<ele>242.27</ele>
<time>2021-09-07T12:51:17Z</time>
</trkpt>
<trkpt lat="42.4702615" lon="2.6547632">
<ele>241.52</ele>
<time>2021-09-07T12:51:21Z</time>
</trkpt>
<trkpt lat="42.4702250" lon="2.6545009">
<ele>241.52</ele>
<time>2021-09-07T12:51:25Z</time>
</trkpt>
<trkpt lat="42.4701908" lon="2.6542140">
<ele>242.22</ele>
<time>2021-09-07T12:51:30Z</time>
</trkpt>
<trkpt lat="42.4701298" lon="2.6539800">
<ele>243.17</ele>
<time>2021-09-07T12:51:34Z</time>
</trkpt>
<trkpt lat="42.4700887" lon="2.6537376">
<ele>244.35</ele>
<time>2021-09-07T12:51:39Z</time>
</trkpt>
<trkpt lat="42.4699992" lon="2.6534673">
<ele>245.63</ele>
<time>2021-09-07T12:51:45Z</time>
</trkpt>
<trkpt lat="42.4699475" lon="2.6531941">
<ele>244.69</ele>
<time>2021-09-07T12:51:50Z</time>
</trkpt>
<trkpt lat="42.4699312" lon="2.6529071">
<ele>246.11</ele>
<time>2021-09-07T12:51:55Z</time>
</trkpt>
<trkpt lat="42.4699906" lon="2.6526491">
<ele>246.47</ele>
<time>2021-09-07T12:52:00Z</time>
</trkpt>
<trkpt lat="42.4700449" lon="2.6523580">
<ele>245.91</ele>
<time>2021-09-07T12:52:05Z</time>
</trkpt>
<trkpt lat="42.4700524" lon="2.6521125">
<ele>245.60</ele>
<time>2021-09-07T12:52:09Z</time>
</trkpt>
<trkpt lat="42.4700078" lon="2.6518567">
<ele>246.28</ele>
<time>2021-09-07T12:52:13Z</time>
</trkpt>
<trkpt lat="42.4699615" lon="2.6515885">
<ele>245.93</ele>
<time>2021-09-07T12:52:17Z</time>
</trkpt>
<trkpt lat="42.4699083" lon="2.6513271">
<ele>247.15</ele>
<time>2021-09-07T12:52:21Z</time>
</trkpt>
<trkpt lat="42.4698444" lon="2.6510515">
<ele>248.34</ele>
<time>2021-09-07T12:52:25Z</time>
</trkpt>
<trkpt lat="42.4698246" lon="2.6507790">
<ele>247.45</ele>
<time>2021-09-07T12:52:29Z</time>
</trkpt>
<trkpt lat="42.4698341" lon="2.6505265">
<ele>246.28</ele>
<time>2021-09-07T12:52:33Z</time>
</trkpt>
<trkpt lat="42.4698268" lon="2.6502489">
<ele>247.84</ele>
<time>2021-09-07T12:53:33Z</time>
</trkpt>
<trkpt lat="42.4698390" lon="2.6499992">
<ele>247.25</ele>
<time>2021-09-07T12:53:38Z</time>
</trkpt>
<trkpt lat="42.4697975" lon="2.6497178">
<ele>247.50</ele>
<time>2021-09-07T12:53:43Z</time>
</trkpt>
<trkpt lat="42.4697170" lon="2.6494666">
<ele>246.53</ele>
<time>2021-09-07T12:53:48Z</time>
</trkpt>
<trkpt lat="42.4696271" lon="2.6492473">
<ele>245.80</ele>
<time>2021-09-07T12:53:53Z</time>
</trkpt>
<trkpt lat="42.4695418" lon="2.6490082">
<ele>244.14</ele>
<time>2021-09-07T12:53:59Z</time>
</trkpt>
<trkpt lat="42.4694848" lon="2.6487682">
<ele>244.11</ele>
<time>2021-09-07T12:54:06Z</time>
</trkpt>
<trkpt lat="42.4694422" lon="2.6485183">
<ele>241.71</ele>
<time>2021-09-07T12:54:11Z</time>
</trkpt>
<trkpt lat="42.4693622" lon="2.6482758">
<ele>243.48</ele>
<time>2021-09-07T12:54:17Z</time>
</trkpt>
<trkpt lat="42.4692631" lon="2.6480108">
<ele>245.69</ele>
<time>2021-09-07T12:54:22Z</time>
</trkpt>
<trkpt lat="42.4691920" lon="2.6477805">
<ele>246.13</ele>
<time>2021-09-07T12:54:27Z</time>
</trkpt>
<trkpt lat="42.4690807" lon="2.6475477">
<ele>246.07</ele>
<time>2021-09-07T12:54:32Z</time>
</trkpt>
<trkpt lat="42.4689462" lon="2.6473137">
<ele>249.06</ele>
<time>2021-09-07T12:54:37Z</time>
</trkpt>
<trkpt lat="42.4688173" lon="2.6471281">
<ele>250.19</ele>
<time>2021-09-07T12:54:42Z</time>
</trkpt>
<trkpt lat="42.4687180" lon="2.6469197">
<ele>251.32</ele>
<time>2021-09-07T12:54:47Z</time>
</trkpt>
<trkpt lat="42.4685772" lon="2.6467255">
<ele>250.87</ele>
<time>2021-09-07T12:54:52Z</time>
</trkpt>
<trkpt lat="42.4684174" lon="2.6465616">
<ele>250.61</ele>
<time>2021-09-07T12:54:56Z</time>
</trkpt>
<trkpt lat="42.4682457" lon="2.6463883">
<ele>250.72</ele>
<time>2021-09-07T12:55:01Z</time>
</trkpt>
<trkpt lat="42.4680648" lon="2.6462370">
<ele>250.05</ele>
<time>2021-09-07T12:55:06Z</time>
</trkpt>
<trkpt lat="42.4678922" lon="2.6461076">
<ele>248.90</ele>
<time>2021-09-07T12:55:11Z</time>
</trkpt>
<trkpt lat="42.4677436" lon="2.6459139">
<ele>249.12</ele>
<time>2021-09-07T12:55:17Z</time>
</trkpt>
<trkpt lat="42.4677416" lon="2.6456246">
<ele>249.15</ele>
<time>2021-09-07T12:55:23Z</time>
</trkpt>
<trkpt lat="42.4676521" lon="2.6453861">
<ele>249.49</ele>
<time>2021-09-07T12:55:28Z</time>
</trkpt>
<trkpt lat="42.4675382" lon="2.6451633">
<ele>249.56</ele>
<time>2021-09-07T12:55:33Z</time>
</trkpt>
<trkpt lat="42.4674633" lon="2.6449207">
<ele>250.11</ele>
<time>2021-09-07T12:55:38Z</time>
</trkpt>
<trkpt lat="42.4675500" lon="2.6446872">
<ele>250.01</ele>
<time>2021-09-07T12:55:43Z</time>
</trkpt>
<trkpt lat="42.4676340" lon="2.6444678">
<ele>251.26</ele>
<time>2021-09-07T12:55:49Z</time>
</trkpt>
<trkpt lat="42.4677381" lon="2.6442609">
<ele>251.84</ele>
<time>2021-09-07T12:55:56Z</time>
</trkpt>
<trkpt lat="42.4678301" lon="2.6440392">
<ele>253.29</ele>
<time>2021-09-07T12:56:02Z</time>
</trkpt>
<trkpt lat="42.4679333" lon="2.6438262">
<ele>254.15</ele>
<time>2021-09-07T12:56:11Z</time>
</trkpt>
<trkpt lat="42.4680240" lon="2.6435999">
<ele>254.65</ele>
<time>2021-09-07T12:56:20Z</time>
</trkpt>
<trkpt lat="42.4680831" lon="2.6433494">
<ele>259.16</ele>
<time>2021-09-07T12:56:30Z</time>
</trkpt>
<trkpt lat="42.4682652" lon="2.6433006">
<ele>265.59</ele>
<time>2021-09-07T12:56:59Z</time>
</trkpt>
<trkpt lat="42.4684145" lon="2.6431550">
<ele>264.40</ele>
<time>2021-09-07T12:57:08Z</time>
</trkpt>
<trkpt lat="42.4683881" lon="2.6429094">
<ele>268.51</ele>
<time>2021-09-07T12:57:17Z</time>
</trkpt>
<trkpt lat="42.4683909" lon="2.6426597">
<ele>270.78</ele>
<time>2021-09-07T12:57:26Z</time>
</trkpt>
<trkpt lat="42.4683927" lon="2.6423928">
<ele>272.32</ele>
<time>2021-09-07T12:57:36Z</time>
</trkpt>
<trkpt lat="42.4682904" lon="2.6421647">
<ele>275.03</ele>
<time>2021-09-07T12:57:45Z</time>
</trkpt>
<trkpt lat="42.4682311" lon="2.6419246">
<ele>278.23</ele>
<time>2021-09-07T12:57:54Z</time>
</trkpt>
<trkpt lat="42.4682530" lon="2.6416796">
<ele>280.38</ele>
<time>2021-09-07T12:58:03Z</time>
</trkpt>
<trkpt lat="42.4683033" lon="2.6414310">
<ele>283.59</ele>
<time>2021-09-07T12:58:13Z</time>
</trkpt>
<trkpt lat="42.4683323" lon="2.6416930">
<ele>285.96</ele>
<time>2021-09-07T12:58:25Z</time>
</trkpt>
<trkpt lat="42.4684237" lon="2.6419134">
<ele>286.72</ele>
<time>2021-09-07T12:58:34Z</time>
</trkpt>
<trkpt lat="42.4685774" lon="2.6420799">
<ele>284.83</ele>
<time>2021-09-07T12:58:44Z</time>
</trkpt>
<trkpt lat="42.4685113" lon="2.6418336">
<ele>289.60</ele>
<time>2021-09-07T12:59:01Z</time>
</trkpt>
<trkpt lat="42.4685160" lon="2.6415760">
<ele>290.91</ele>
<time>2021-09-07T12:59:11Z</time>
</trkpt>
<trkpt lat="42.4686461" lon="2.6414006">
<ele>292.46</ele>
<time>2021-09-07T12:59:20Z</time>
</trkpt>
<trkpt lat="42.4686968" lon="2.6411656">
<ele>295.34</ele>
<time>2021-09-07T12:59:30Z</time>
</trkpt>
<trkpt lat="42.4685369" lon="2.6410087">
<ele>299.18</ele>
<time>2021-09-07T12:59:40Z</time>
</trkpt>
<trkpt lat="42.4684012" lon="2.6408356">
<ele>300.10</ele>
<time>2021-09-07T12:59:50Z</time>
</trkpt>
<trkpt lat="42.4683069" lon="2.6406023">
<ele>303.01</ele>
<time>2021-09-07T13:00:00Z</time>
</trkpt>
<trkpt lat="42.4682657" lon="2.6403612">
<ele>303.81</ele>
<time>2021-09-07T13:00:09Z</time>
</trkpt>
<trkpt lat="42.4683033" lon="2.6401116">
<ele>305.60</ele>
<time>2021-09-07T13:00:19Z</time>
</trkpt>
<trkpt lat="42.4683753" lon="2.6398857">
<ele>307.07</ele>
<time>2021-09-07T13:00:28Z</time>
</trkpt>
<trkpt lat="42.4684235" lon="2.6396334">
<ele>309.16</ele>
<time>2021-09-07T13:00:38Z</time>
</trkpt>
<trkpt lat="42.4684767" lon="2.6393838">
<ele>310.77</ele>
<time>2021-09-07T13:00:48Z</time>
</trkpt>
<trkpt lat="42.4684876" lon="2.6391358">
<ele>311.99</ele>
<time>2021-09-07T13:00:58Z</time>
</trkpt>
<trkpt lat="42.4684975" lon="2.6388784">
<ele>313.37</ele>
<time>2021-09-07T13:01:08Z</time>
</trkpt>
<trkpt lat="42.4685744" lon="2.6391325">
<ele>315.48</ele>
<time>2021-09-07T13:01:34Z</time>
</trkpt>
<trkpt lat="42.4686159" lon="2.6393930">
<ele>315.42</ele>
<time>2021-09-07T13:01:42Z</time>
</trkpt>
<trkpt lat="42.4686398" lon="2.6396358">
<ele>314.88</ele>
<time>2021-09-07T13:01:49Z</time>
</trkpt>
<trkpt lat="42.4686143" lon="2.6399039">
<ele>316.14</ele>
<time>2021-09-07T13:01:58Z</time>
</trkpt>
<trkpt lat="42.4686152" lon="2.6401800">
<ele>317.28</ele>
<time>2021-09-07T13:02:07Z</time>
</trkpt>
<trkpt lat="42.4686989" lon="2.6404187">
<ele>319.15</ele>
<time>2021-09-07T13:02:22Z</time>
</trkpt>
<trkpt lat="42.4688753" lon="2.6405222">
<ele>321.23</ele>
<time>2021-09-07T13:02:30Z</time>
</trkpt>
<trkpt lat="42.4690603" lon="2.6404748">
<ele>321.68</ele>
<time>2021-09-07T13:02:37Z</time>
</trkpt>
<trkpt lat="42.4692599" lon="2.6405439">
<ele>324.65</ele>
<time>2021-09-07T13:02:44Z</time>
</trkpt>
<trkpt lat="42.4693508" lon="2.6407783">
<ele>326.92</ele>
<time>2021-09-07T13:02:51Z</time>
</trkpt>
<trkpt lat="42.4693801" lon="2.6410213">
<ele>328.70</ele>
<time>2021-09-07T13:02:59Z</time>
</trkpt>
<trkpt lat="42.4694368" lon="2.6412769">
<ele>329.68</ele>
<time>2021-09-07T13:03:08Z</time>
</trkpt>
<trkpt lat="42.4695588" lon="2.6414932">
<ele>330.32</ele>
<time>2021-09-07T13:03:17Z</time>
</trkpt>
<trkpt lat="42.4697014" lon="2.6416764">
<ele>332.89</ele>
<time>2021-09-07T13:03:26Z</time>
</trkpt>
<trkpt lat="42.4697660" lon="2.6420335">
<ele>334.95</ele>
<time>2021-09-07T13:03:38Z</time>
</trkpt>
<trkpt lat="42.4698509" lon="2.6422758">
<ele>337.75</ele>
<time>2021-09-07T13:03:46Z</time>
</trkpt>
<trkpt lat="42.4700076" lon="2.6424184">
<ele>338.80</ele>
<time>2021-09-07T13:03:55Z</time>
</trkpt>
<trkpt lat="42.4701631" lon="2.6425558">
<ele>340.26</ele>
<time>2021-09-07T13:04:04Z</time>
</trkpt>
<trkpt lat="42.4702319" lon="2.6427926">
<ele>340.13</ele>
<time>2021-09-07T13:04:12Z</time>
</trkpt>
<trkpt lat="42.4702133" lon="2.6430546">
<ele>339.37</ele>
<time>2021-09-07T13:04:19Z</time>
</trkpt>
<trkpt lat="42.4701946" lon="2.6433276">
<ele>337.95</ele>
<time>2021-09-07T13:04:26Z</time>
</trkpt>
<trkpt lat="42.4703117" lon="2.6431334">
<ele>342.63</ele>
<time>2021-09-07T13:04:39Z</time>
</trkpt>
<trkpt lat="42.4703828" lon="2.6428825">
<ele>342.17</ele>
<time>2021-09-07T13:04:49Z</time>
</trkpt>
<trkpt lat="42.4703867" lon="2.6426211">
<ele>346.31</ele>
<time>2021-09-07T13:05:00Z</time>
</trkpt>
<trkpt lat="42.4703247" lon="2.6423700">
<ele>352.15</ele>
<time>2021-09-07T13:05:11Z</time>
</trkpt>
<trkpt lat="42.4702606" lon="2.6421149">
<ele>356.17</ele>
<time>2021-09-07T13:05:23Z</time>
</trkpt>
<trkpt lat="42.4702067" lon="2.6418597">
<ele>359.01</ele>
<time>2021-09-07T13:05:33Z</time>
</trkpt>
<trkpt lat="42.4701690" lon="2.6416017">
<ele>359.60</ele>
<time>2021-09-07T13:05:43Z</time>
</trkpt>
<trkpt lat="42.4701509" lon="2.6413514">
<ele>363.16</ele>
<time>2021-09-07T13:06:00Z</time>
</trkpt>
<trkpt lat="42.4700876" lon="2.6411217">
<ele>365.32</ele>
<time>2021-09-07T13:06:09Z</time>
</trkpt>
<trkpt lat="42.4700365" lon="2.6408869">
<ele>366.29</ele>
<time>2021-09-07T13:06:13Z</time>
</trkpt>
<trkpt lat="42.4700127" lon="2.6406415">
<ele>369.61</ele>
<time>2021-09-07T13:06:23Z</time>
</trkpt>
<trkpt lat="42.4700527" lon="2.6403856">
<ele>370.75</ele>
<time>2021-09-07T13:06:34Z</time>
</trkpt>
<trkpt lat="42.4701283" lon="2.6401572">
<ele>371.11</ele>
<time>2021-09-07T13:06:44Z</time>
</trkpt>
<trkpt lat="42.4702994" lon="2.6400340">
<ele>372.56</ele>
<time>2021-09-07T13:06:55Z</time>
</trkpt>
<trkpt lat="42.4704847" lon="2.6400312">
<ele>373.11</ele>
<time>2021-09-07T13:07:06Z</time>
</trkpt>
<trkpt lat="42.4706606" lon="2.6401102">
<ele>376.98</ele>
<time>2021-09-07T13:07:17Z</time>
</trkpt>
<trkpt lat="42.4708301" lon="2.6402100">
<ele>376.41</ele>
<time>2021-09-07T13:07:28Z</time>
</trkpt>
<trkpt lat="42.4710092" lon="2.6402833">
<ele>376.71</ele>
<time>2021-09-07T13:07:39Z</time>
</trkpt>
<trkpt lat="42.4711962" lon="2.6403344">
<ele>379.24</ele>
<time>2021-09-07T13:07:50Z</time>
</trkpt>
<trkpt lat="42.4713733" lon="2.6403976">
<ele>380.68</ele>
<time>2021-09-07T13:07:59Z</time>
</trkpt>
<trkpt lat="42.4715396" lon="2.6405207">
<ele>385.49</ele>
<time>2021-09-07T13:08:11Z</time>
</trkpt>
<trkpt lat="42.4716684" lon="2.6407080">
<ele>387.63</ele>
<time>2021-09-07T13:08:23Z</time>
</trkpt>
<trkpt lat="42.4718444" lon="2.6407848">
<ele>390.33</ele>
<time>2021-09-07T13:08:30Z</time>
</trkpt>
<trkpt lat="42.4720391" lon="2.6408385">
<ele>391.21</ele>
<time>2021-09-07T13:08:38Z</time>
</trkpt>
<trkpt lat="42.4722320" lon="2.6409091">
<ele>388.11</ele>
<time>2021-09-07T13:08:47Z</time>
</trkpt>
<trkpt lat="42.4724094" lon="2.6410200">
<ele>390.30</ele>
<time>2021-09-07T13:08:55Z</time>
</trkpt>
<trkpt lat="42.4725928" lon="2.6411356">
<ele>392.46</ele>
<time>2021-09-07T13:09:04Z</time>
</trkpt>
<trkpt lat="42.4727659" lon="2.6412334">
<ele>395.48</ele>
<time>2021-09-07T13:09:12Z</time>
</trkpt>
<trkpt lat="42.4729434" lon="2.6413347">
<ele>397.45</ele>
<time>2021-09-07T13:09:20Z</time>
</trkpt>
<trkpt lat="42.4730797" lon="2.6414944">
<ele>399.81</ele>
<time>2021-09-07T13:09:28Z</time>
</trkpt>
<trkpt lat="42.4731970" lon="2.6416866">
<ele>404.05</ele>
<time>2021-09-07T13:09:36Z</time>
</trkpt>
<trkpt lat="42.4733206" lon="2.6418989">
<ele>408.79</ele>
<time>2021-09-07T13:09:45Z</time>
</trkpt>
<trkpt lat="42.4734579" lon="2.6420985">
<ele>411.89</ele>
<time>2021-09-07T13:09:54Z</time>
</trkpt>
<trkpt lat="42.4735875" lon="2.6422791">
<ele>414.21</ele>
<time>2021-09-07T13:10:02Z</time>
</trkpt>
<trkpt lat="42.4737635" lon="2.6423572">
<ele>414.82</ele>
<time>2021-09-07T13:10:11Z</time>
</trkpt>
<trkpt lat="42.4738946" lon="2.6421797">
<ele>417.26</ele>
<time>2021-09-07T13:10:19Z</time>
</trkpt>
<trkpt lat="42.4740175" lon="2.6419930">
<ele>419.23</ele>
<time>2021-09-07T13:10:28Z</time>
</trkpt>
<trkpt lat="42.4741567" lon="2.6418241">
<ele>420.40</ele>
<time>2021-09-07T13:10:37Z</time>
</trkpt>
<trkpt lat="42.4742884" lon="2.6416511">
<ele>422.43</ele>
<time>2021-09-07T13:10:46Z</time>
</trkpt>
<trkpt lat="42.4742966" lon="2.6413961">
<ele>424.53</ele>
<time>2021-09-07T13:10:56Z</time>
</trkpt>
<trkpt lat="42.4744309" lon="2.6412030">
<ele>426.13</ele>
<time>2021-09-07T13:11:04Z</time>
</trkpt>
<trkpt lat="42.4745633" lon="2.6410337">
<ele>425.56</ele>
<time>2021-09-07T13:11:12Z</time>
</trkpt>
<trkpt lat="42.4747038" lon="2.6408685">
<ele>428.00</ele>
<time>2021-09-07T13:11:20Z</time>
</trkpt>
<trkpt lat="42.4748617" lon="2.6407477">
<ele>432.25</ele>
<time>2021-09-07T13:11:29Z</time>
</trkpt>
<trkpt lat="42.4750287" lon="2.6405955">
<ele>433.60</ele>
<time>2021-09-07T13:11:40Z</time>
</trkpt>
<trkpt lat="42.4751698" lon="2.6404234">
<ele>434.99</ele>
<time>2021-09-07T13:11:47Z</time>
</trkpt>
<trkpt lat="42.4753316" lon="2.6402673">
<ele>436.06</ele>
<time>2021-09-07T13:11:59Z</time>
</trkpt>
<trkpt lat="42.4754858" lon="2.6401310">
<ele>438.49</ele>
<time>2021-09-07T13:12:08Z</time>
</trkpt>
<trkpt lat="42.4756382" lon="2.6399918">
<ele>440.00</ele>
<time>2021-09-07T13:12:18Z</time>
</trkpt>
<trkpt lat="42.4758087" lon="2.6398622">
<ele>439.85</ele>
<time>2021-09-07T13:12:28Z</time>
</trkpt>
<trkpt lat="42.4759854" lon="2.6397442">
<ele>441.73</ele>
<time>2021-09-07T13:12:38Z</time>
</trkpt>
<trkpt lat="42.4761610" lon="2.6396472">
<ele>441.04</ele>
<time>2021-09-07T13:12:46Z</time>
</trkpt>
<trkpt lat="42.4763329" lon="2.6395379">
<ele>441.18</ele>
<time>2021-09-07T13:12:54Z</time>
</trkpt>
<trkpt lat="42.4764973" lon="2.6394089">
<ele>441.59</ele>
<time>2021-09-07T13:13:03Z</time>
</trkpt>
<trkpt lat="42.4764872" lon="2.6391646">
<ele>443.15</ele>
<time>2021-09-07T13:13:10Z</time>
</trkpt>
<trkpt lat="42.4764320" lon="2.6389097">
<ele>446.66</ele>
<time>2021-09-07T13:13:18Z</time>
</trkpt>
<trkpt lat="42.4763552" lon="2.6386617">
<ele>449.43</ele>
<time>2021-09-07T13:13:26Z</time>
</trkpt>
<trkpt lat="42.4762411" lon="2.6384522">
<ele>450.93</ele>
<time>2021-09-07T13:13:33Z</time>
</trkpt>
<trkpt lat="42.4761025" lon="2.6382550">
<ele>453.32</ele>
<time>2021-09-07T13:13:39Z</time>
</trkpt>
<trkpt lat="42.4761205" lon="2.6380089">
<ele>452.29</ele>
<time>2021-09-07T13:13:46Z</time>
</trkpt>
<trkpt lat="42.4762573" lon="2.6378364">
<ele>455.46</ele>
<time>2021-09-07T13:13:53Z</time>
</trkpt>
<trkpt lat="42.4763644" lon="2.6376292">
<ele>453.99</ele>
<time>2021-09-07T13:14:00Z</time>
</trkpt>
<trkpt lat="42.4764299" lon="2.6373987">
<ele>453.86</ele>
<time>2021-09-07T13:14:07Z</time>
</trkpt>
<trkpt lat="42.4765380" lon="2.6371730">
<ele>454.25</ele>
<time>2021-09-07T13:14:13Z</time>
</trkpt>
<trkpt lat="42.4766147" lon="2.6369303">
<ele>457.47</ele>
<time>2021-09-07T13:14:19Z</time>
</trkpt>
<trkpt lat="42.4767305" lon="2.6366849">
<ele>458.20</ele>
<time>2021-09-07T13:14:26Z</time>
</trkpt>
<trkpt lat="42.4768769" lon="2.6365097">
<ele>458.87</ele>
<time>2021-09-07T13:14:31Z</time>
</trkpt>
<trkpt lat="42.4770457" lon="2.6363534">
<ele>461.79</ele>
<time>2021-09-07T13:14:37Z</time>
</trkpt>
<trkpt lat="42.4772320" lon="2.6363182">
<ele>461.52</ele>
<time>2021-09-07T13:14:43Z</time>
</trkpt>
<trkpt lat="42.4774037" lon="2.6364052">
<ele>462.75</ele>
<time>2021-09-07T13:14:50Z</time>
</trkpt>
<trkpt lat="42.4775163" lon="2.6366178">
<ele>465.87</ele>
<time>2021-09-07T13:15:00Z</time>
</trkpt>
<trkpt lat="42.4775504" lon="2.6368744">
<ele>468.81</ele>
<time>2021-09-07T13:15:10Z</time>
</trkpt>
<trkpt lat="42.4776616" lon="2.6370905">
<ele>469.82</ele>
<time>2021-09-07T13:15:21Z</time>
</trkpt>
<trkpt lat="42.4777760" lon="2.6372860">
<ele>471.45</ele>
<time>2021-09-07T13:15:32Z</time>
</trkpt>
<trkpt lat="42.4778933" lon="2.6374774">
<ele>475.76</ele>
<time>2021-09-07T13:15:43Z</time>
</trkpt>
<trkpt lat="42.4780258" lon="2.6376560">
<ele>477.71</ele>
<time>2021-09-07T13:15:53Z</time>
</trkpt>
<trkpt lat="42.4781118" lon="2.6374281">
<ele>478.92</ele>
<time>2021-09-07T13:16:07Z</time>
</trkpt>
<trkpt lat="42.4780447" lon="2.6371610">
<ele>480.37</ele>
<time>2021-09-07T13:16:15Z</time>
</trkpt>
<trkpt lat="42.4780201" lon="2.6369026">
<ele>480.37</ele>
<time>2021-09-07T13:16:22Z</time>
</trkpt>
<trkpt lat="42.4780621" lon="2.6366446">
<ele>480.79</ele>
<time>2021-09-07T13:16:28Z</time>
</trkpt>
<trkpt lat="42.4780993" lon="2.6363663">
<ele>481.06</ele>
<time>2021-09-07T13:16:35Z</time>
</trkpt>
<trkpt lat="42.4781547" lon="2.6361184">
<ele>482.50</ele>
<time>2021-09-07T13:16:42Z</time>
</trkpt>
<trkpt lat="42.4782901" lon="2.6359567">
<ele>484.70</ele>
<time>2021-09-07T13:16:51Z</time>
</trkpt>
<trkpt lat="42.4784797" lon="2.6358364">
<ele>487.90</ele>
<time>2021-09-07T13:16:58Z</time>
</trkpt>
<trkpt lat="42.4786175" lon="2.6356795">
<ele>489.23</ele>
<time>2021-09-07T13:17:06Z</time>
</trkpt>
<trkpt lat="42.4785396" lon="2.6359239">
<ele>485.61</ele>
<time>2021-09-07T13:17:21Z</time>
</trkpt>
<trkpt lat="42.4784471" lon="2.6361508">
<ele>487.32</ele>
<time>2021-09-07T13:17:31Z</time>
</trkpt>
<trkpt lat="42.4785007" lon="2.6364097">
<ele>490.79</ele>
<time>2021-09-07T13:17:41Z</time>
</trkpt>
<trkpt lat="42.4785709" lon="2.6366387">
<ele>493.34</ele>
<time>2021-09-07T13:17:52Z</time>
</trkpt>
<trkpt lat="42.4785542" lon="2.6368910">
<ele>497.46</ele>
<time>2021-09-07T13:18:03Z</time>
</trkpt>
<trkpt lat="42.4785363" lon="2.6371349">
<ele>498.38</ele>
<time>2021-09-07T13:18:14Z</time>
</trkpt>
<trkpt lat="42.4785677" lon="2.6373924">
<ele>500.52</ele>
<time>2021-09-07T13:18:25Z</time>
</trkpt>
<trkpt lat="42.4785884" lon="2.6376378">
<ele>502.38</ele>
<time>2021-09-07T13:18:35Z</time>
</trkpt>
<trkpt lat="42.4785703" lon="2.6378971">
<ele>502.78</ele>
<time>2021-09-07T13:18:46Z</time>
</trkpt>
<trkpt lat="42.4785981" lon="2.6381606">
<ele>506.56</ele>
<time>2021-09-07T13:18:57Z</time>
</trkpt>
<trkpt lat="42.4786703" lon="2.6379359">
<ele>511.85</ele>
<time>2021-09-07T13:19:11Z</time>
</trkpt>
<trkpt lat="42.4787293" lon="2.6376965">
<ele>512.80</ele>
<time>2021-09-07T13:19:21Z</time>
</trkpt>
<trkpt lat="42.4788411" lon="2.6375025">
<ele>515.76</ele>
<time>2021-09-07T13:19:31Z</time>
</trkpt>
<trkpt lat="42.4789453" lon="2.6372839">
<ele>519.27</ele>
<time>2021-09-07T13:19:42Z</time>
</trkpt>
<trkpt lat="42.4789640" lon="2.6370366">
<ele>521.05</ele>
<time>2021-09-07T13:19:53Z</time>
</trkpt>
<trkpt lat="42.4789796" lon="2.6367851">
<ele>524.91</ele>
<time>2021-09-07T13:20:02Z</time>
</trkpt>
<trkpt lat="42.4790891" lon="2.6365596">
<ele>525.20</ele>
<time>2021-09-07T13:20:12Z</time>
</trkpt>
<trkpt lat="42.4792275" lon="2.6364000">
<ele>529.14</ele>
<time>2021-09-07T13:20:21Z</time>
</trkpt>
<trkpt lat="42.4793822" lon="2.6362551">
<ele>531.51</ele>
<time>2021-09-07T13:20:31Z</time>
</trkpt>
<trkpt lat="42.4795523" lon="2.6361527">
<ele>533.11</ele>
<time>2021-09-07T13:20:41Z</time>
</trkpt>
<trkpt lat="42.4797406" lon="2.6361683">
<ele>534.47</ele>
<time>2021-09-07T13:20:52Z</time>
</trkpt>
<trkpt lat="42.4795794" lon="2.6362831">
<ele>536.87</ele>
<time>2021-09-07T13:21:05Z</time>
</trkpt>
<trkpt lat="42.4794388" lon="2.6364531">
<ele>534.00</ele>
<time>2021-09-07T13:24:55Z</time>
</trkpt>
<trkpt lat="42.4793433" lon="2.6366631">
<ele>534.51</ele>
<time>2021-09-07T13:25:04Z</time>
</trkpt>
<trkpt lat="42.4792895" lon="2.6369174">
<ele>541.03</ele>
<time>2021-09-07T13:25:40Z</time>
</trkpt>
<trkpt lat="42.4792438" lon="2.6371824">
<ele>541.25</ele>
<time>2021-09-07T13:25:48Z</time>
</trkpt>
<trkpt lat="42.4792238" lon="2.6374277">
<ele>542.90</ele>
<time>2021-09-07T13:25:56Z</time>
</trkpt>
<trkpt lat="42.4791769" lon="2.6376697">
<ele>542.17</ele>
<time>2021-09-07T13:26:04Z</time>
</trkpt>
<trkpt lat="42.4791588" lon="2.6379192">
<ele>543.92</ele>
<time>2021-09-07T13:26:14Z</time>
</trkpt>
<trkpt lat="42.4791401" lon="2.6381655">
<ele>544.95</ele>
<time>2021-09-07T13:26:24Z</time>
</trkpt>
<trkpt lat="42.4791548" lon="2.6384155">
<ele>544.53</ele>
<time>2021-09-07T13:26:34Z</time>
</trkpt>
<trkpt lat="42.4791862" lon="2.6386822">
<ele>546.11</ele>
<time>2021-09-07T13:26:44Z</time>
</trkpt>
<trkpt lat="42.4792392" lon="2.6389189">
<ele>542.88</ele>
<time>2021-09-07T13:26:53Z</time>
</trkpt>
<trkpt lat="42.4791965" lon="2.6391696">
<ele>545.10</ele>
<time>2021-09-07T13:27:04Z</time>
</trkpt>
<trkpt lat="42.4789777" lon="2.6392167">
<ele>545.80</ele>
<time>2021-09-07T13:27:05Z</time>
</trkpt>
<trkpt lat="42.4788078" lon="2.6393704">
<ele>549.16</ele>
<time>2021-09-07T13:27:12Z</time>
</trkpt>
<trkpt lat="42.4787483" lon="2.6396202">
<ele>548.67</ele>
<time>2021-09-07T13:27:21Z</time>
</trkpt>
<trkpt lat="42.4787819" lon="2.6398725">
<ele>547.75</ele>
<time>2021-09-07T13:27:31Z</time>
</trkpt>
<trkpt lat="42.4788276" lon="2.6401165">
<ele>549.16</ele>
<time>2021-09-07T13:27:39Z</time>
</trkpt>
<trkpt lat="42.4789226" lon="2.6403268">
<ele>549.95</ele>
<time>2021-09-07T13:27:49Z</time>
</trkpt>
<trkpt lat="42.4790156" lon="2.6405386">
<ele>552.30</ele>
<time>2021-09-07T13:27:59Z</time>
</trkpt>
<trkpt lat="42.4789859" lon="2.6407954">
<ele>553.29</ele>
<time>2021-09-07T13:28:10Z</time>
</trkpt>
<trkpt lat="42.4787825" lon="2.6407464">
<ele>552.24</ele>
<time>2021-09-07T13:28:17Z</time>
</trkpt>
<trkpt lat="42.4785752" lon="2.6406079">
<ele>550.13</ele>
<time>2021-09-07T13:28:21Z</time>
</trkpt>
<trkpt lat="42.4783936" lon="2.6405412">
<ele>549.15</ele>
<time>2021-09-07T13:28:24Z</time>
</trkpt>
<trkpt lat="42.4781782" lon="2.6405688">
<ele>547.16</ele>
<time>2021-09-07T13:28:28Z</time>
</trkpt>
<trkpt lat="42.4779974" lon="2.6407657">
<ele>548.12</ele>
<time>2021-09-07T13:28:32Z</time>
</trkpt>
<trkpt lat="42.4778658" lon="2.6409677">
<ele>548.14</ele>
<time>2021-09-07T13:28:36Z</time>
</trkpt>
<trkpt lat="42.4777267" lon="2.6411621">
<ele>550.27</ele>
<time>2021-09-07T13:28:41Z</time>
</trkpt>
<trkpt lat="42.4775836" lon="2.6413736">
<ele>548.46</ele>
<time>2021-09-07T13:28:46Z</time>
</trkpt>
<trkpt lat="42.4774102" lon="2.6415424">
<ele>547.97</ele>
<time>2021-09-07T13:28:51Z</time>
</trkpt>
<trkpt lat="42.4772191" lon="2.6416754">
<ele>547.12</ele>
<time>2021-09-07T13:28:56Z</time>
</trkpt>
<trkpt lat="42.4770608" lon="2.6418921">
<ele>546.00</ele>
<time>2021-09-07T13:29:01Z</time>
</trkpt>
<trkpt lat="42.4770016" lon="2.6421291">
<ele>546.68</ele>
<time>2021-09-07T13:29:05Z</time>
</trkpt>
<trkpt lat="42.4770185" lon="2.6424231">
<ele>546.49</ele>
<time>2021-09-07T13:29:10Z</time>
</trkpt>
<trkpt lat="42.4770645" lon="2.6426845">
<ele>546.46</ele>
<time>2021-09-07T13:29:15Z</time>
</trkpt>
<trkpt lat="42.4771104" lon="2.6429425">
<ele>547.27</ele>
<time>2021-09-07T13:29:21Z</time>
</trkpt>
<trkpt lat="42.4771707" lon="2.6431965">
<ele>549.47</ele>
<time>2021-09-07T13:29:27Z</time>
</trkpt>
<trkpt lat="42.4772571" lon="2.6434442">
<ele>550.29</ele>
<time>2021-09-07T13:29:34Z</time>
</trkpt>
<trkpt lat="42.4774140" lon="2.6436071">
<ele>552.11</ele>
<time>2021-09-07T13:29:41Z</time>
</trkpt>
<trkpt lat="42.4775962" lon="2.6435711">
<ele>552.92</ele>
<time>2021-09-07T13:29:48Z</time>
</trkpt>
<trkpt lat="42.4777610" lon="2.6434517">
<ele>554.85</ele>
<time>2021-09-07T13:29:58Z</time>
</trkpt>
<trkpt lat="42.4779269" lon="2.6433115">
<ele>561.83</ele>
<time>2021-09-07T13:30:10Z</time>
</trkpt>
<trkpt lat="42.4780917" lon="2.6431984">
<ele>564.44</ele>
<time>2021-09-07T13:30:20Z</time>
</trkpt>
<trkpt lat="42.4782725" lon="2.6431128">
<ele>569.07</ele>
<time>2021-09-07T13:30:31Z</time>
</trkpt>
<trkpt lat="42.4784442" lon="2.6430320">
<ele>569.75</ele>
<time>2021-09-07T13:30:41Z</time>
</trkpt>
<trkpt lat="42.4785964" lon="2.6428979">
<ele>570.76</ele>
<time>2021-09-07T13:30:51Z</time>
</trkpt>
<trkpt lat="42.4787734" lon="2.6427734">
<ele>573.43</ele>
<time>2021-09-07T13:31:06Z</time>
</trkpt>
<trkpt lat="42.4789484" lon="2.6426853">
<ele>579.33</ele>
<time>2021-09-07T13:31:16Z</time>
</trkpt>
<trkpt lat="42.4791305" lon="2.6426973">
<ele>586.05</ele>
<time>2021-09-07T13:31:27Z</time>
</trkpt>
<trkpt lat="42.4789705" lon="2.6425438">
<ele>589.94</ele>
<time>2021-09-07T13:31:54Z</time>
</trkpt>
<trkpt lat="42.4787930" lon="2.6424943">
<ele>590.06</ele>
<time>2021-09-07T13:32:03Z</time>
</trkpt>
<trkpt lat="42.4786090" lon="2.6424271">
<ele>593.47</ele>
<time>2021-09-07T13:32:12Z</time>
</trkpt>
<trkpt lat="42.4785393" lon="2.6421783">
<ele>594.09</ele>
<time>2021-09-07T13:32:23Z</time>
</trkpt>
<trkpt lat="42.4786300" lon="2.6419657">
<ele>594.37</ele>
<time>2021-09-07T13:32:33Z</time>
</trkpt>
<trkpt lat="42.4788021" lon="2.6418807">
<ele>594.71</ele>
<time>2021-09-07T13:32:42Z</time>
</trkpt>
<trkpt lat="42.4789794" lon="2.6417993">
<ele>594.80</ele>
<time>2021-09-07T13:32:51Z</time>
</trkpt>
<trkpt lat="42.4791357" lon="2.6416761">
<ele>597.98</ele>
<time>2021-09-07T13:33:00Z</time>
</trkpt>
<trkpt lat="42.4793222" lon="2.6416254">
<ele>603.22</ele>
<time>2021-09-07T13:33:10Z</time>
</trkpt>
<trkpt lat="42.4795183" lon="2.6416027">
<ele>601.80</ele>
<time>2021-09-07T13:33:20Z</time>
</trkpt>
<trkpt lat="42.4796921" lon="2.6415369">
<ele>603.24</ele>
<time>2021-09-07T13:33:29Z</time>
</trkpt>
<trkpt lat="42.4798691" lon="2.6414121">
<ele>605.99</ele>
<time>2021-09-07T13:33:38Z</time>
</trkpt>
<trkpt lat="42.4800490" lon="2.6413270">
<ele>608.58</ele>
<time>2021-09-07T13:33:48Z</time>
</trkpt>
<trkpt lat="42.4799847" lon="2.6410801">
<ele>607.86</ele>
<time>2021-09-07T13:33:57Z</time>
</trkpt>
<trkpt lat="42.4799177" lon="2.6408346">
<ele>607.04</ele>
<time>2021-09-07T13:34:04Z</time>
</trkpt>
<trkpt lat="42.4798958" lon="2.6405722">
<ele>608.01</ele>
<time>2021-09-07T13:34:13Z</time>
</trkpt>
<trkpt lat="42.4799887" lon="2.6403422">
<ele>609.86</ele>
<time>2021-09-07T13:34:22Z</time>
</trkpt>
<trkpt lat="42.4801155" lon="2.6401544">
<ele>616.14</ele>
<time>2021-09-07T13:34:33Z</time>
</trkpt>
<trkpt lat="42.4802514" lon="2.6399851">
<ele>619.51</ele>
<time>2021-09-07T13:34:42Z</time>
</trkpt>
<trkpt lat="42.4803312" lon="2.6397636">
<ele>619.15</ele>
<time>2021-09-07T13:34:49Z</time>
</trkpt>
<trkpt lat="42.4804129" lon="2.6395063">
<ele>619.23</ele>
<time>2021-09-07T13:34:56Z</time>
</trkpt>
<trkpt lat="42.4805387" lon="2.6393268">
<ele>621.30</ele>
<time>2021-09-07T13:35:03Z</time>
</trkpt>
<trkpt lat="42.4807281" lon="2.6393708">
<ele>623.06</ele>
<time>2021-09-07T13:35:12Z</time>
</trkpt>
<trkpt lat="42.4808947" lon="2.6395088">
<ele>625.67</ele>
<time>2021-09-07T13:35:23Z</time>
</trkpt>
<trkpt lat="42.4807065" lon="2.6395368">
<ele>626.36</ele>
<time>2021-09-07T13:35:37Z</time>
</trkpt>
<trkpt lat="42.4805449" lon="2.6396504">
<ele>628.77</ele>
<time>2021-09-07T13:35:45Z</time>
</trkpt>
<trkpt lat="42.4805025" lon="2.6399123">
<ele>627.54</ele>
<time>2021-09-07T13:35:54Z</time>
</trkpt>
<trkpt lat="42.4804594" lon="2.6401694">
<ele>629.36</ele>
<time>2021-09-07T13:36:05Z</time>
</trkpt>
<trkpt lat="42.4804186" lon="2.6404081">
<ele>628.54</ele>
<time>2021-09-07T13:36:15Z</time>
</trkpt>
<trkpt lat="42.4804224" lon="2.6406568">
<ele>631.23</ele>
<time>2021-09-07T13:36:24Z</time>
</trkpt>
<trkpt lat="42.4804037" lon="2.6409309">
<ele>632.52</ele>
<time>2021-09-07T13:36:33Z</time>
</trkpt>
<trkpt lat="42.4804218" lon="2.6411823">
<ele>633.64</ele>
<time>2021-09-07T13:36:42Z</time>
</trkpt>
<trkpt lat="42.4804733" lon="2.6414385">
<ele>635.49</ele>
<time>2021-09-07T13:36:53Z</time>
</trkpt>
<trkpt lat="42.4805273" lon="2.6416817">
<ele>635.13</ele>
<time>2021-09-07T13:37:00Z</time>
</trkpt>
<trkpt lat="42.4805462" lon="2.6419397">
<ele>635.74</ele>
<time>2021-09-07T13:37:07Z</time>
</trkpt>
<trkpt lat="42.4806604" lon="2.6417434">
<ele>644.58</ele>
<time>2021-09-07T13:37:29Z</time>
</trkpt>
<trkpt lat="42.4807469" lon="2.6415273">
<ele>646.60</ele>
<time>2021-09-07T13:37:39Z</time>
</trkpt>
<trkpt lat="42.4808494" lon="2.6413010">
<ele>649.80</ele>
<time>2021-09-07T13:37:50Z</time>
</trkpt>
<trkpt lat="42.4809604" lon="2.6410999">
<ele>650.96</ele>
<time>2021-09-07T13:38:00Z</time>
</trkpt>
<trkpt lat="42.4810661" lon="2.6408988">
<ele>653.90</ele>
<time>2021-09-07T13:38:11Z</time>
</trkpt>
<trkpt lat="42.4810868" lon="2.6411537">
<ele>659.28</ele>
<time>2021-09-07T13:38:30Z</time>
</trkpt>
<trkpt lat="42.4810300" lon="2.6414167">
<ele>661.47</ele>
<time>2021-09-07T13:38:37Z</time>
</trkpt>
<trkpt lat="42.4809889" lon="2.6416827">
<ele>662.34</ele>
<time>2021-09-07T13:38:44Z</time>
</trkpt>
<trkpt lat="42.4809861" lon="2.6419412">
<ele>661.50</ele>
<time>2021-09-07T13:38:51Z</time>
</trkpt>
<trkpt lat="42.4810267" lon="2.6422057">
<ele>660.96</ele>
<time>2021-09-07T13:38:58Z</time>
</trkpt>
<trkpt lat="42.4810988" lon="2.6424524">
<ele>662.72</ele>
<time>2021-09-07T13:39:05Z</time>
</trkpt>
<trkpt lat="42.4811459" lon="2.6426999">
<ele>664.85</ele>
<time>2021-09-07T13:39:12Z</time>
</trkpt>
<trkpt lat="42.4811074" lon="2.6429679">
<ele>665.14</ele>
<time>2021-09-07T13:39:18Z</time>
</trkpt>
<trkpt lat="42.4810180" lon="2.6431912">
<ele>665.60</ele>
<time>2021-09-07T13:39:23Z</time>
</trkpt>
<trkpt lat="42.4809180" lon="2.6434617">
<ele>665.85</ele>
<time>2021-09-07T13:39:28Z</time>
</trkpt>
<trkpt lat="42.4808350" lon="2.6437046">
<ele>666.22</ele>
<time>2021-09-07T13:39:32Z</time>
</trkpt>
<trkpt lat="42.4807963" lon="2.6439617">
<ele>665.81</ele>
<time>2021-09-07T13:39:37Z</time>
</trkpt>
<trkpt lat="42.4807867" lon="2.6442134">
<ele>665.73</ele>
<time>2021-09-07T13:39:41Z</time>
</trkpt>
<trkpt lat="42.4808935" lon="2.6444608">
<ele>665.29</ele>
<time>2021-09-07T13:39:46Z</time>
</trkpt>
<trkpt lat="42.4810677" lon="2.6445649">
<ele>666.86</ele>
<time>2021-09-07T13:39:50Z</time>
</trkpt>
<trkpt lat="42.4812719" lon="2.6445078">
<ele>668.88</ele>
<time>2021-09-07T13:39:55Z</time>
</trkpt>
<trkpt lat="42.4814783" lon="2.6445480">
<ele>670.81</ele>
<time>2021-09-07T13:40:01Z</time>
</trkpt>
<trkpt lat="42.4816746" lon="2.6445935">
<ele>672.26</ele>
<time>2021-09-07T13:40:08Z</time>
</trkpt>
<trkpt lat="42.4818589" lon="2.6446357">
<ele>673.40</ele>
<time>2021-09-07T13:40:15Z</time>
</trkpt>
<trkpt lat="42.4820463" lon="2.6446489">
<ele>673.95</ele>
<time>2021-09-07T13:40:21Z</time>
</trkpt>
<trkpt lat="42.4822290" lon="2.6447256">
<ele>675.01</ele>
<time>2021-09-07T13:40:27Z</time>
</trkpt>
<trkpt lat="42.4824362" lon="2.6447592">
<ele>677.95</ele>
<time>2021-09-07T13:40:34Z</time>
</trkpt>
<trkpt lat="42.4826295" lon="2.6447215">
<ele>678.45</ele>
<time>2021-09-07T13:40:41Z</time>
</trkpt>
<trkpt lat="42.4827890" lon="2.6445950">
<ele>675.94</ele>
<time>2021-09-07T13:40:47Z</time>
</trkpt>
<trkpt lat="42.4829231" lon="2.6443632">
<ele>676.80</ele>
<time>2021-09-07T13:40:53Z</time>
</trkpt>
<trkpt lat="42.4830999" lon="2.6441452">
<ele>676.34</ele>
<time>2021-09-07T13:40:57Z</time>
</trkpt>
<trkpt lat="42.4833025" lon="2.6440397">
<ele>674.83</ele>
<time>2021-09-07T13:41:01Z</time>
</trkpt>
<trkpt lat="42.4835120" lon="2.6440847">
<ele>674.13</ele>
<time>2021-09-07T13:41:06Z</time>
</trkpt>
<trkpt lat="42.4836949" lon="2.6442527">
<ele>673.70</ele>
<time>2021-09-07T13:41:11Z</time>
</trkpt>
<trkpt lat="42.4838724" lon="2.6443642">
<ele>674.67</ele>
<time>2021-09-07T13:41:16Z</time>
</trkpt>
<trkpt lat="42.4840462" lon="2.6444704">
<ele>673.91</ele>
<time>2021-09-07T13:41:22Z</time>
</trkpt>
<trkpt lat="42.4842199" lon="2.6445448">
<ele>675.09</ele>
<time>2021-09-07T13:41:27Z</time>
</trkpt>
<trkpt lat="42.4844021" lon="2.6445581">
<ele>678.16</ele>
<time>2021-09-07T13:41:33Z</time>
</trkpt>
<trkpt lat="42.4842860" lon="2.6443479">
<ele>680.15</ele>
<time>2021-09-07T13:41:46Z</time>
</trkpt>
<trkpt lat="42.4841492" lon="2.6441769">
<ele>680.70</ele>
<time>2021-09-07T13:41:54Z</time>
</trkpt>
<trkpt lat="42.4840110" lon="2.6440208">
<ele>682.04</ele>
<time>2021-09-07T13:42:02Z</time>
</trkpt>
<trkpt lat="42.4838511" lon="2.6438745">
<ele>682.77</ele>
<time>2021-09-07T13:42:11Z</time>
</trkpt>
<trkpt lat="42.4837093" lon="2.6437186">
<ele>683.92</ele>
<time>2021-09-07T13:42:19Z</time>
</trkpt>
<trkpt lat="42.4835554" lon="2.6435758">
<ele>685.05</ele>
<time>2021-09-07T13:42:27Z</time>
</trkpt>
<trkpt lat="42.4833822" lon="2.6434367">
<ele>685.42</ele>
<time>2021-09-07T13:42:36Z</time>
</trkpt>
<trkpt lat="42.4831960" lon="2.6433568">
<ele>686.05</ele>
<time>2021-09-07T13:42:44Z</time>
</trkpt>
<trkpt lat="42.4830021" lon="2.6433497">
<ele>688.37</ele>
<time>2021-09-07T13:42:52Z</time>
</trkpt>
<trkpt lat="42.4828142" lon="2.6433786">
<ele>691.16</ele>
<time>2021-09-07T13:43:00Z</time>
</trkpt>
<trkpt lat="42.4826370" lon="2.6434532">
<ele>692.63</ele>
<time>2021-09-07T13:43:08Z</time>
</trkpt>
<trkpt lat="42.4824716" lon="2.6435814">
<ele>694.71</ele>
<time>2021-09-07T13:43:17Z</time>
</trkpt>
<trkpt lat="42.4822921" lon="2.6436866">
<ele>697.27</ele>
<time>2021-09-07T13:43:26Z</time>
</trkpt>
<trkpt lat="42.4821621" lon="2.6434903">
<ele>697.52</ele>
<time>2021-09-07T13:43:34Z</time>
</trkpt>
<trkpt lat="42.4821168" lon="2.6432158">
<ele>698.35</ele>
<time>2021-09-07T13:43:41Z</time>
</trkpt>
<trkpt lat="42.4820888" lon="2.6429494">
<ele>701.29</ele>
<time>2021-09-07T13:43:47Z</time>
</trkpt>
<trkpt lat="42.4821535" lon="2.6427103">
<ele>702.72</ele>
<time>2021-09-07T13:43:53Z</time>
</trkpt>
<trkpt lat="42.4821981" lon="2.6424486">
<ele>701.61</ele>
<time>2021-09-07T13:43:59Z</time>
</trkpt>
<trkpt lat="42.4822942" lon="2.6422152">
<ele>703.96</ele>
<time>2021-09-07T13:44:05Z</time>
</trkpt>
<trkpt lat="42.4824292" lon="2.6420364">
<ele>706.65</ele>
<time>2021-09-07T13:44:11Z</time>
</trkpt>
<trkpt lat="42.4825798" lon="2.6418988">
<ele>707.45</ele>
<time>2021-09-07T13:44:17Z</time>
</trkpt>
<trkpt lat="42.4827397" lon="2.6417814">
<ele>709.98</ele>
<time>2021-09-07T13:44:23Z</time>
</trkpt>
<trkpt lat="42.4829045" lon="2.6416550">
<ele>712.26</ele>
<time>2021-09-07T13:44:29Z</time>
</trkpt>
<trkpt lat="42.4830468" lon="2.6415037">
<ele>713.69</ele>
<time>2021-09-07T13:44:35Z</time>
</trkpt>
<trkpt lat="42.4831949" lon="2.6413111">
<ele>714.77</ele>
<time>2021-09-07T13:44:42Z</time>
</trkpt>
<trkpt lat="42.4833333" lon="2.6411022">
<ele>718.56</ele>
<time>2021-09-07T13:44:49Z</time>
</trkpt>
<trkpt lat="42.4834823" lon="2.6409478">
<ele>719.39</ele>
<time>2021-09-07T13:44:55Z</time>
</trkpt>
<trkpt lat="42.4836744" lon="2.6408998">
<ele>720.52</ele>
<time>2021-09-07T13:45:02Z</time>
</trkpt>
<trkpt lat="42.4838392" lon="2.6410222">
<ele>720.95</ele>
<time>2021-09-07T13:45:11Z</time>
</trkpt>
<trkpt lat="42.4840106" lon="2.6410978">
<ele>720.34</ele>
<time>2021-09-07T13:45:18Z</time>
</trkpt>
<trkpt lat="42.4841985" lon="2.6410947">
<ele>721.58</ele>
<time>2021-09-07T13:45:26Z</time>
</trkpt>
<trkpt lat="42.4843786" lon="2.6410560">
<ele>722.81</ele>
<time>2021-09-07T13:45:34Z</time>
</trkpt>
<trkpt lat="42.4845606" lon="2.6409654">
<ele>724.63</ele>
<time>2021-09-07T13:45:43Z</time>
</trkpt>
<trkpt lat="42.4847414" lon="2.6408557">
<ele>726.11</ele>
<time>2021-09-07T13:45:52Z</time>
</trkpt>
<trkpt lat="42.4849290" lon="2.6407654">
<ele>725.90</ele>
<time>2021-09-07T13:46:01Z</time>
</trkpt>
<trkpt lat="42.4851142" lon="2.6406813">
<ele>727.80</ele>
<time>2021-09-07T13:46:10Z</time>
</trkpt>
<trkpt lat="42.4852989" lon="2.6406278">
<ele>728.85</ele>
<time>2021-09-07T13:46:18Z</time>
</trkpt>
<trkpt lat="42.4854781" lon="2.6405560">
<ele>729.93</ele>
<time>2021-09-07T13:46:26Z</time>
</trkpt>
<trkpt lat="42.4856532" lon="2.6404777">
<ele>731.49</ele>
<time>2021-09-07T13:46:34Z</time>
</trkpt>
<trkpt lat="42.4858284" lon="2.6403949">
<ele>732.07</ele>
<time>2021-09-07T13:46:43Z</time>
</trkpt>
<trkpt lat="42.4860174" lon="2.6402902">
<ele>734.56</ele>
<time>2021-09-07T13:46:52Z</time>
</trkpt>
<trkpt lat="42.4861780" lon="2.6401580">
<ele>736.28</ele>
<time>2021-09-07T13:47:00Z</time>
</trkpt>
<trkpt lat="42.4863309" lon="2.6400245">
<ele>740.73</ele>
<time>2021-09-07T13:47:10Z</time>
</trkpt>
<trkpt lat="42.4864910" lon="2.6399107">
<ele>741.19</ele>
<time>2021-09-07T13:47:18Z</time>
</trkpt>
<trkpt lat="42.4866471" lon="2.6397610">
<ele>744.34</ele>
<time>2021-09-07T13:47:27Z</time>
</trkpt>
<trkpt lat="42.4867535" lon="2.6395565">
<ele>746.24</ele>
<time>2021-09-07T13:47:36Z</time>
</trkpt>
<trkpt lat="42.4868681" lon="2.6393370">
<ele>744.27</ele>
<time>2021-09-07T13:47:45Z</time>
</trkpt>
<trkpt lat="42.4869704" lon="2.6391222">
<ele>744.63</ele>
<time>2021-09-07T13:47:53Z</time>
</trkpt>
<trkpt lat="42.4871225" lon="2.6389554">
<ele>746.33</ele>
<time>2021-09-07T13:48:01Z</time>
</trkpt>
<trkpt lat="42.4872253" lon="2.6387322">
<ele>747.25</ele>
<time>2021-09-07T13:48:10Z</time>
</trkpt>
<trkpt lat="42.4873033" lon="2.6384932">
<ele>748.25</ele>
<time>2021-09-07T13:48:20Z</time>
</trkpt>
<trkpt lat="42.4873563" lon="2.6382462">
<ele>750.91</ele>
<time>2021-09-07T13:48:31Z</time>
</trkpt>
<trkpt lat="42.4874426" lon="2.6380315">
<ele>751.47</ele>
<time>2021-09-07T13:48:40Z</time>
</trkpt>
<trkpt lat="42.4874821" lon="2.6377641">
<ele>752.48</ele>
<time>2021-09-07T13:48:49Z</time>
</trkpt>
<trkpt lat="42.4875282" lon="2.6375108">
<ele>752.55</ele>
<time>2021-09-07T13:49:00Z</time>
</trkpt>
<trkpt lat="42.4876275" lon="2.6372873">
<ele>754.58</ele>
<time>2021-09-07T13:49:09Z</time>
</trkpt>
<trkpt lat="42.4877398" lon="2.6370681">
<ele>755.29</ele>
<time>2021-09-07T13:49:18Z</time>
</trkpt>
<trkpt lat="42.4878597" lon="2.6368851">
<ele>756.03</ele>
<time>2021-09-07T13:49:26Z</time>
</trkpt>
<trkpt lat="42.4879809" lon="2.6367014">
<ele>757.08</ele>
<time>2021-09-07T13:49:34Z</time>
</trkpt>
<trkpt lat="42.4881253" lon="2.6365080">
<ele>757.98</ele>
<time>2021-09-07T13:49:43Z</time>
</trkpt>
<trkpt lat="42.4883023" lon="2.6364059">
<ele>759.59</ele>
<time>2021-09-07T13:49:51Z</time>
</trkpt>
<trkpt lat="42.4884752" lon="2.6363132">
<ele>761.43</ele>
<time>2021-09-07T13:50:00Z</time>
</trkpt>
<trkpt lat="42.4886551" lon="2.6362151">
<ele>765.18</ele>
<time>2021-09-07T13:50:10Z</time>
</trkpt>
<trkpt lat="42.4888350" lon="2.6361887">
<ele>768.66</ele>
<time>2021-09-07T13:50:20Z</time>
</trkpt>
<trkpt lat="42.4890163" lon="2.6362742">
<ele>769.45</ele>
<time>2021-09-07T13:50:30Z</time>
</trkpt>
<trkpt lat="42.4892031" lon="2.6363263">
<ele>768.35</ele>
<time>2021-09-07T13:50:39Z</time>
</trkpt>
<trkpt lat="42.4893976" lon="2.6363418">
<ele>771.40</ele>
<time>2021-09-07T13:50:49Z</time>
</trkpt>
<trkpt lat="42.4895638" lon="2.6362449">
<ele>772.12</ele>
<time>2021-09-07T13:50:59Z</time>
</trkpt>
<trkpt lat="42.4897255" lon="2.6360959">
<ele>776.95</ele>
<time>2021-09-07T13:51:09Z</time>
</trkpt>
<trkpt lat="42.4899169" lon="2.6360619">
<ele>780.75</ele>
<time>2021-09-07T13:51:20Z</time>
</trkpt>
<trkpt lat="42.4901031" lon="2.6360290">
<ele>783.48</ele>
<time>2021-09-07T13:51:31Z</time>
</trkpt>
<trkpt lat="42.4902935" lon="2.6359751">
<ele>785.87</ele>
<time>2021-09-07T13:51:43Z</time>
</trkpt>
<trkpt lat="42.4904687" lon="2.6358957">
<ele>787.81</ele>
<time>2021-09-07T13:51:54Z</time>
</trkpt>
<trkpt lat="42.4906590" lon="2.6358221">
<ele>790.00</ele>
<time>2021-09-07T13:52:05Z</time>
</trkpt>
<trkpt lat="42.4908431" lon="2.6357617">
<ele>792.30</ele>
<time>2021-09-07T13:52:16Z</time>
</trkpt>
<trkpt lat="42.4910154" lon="2.6356662">
<ele>797.06</ele>
<time>2021-09-07T13:52:27Z</time>
</trkpt>
<trkpt lat="42.4912061" lon="2.6356584">
<ele>797.46</ele>
<time>2021-09-07T13:52:38Z</time>
</trkpt>
<trkpt lat="42.4913931" lon="2.6356211">
<ele>800.98</ele>
<time>2021-09-07T13:52:49Z</time>
</trkpt>
<trkpt lat="42.4915847" lon="2.6356170">
<ele>803.72</ele>
<time>2021-09-07T13:52:59Z</time>
</trkpt>
<trkpt lat="42.4917465" lon="2.6355056">
<ele>806.79</ele>
<time>2021-09-07T13:53:08Z</time>
</trkpt>
<trkpt lat="42.4918943" lon="2.6353233">
<ele>803.55</ele>
<time>2021-09-07T13:53:16Z</time>
</trkpt>
<trkpt lat="42.4920685" lon="2.6351871">
<ele>805.24</ele>
<time>2021-09-07T13:53:26Z</time>
</trkpt>
<trkpt lat="42.4922309" lon="2.6350314">
<ele>807.29</ele>
<time>2021-09-07T13:53:34Z</time>
</trkpt>
<trkpt lat="42.4924030" lon="2.6349210">
<ele>809.00</ele>
<time>2021-09-07T13:53:41Z</time>
</trkpt>
<trkpt lat="42.4925653" lon="2.6348122">
<ele>807.69</ele>
<time>2021-09-07T13:53:48Z</time>
</trkpt>
<trkpt lat="42.4927461" lon="2.6346813">
<ele>808.81</ele>
<time>2021-09-07T13:53:57Z</time>
</trkpt>
<trkpt lat="42.4929097" lon="2.6345473">
<ele>809.59</ele>
<time>2021-09-07T13:54:05Z</time>
</trkpt>
<trkpt lat="42.4930400" lon="2.6343559">
<ele>808.17</ele>
<time>2021-09-07T13:54:13Z</time>
</trkpt>
<trkpt lat="42.4929747" lon="2.6346128">
<ele>811.21</ele>
<time>2021-09-07T13:54:31Z</time>
</trkpt>
<trkpt lat="42.4928244" lon="2.6347945">
<ele>813.53</ele>
<time>2021-09-07T13:54:39Z</time>
</trkpt>
<trkpt lat="42.4926945" lon="2.6349981">
<ele>815.03</ele>
<time>2021-09-07T13:54:48Z</time>
</trkpt>
<trkpt lat="42.4925699" lon="2.6351752">
<ele>818.04</ele>
<time>2021-09-07T13:54:56Z</time>
</trkpt>
<trkpt lat="42.4924393" lon="2.6353753">
<ele>820.17</ele>
<time>2021-09-07T13:55:05Z</time>
</trkpt>
<trkpt lat="42.4923351" lon="2.6355978">
<ele>822.91</ele>
<time>2021-09-07T13:55:21Z</time>
</trkpt>
<trkpt lat="42.4922783" lon="2.6358419">
<ele>825.02</ele>
<time>2021-09-07T13:55:31Z</time>
</trkpt>
<trkpt lat="42.4921942" lon="2.6360804">
<ele>829.04</ele>
<time>2021-09-07T13:55:40Z</time>
</trkpt>
<trkpt lat="42.4920763" lon="2.6362653">
<ele>829.22</ele>
<time>2021-09-07T13:55:49Z</time>
</trkpt>
<trkpt lat="42.4918971" lon="2.6363772">
<ele>833.35</ele>
<time>2021-09-07T13:55:59Z</time>
</trkpt>
<trkpt lat="42.4916979" lon="2.6364324">
<ele>834.71</ele>
<time>2021-09-07T13:56:03Z</time>
</trkpt>
<trkpt lat="42.4915705" lon="2.6366140">
<ele>838.42</ele>
<time>2021-09-07T13:56:13Z</time>
</trkpt>
<trkpt lat="42.4917425" lon="2.6367016">
<ele>842.50</ele>
<time>2021-09-07T13:56:28Z</time>
</trkpt>
<trkpt lat="42.4919317" lon="2.6367067">
<ele>845.28</ele>
<time>2021-09-07T13:56:40Z</time>
</trkpt>
<trkpt lat="42.4921071" lon="2.6368123">
<ele>842.65</ele>
<time>2021-09-07T13:57:37Z</time>
</trkpt>
<trkpt lat="42.4922739" lon="2.6366887">
<ele>846.91</ele>
<time>2021-09-07T13:57:47Z</time>
</trkpt>
<trkpt lat="42.4924051" lon="2.6364988">
<ele>847.81</ele>
<time>2021-09-07T13:57:58Z</time>
</trkpt>
<trkpt lat="42.4925663" lon="2.6363612">
<ele>851.29</ele>
<time>2021-09-07T13:58:10Z</time>
</trkpt>
<trkpt lat="42.4927479" lon="2.6362700">
<ele>854.81</ele>
<time>2021-09-07T13:58:20Z</time>
</trkpt>
<trkpt lat="42.4928967" lon="2.6361225">
<ele>857.46</ele>
<time>2021-09-07T13:58:30Z</time>
</trkpt>
<trkpt lat="42.4930591" lon="2.6359987">
<ele>859.70</ele>
<time>2021-09-07T13:58:40Z</time>
</trkpt>
<trkpt lat="42.4932423" lon="2.6359306">
<ele>861.66</ele>
<time>2021-09-07T13:58:50Z</time>
</trkpt>
<trkpt lat="42.4934211" lon="2.6359614">
<ele>865.01</ele>
<time>2021-09-07T13:59:02Z</time>
</trkpt>
<trkpt lat="42.4936078" lon="2.6360202">
<ele>865.78</ele>
<time>2021-09-07T13:59:15Z</time>
</trkpt>
<trkpt lat="42.4938002" lon="2.6360277">
<ele>863.09</ele>
<time>2021-09-07T13:59:25Z</time>
</trkpt>
<trkpt lat="42.4938010" lon="2.6362935">
<ele>864.95</ele>
<time>2021-09-07T13:59:48Z</time>
</trkpt>
<trkpt lat="42.4938938" lon="2.6365111">
<ele>863.12</ele>
<time>2021-09-07T14:00:00Z</time>
</trkpt>
<trkpt lat="42.4939547" lon="2.6367709">
<ele>858.84</ele>
<time>2021-09-07T14:00:06Z</time>
</trkpt>
<trkpt lat="42.4938432" lon="2.6370271">
<ele>853.87</ele>
<time>2021-09-07T14:00:11Z</time>
</trkpt>
<trkpt lat="42.4937533" lon="2.6373852">
<ele>851.09</ele>
<time>2021-09-07T14:00:17Z</time>
</trkpt>
<trkpt lat="42.4936785" lon="2.6377218">
<ele>847.89</ele>
<time>2021-09-07T14:00:20Z</time>
</trkpt>
<trkpt lat="42.4935723" lon="2.6379832">
<ele>846.23</ele>
<time>2021-09-07T14:00:25Z</time>
</trkpt>
<trkpt lat="42.4933625" lon="2.6382645">
<ele>843.21</ele>
<time>2021-09-07T14:00:28Z</time>
</trkpt>
<trkpt lat="42.4933054" lon="2.6385414">
<ele>843.22</ele>
<time>2021-09-07T14:00:33Z</time>
</trkpt>
<trkpt lat="42.4932112" lon="2.6387945">
<ele>841.33</ele>
<time>2021-09-07T14:00:36Z</time>
</trkpt>
<trkpt lat="42.4931594" lon="2.6390685">
<ele>841.53</ele>
<time>2021-09-07T14:00:41Z</time>
</trkpt>
<trkpt lat="42.4931957" lon="2.6393079">
<ele>840.91</ele>
<time>2021-09-07T14:00:56Z</time>
</trkpt>
<trkpt lat="42.4931268" lon="2.6395703">
<ele>837.52</ele>
<time>2021-09-07T14:01:05Z</time>
</trkpt>
<trkpt lat="42.4930137" lon="2.6398868">
<ele>832.63</ele>
<time>2021-09-07T14:01:08Z</time>
</trkpt>
<trkpt lat="42.4929018" lon="2.6402071">
<ele>827.87</ele>
<time>2021-09-07T14:01:11Z</time>
</trkpt>
<trkpt lat="42.4928336" lon="2.6405495">
<ele>825.19</ele>
<time>2021-09-07T14:01:14Z</time>
</trkpt>
<trkpt lat="42.4927612" lon="2.6408509">
<ele>824.67</ele>
<time>2021-09-07T14:01:17Z</time>
</trkpt>
<trkpt lat="42.4927099" lon="2.6412059">
<ele>820.72</ele>
<time>2021-09-07T14:01:20Z</time>
</trkpt>
<trkpt lat="42.4926645" lon="2.6414551">
<ele>818.62</ele>
<time>2021-09-07T14:01:22Z</time>
</trkpt>
<trkpt lat="42.4925815" lon="2.6417761">
<ele>815.48</ele>
<time>2021-09-07T14:01:25Z</time>
</trkpt>
<trkpt lat="42.4925023" lon="2.6420147">
<ele>810.40</ele>
<time>2021-09-07T14:01:42Z</time>
</trkpt>
<trkpt lat="42.4923884" lon="2.6422376">
<ele>810.33</ele>
<time>2021-09-07T14:01:50Z</time>
</trkpt>
<trkpt lat="42.4923135" lon="2.6424885">
<ele>813.00</ele>
<time>2021-09-07T14:01:57Z</time>
</trkpt>
<trkpt lat="42.4921961" lon="2.6427291">
<ele>814.19</ele>
<time>2021-09-07T14:02:03Z</time>
</trkpt>
<trkpt lat="42.4920887" lon="2.6429634">
<ele>811.87</ele>
<time>2021-09-07T14:02:08Z</time>
</trkpt>
<trkpt lat="42.4919854" lon="2.6432381">
<ele>810.82</ele>
<time>2021-09-07T14:02:12Z</time>
</trkpt>
<trkpt lat="42.4919035" lon="2.6434602">
<ele>809.27</ele>
<time>2021-09-07T14:02:15Z</time>
</trkpt>
<trkpt lat="42.4917823" lon="2.6437204">
<ele>805.61</ele>
<time>2021-09-07T14:02:19Z</time>
</trkpt>
<trkpt lat="42.4918063" lon="2.6440108">
<ele>803.75</ele>
<time>2021-09-07T14:02:41Z</time>
</trkpt>
<trkpt lat="42.4918229" lon="2.6443365">
<ele>800.25</ele>
<time>2021-09-07T14:02:45Z</time>
</trkpt>
<trkpt lat="42.4917774" lon="2.6446394">
<ele>798.27</ele>
<time>2021-09-07T14:02:48Z</time>
</trkpt>
<trkpt lat="42.4917158" lon="2.6449633">
<ele>794.83</ele>
<time>2021-09-07T14:02:51Z</time>
</trkpt>
<trkpt lat="42.4916527" lon="2.6451956">
<ele>790.85</ele>
<time>2021-09-07T14:03:03Z</time>
</trkpt>
<trkpt lat="42.4915800" lon="2.6454953">
<ele>789.49</ele>
<time>2021-09-07T14:03:10Z</time>
</trkpt>
<trkpt lat="42.4916924" lon="2.6457326">
<ele>785.33</ele>
<time>2021-09-07T14:04:25Z</time>
</trkpt>
<trkpt lat="42.4916706" lon="2.6459760">
<ele>785.63</ele>
<time>2021-09-07T14:04:32Z</time>
</trkpt>
<trkpt lat="42.4917316" lon="2.6462146">
<ele>778.16</ele>
<time>2021-09-07T14:04:39Z</time>
</trkpt>
<trkpt lat="42.4918048" lon="2.6464505">
<ele>773.78</ele>
<time>2021-09-07T14:04:44Z</time>
</trkpt>
<trkpt lat="42.4917968" lon="2.6467183">
<ele>770.86</ele>
<time>2021-09-07T14:04:48Z</time>
</trkpt>
<trkpt lat="42.4919096" lon="2.6470779">
<ele>765.89</ele>
<time>2021-09-07T14:04:53Z</time>
</trkpt>
<trkpt lat="42.4919667" lon="2.6473801">
<ele>763.94</ele>
<time>2021-09-07T14:04:57Z</time>
</trkpt>
<trkpt lat="42.4919463" lon="2.6476365">
<ele>755.01</ele>
<time>2021-09-07T14:05:51Z</time>
</trkpt>
<trkpt lat="42.4920937" lon="2.6478185">
<ele>748.74</ele>
<time>2021-09-07T14:06:01Z</time>
</trkpt>
<trkpt lat="42.4922772" lon="2.6479436">
<ele>744.87</ele>
<time>2021-09-07T14:06:08Z</time>
</trkpt>
<trkpt lat="42.4924735" lon="2.6480382">
<ele>742.46</ele>
<time>2021-09-07T14:06:13Z</time>
</trkpt>
<trkpt lat="42.4925887" lon="2.6482602">
<ele>742.07</ele>
<time>2021-09-07T14:06:16Z</time>
</trkpt>
<trkpt lat="42.4927535" lon="2.6483991">
<ele>733.28</ele>
<time>2021-09-07T14:06:27Z</time>
</trkpt>
<trkpt lat="42.4928932" lon="2.6485606">
<ele>730.09</ele>
<time>2021-09-07T14:07:04Z</time>
</trkpt>
<trkpt lat="42.4929574" lon="2.6487932">
<ele>722.77</ele>
<time>2021-09-07T14:07:44Z</time>
</trkpt>
<trkpt lat="42.4930228" lon="2.6490235">
<ele>725.74</ele>
<time>2021-09-07T14:08:31Z</time>
</trkpt>
<trkpt lat="42.4929318" lon="2.6492440">
<ele>717.58</ele>
<time>2021-09-07T14:09:52Z</time>
</trkpt>
<trkpt lat="42.4927665" lon="2.6493618">
<ele>722.46</ele>
<time>2021-09-07T14:10:08Z</time>
</trkpt>
<trkpt lat="42.4925945" lon="2.6495104">
<ele>722.33</ele>
<time>2021-09-07T14:10:43Z</time>
</trkpt>
<trkpt lat="42.4924977" lon="2.6497517">
<ele>719.92</ele>
<time>2021-09-07T14:10:51Z</time>
</trkpt>
<trkpt lat="42.4924348" lon="2.6500383">
<ele>715.41</ele>
<time>2021-09-07T14:10:56Z</time>
</trkpt>
<trkpt lat="42.4923180" lon="2.6503344">
<ele>713.57</ele>
<time>2021-09-07T14:10:59Z</time>
</trkpt>
<trkpt lat="42.4922574" lon="2.6506385">
<ele>715.22</ele>
<time>2021-09-07T14:11:02Z</time>
</trkpt>
<trkpt lat="42.4922980" lon="2.6508850">
<ele>713.62</ele>
<time>2021-09-07T14:11:06Z</time>
</trkpt>
<trkpt lat="42.4923571" lon="2.6511537">
<ele>710.68</ele>
<time>2021-09-07T14:11:10Z</time>
</trkpt>
<trkpt lat="42.4924112" lon="2.6514210">
<ele>714.66</ele>
<time>2021-09-07T14:11:14Z</time>
</trkpt>
<trkpt lat="42.4923620" lon="2.6516708">
<ele>715.30</ele>
<time>2021-09-07T14:11:20Z</time>
</trkpt>
<trkpt lat="42.4923209" lon="2.6519144">
<ele>716.55</ele>
<time>2021-09-07T14:11:25Z</time>
</trkpt>
<trkpt lat="42.4922566" lon="2.6521797">
<ele>714.52</ele>
<time>2021-09-07T14:11:32Z</time>
</trkpt>
<trkpt lat="42.4921713" lon="2.6524192">
<ele>713.60</ele>
<time>2021-09-07T14:11:36Z</time>
</trkpt>
<trkpt lat="42.4920684" lon="2.6526677">
<ele>712.03</ele>
<time>2021-09-07T14:11:39Z</time>
</trkpt>
<trkpt lat="42.4919187" lon="2.6528217">
<ele>706.25</ele>
<time>2021-09-07T14:11:42Z</time>
</trkpt>
<trkpt lat="42.4917664" lon="2.6530161">
<ele>705.60</ele>
<time>2021-09-07T14:11:46Z</time>
</trkpt>
<trkpt lat="42.4916787" lon="2.6532410">
<ele>705.36</ele>
<time>2021-09-07T14:11:58Z</time>
</trkpt>
<trkpt lat="42.4916173" lon="2.6534754">
<ele>703.82</ele>
<time>2021-09-07T14:12:01Z</time>
</trkpt>
<trkpt lat="42.4914730" lon="2.6536763">
<ele>702.50</ele>
<time>2021-09-07T14:12:04Z</time>
</trkpt>
<trkpt lat="42.4913058" lon="2.6538973">
<ele>697.22</ele>
<time>2021-09-07T14:12:08Z</time>
</trkpt>
<trkpt lat="42.4911918" lon="2.6541248">
<ele>692.56</ele>
<time>2021-09-07T14:12:11Z</time>
</trkpt>
<trkpt lat="42.4911146" lon="2.6543909">
<ele>689.92</ele>
<time>2021-09-07T14:12:15Z</time>
</trkpt>
<trkpt lat="42.4910845" lon="2.6546357">
<ele>686.02</ele>
<time>2021-09-07T14:12:18Z</time>
</trkpt>
<trkpt lat="42.4911036" lon="2.6543883">
<ele>686.36</ele>
<time>2021-09-07T14:13:35Z</time>
</trkpt>
<trkpt lat="42.4909360" lon="2.6545623">
<ele>684.56</ele>
<time>2021-09-07T14:15:35Z</time>
</trkpt>
<trkpt lat="42.4907591" lon="2.6546695">
<ele>679.18</ele>
<time>2021-09-07T14:15:42Z</time>
</trkpt>
<trkpt lat="42.4905720" lon="2.6546896">
<ele>675.90</ele>
<time>2021-09-07T14:15:50Z</time>
</trkpt>
<trkpt lat="42.4903963" lon="2.6545660">
<ele>673.26</ele>
<time>2021-09-07T14:16:04Z</time>
</trkpt>
<trkpt lat="42.4903587" lon="2.6543105">
<ele>673.02</ele>
<time>2021-09-07T14:16:14Z</time>
</trkpt>
<trkpt lat="42.4902110" lon="2.6541004">
<ele>670.75</ele>
<time>2021-09-07T14:16:25Z</time>
</trkpt>
<trkpt lat="42.4900917" lon="2.6539133">
<ele>669.50</ele>
<time>2021-09-07T14:16:29Z</time>
</trkpt>
<trkpt lat="42.4898762" lon="2.6538374">
<ele>666.86</ele>
<time>2021-09-07T14:16:33Z</time>
</trkpt>
<trkpt lat="42.4896586" lon="2.6537986">
<ele>659.26</ele>
<time>2021-09-07T14:16:38Z</time>
</trkpt>
<trkpt lat="42.4894416" lon="2.6538795">
<ele>653.92</ele>
<time>2021-09-07T14:16:43Z</time>
</trkpt>
<trkpt lat="42.4892463" lon="2.6539238">
<ele>652.18</ele>
<time>2021-09-07T14:16:47Z</time>
</trkpt>
<trkpt lat="42.4890801" lon="2.6538112">
<ele>651.76</ele>
<time>2021-09-07T14:16:54Z</time>
</trkpt>
<trkpt lat="42.4888997" lon="2.6537460">
<ele>646.05</ele>
<time>2021-09-07T14:17:00Z</time>
</trkpt>
<trkpt lat="42.4887099" lon="2.6537082">
<ele>641.95</ele>
<time>2021-09-07T14:17:06Z</time>
</trkpt>
<trkpt lat="42.4885238" lon="2.6537245">
<ele>642.27</ele>
<time>2021-09-07T14:17:14Z</time>
</trkpt>
<trkpt lat="42.4883310" lon="2.6537234">
<ele>638.49</ele>
<time>2021-09-07T14:17:20Z</time>
</trkpt>
<trkpt lat="42.4881287" lon="2.6536891">
<ele>635.41</ele>
<time>2021-09-07T14:17:26Z</time>
</trkpt>
<trkpt lat="42.4878873" lon="2.6537884">
<ele>633.88</ele>
<time>2021-09-07T14:17:31Z</time>
</trkpt>
<trkpt lat="42.4876916" lon="2.6537025">
<ele>625.99</ele>
<time>2021-09-07T14:17:38Z</time>
</trkpt>
<trkpt lat="42.4875401" lon="2.6535116">
<ele>622.28</ele>
<time>2021-09-07T14:17:45Z</time>
</trkpt>
<trkpt lat="42.4873888" lon="2.6533679">
<ele>616.43</ele>
<time>2021-09-07T14:18:25Z</time>
</trkpt>
<trkpt lat="42.4872826" lon="2.6531688">
<ele>610.89</ele>
<time>2021-09-07T14:18:54Z</time>
</trkpt>
<trkpt lat="42.4871386" lon="2.6530183">
<ele>604.81</ele>
<time>2021-09-07T14:19:48Z</time>
</trkpt>
<trkpt lat="42.4869599" lon="2.6529865">
<ele>600.93</ele>
<time>2021-09-07T14:20:07Z</time>
</trkpt>
<trkpt lat="42.4868452" lon="2.6531953">
<ele>605.13</ele>
<time>2021-09-07T14:20:58Z</time>
</trkpt>
<trkpt lat="42.4867195" lon="2.6533711">
<ele>600.55</ele>
<time>2021-09-07T14:21:08Z</time>
</trkpt>
<trkpt lat="42.4865676" lon="2.6535487">
<ele>597.36</ele>
<time>2021-09-07T14:21:16Z</time>
</trkpt>
<trkpt lat="42.4864222" lon="2.6537063">
<ele>594.60</ele>
<time>2021-09-07T14:21:24Z</time>
</trkpt>
<trkpt lat="42.4863672" lon="2.6539556">
<ele>591.12</ele>
<time>2021-09-07T14:22:02Z</time>
</trkpt>
<trkpt lat="42.4865468" lon="2.6538541">
<ele>587.44</ele>
<time>2021-09-07T14:22:38Z</time>
</trkpt>
<trkpt lat="42.4867249" lon="2.6537237">
<ele>585.75</ele>
<time>2021-09-07T14:22:44Z</time>
</trkpt>
<trkpt lat="42.4869193" lon="2.6536521">
<ele>584.06</ele>
<time>2021-09-07T14:22:50Z</time>
</trkpt>
<trkpt lat="42.4870667" lon="2.6538147">
<ele>584.22</ele>
<time>2021-09-07T14:22:57Z</time>
</trkpt>
<trkpt lat="42.4871492" lon="2.6540761">
<ele>585.86</ele>
<time>2021-09-07T14:23:04Z</time>
</trkpt>
<trkpt lat="42.4872138" lon="2.6543048">
<ele>586.77</ele>
<time>2021-09-07T14:23:09Z</time>
</trkpt>
<trkpt lat="42.4872844" lon="2.6545697">
<ele>588.57</ele>
<time>2021-09-07T14:23:15Z</time>
</trkpt>
<trkpt lat="42.4873869" lon="2.6547971">
<ele>589.12</ele>
<time>2021-09-07T14:23:21Z</time>
</trkpt>
<trkpt lat="42.4874390" lon="2.6550317">
<ele>590.67</ele>
<time>2021-09-07T14:23:41Z</time>
</trkpt>
<trkpt lat="42.4875961" lon="2.6548878">
<ele>595.13</ele>
<time>2021-09-07T14:25:54Z</time>
</trkpt>
<trkpt lat="42.4877849" lon="2.6548356">
<ele>596.29</ele>
<time>2021-09-07T14:26:02Z</time>
</trkpt>
<trkpt lat="42.4879775" lon="2.6548194">
<ele>597.46</ele>
<time>2021-09-07T14:26:11Z</time>
</trkpt>
<trkpt lat="42.4881504" lon="2.6549050">
<ele>597.96</ele>
<time>2021-09-07T14:26:20Z</time>
</trkpt>
<trkpt lat="42.4882969" lon="2.6550565">
<ele>598.42</ele>
<time>2021-09-07T14:26:31Z</time>
</trkpt>
<trkpt lat="42.4884528" lon="2.6552214">
<ele>600.38</ele>
<time>2021-09-07T14:26:41Z</time>
</trkpt>
<trkpt lat="42.4886174" lon="2.6553369">
<ele>602.15</ele>
<time>2021-09-07T14:26:51Z</time>
</trkpt>
<trkpt lat="42.4888064" lon="2.6552790">
<ele>602.58</ele>
<time>2021-09-07T14:27:01Z</time>
</trkpt>
<trkpt lat="42.4889751" lon="2.6551657">
<ele>603.48</ele>
<time>2021-09-07T14:27:11Z</time>
</trkpt>
<trkpt lat="42.4891447" lon="2.6550666">
<ele>604.48</ele>
<time>2021-09-07T14:27:20Z</time>
</trkpt>
<trkpt lat="42.4892491" lon="2.6552794">
<ele>604.37</ele>
<time>2021-09-07T14:27:31Z</time>
</trkpt>
<trkpt lat="42.4892272" lon="2.6555309">
<ele>604.38</ele>
<time>2021-09-07T14:27:41Z</time>
</trkpt>
<trkpt lat="42.4891791" lon="2.6557712">
<ele>605.34</ele>
<time>2021-09-07T14:27:51Z</time>
</trkpt>
<trkpt lat="42.4891290" lon="2.6560123">
<ele>604.91</ele>
<time>2021-09-07T14:28:01Z</time>
</trkpt>
<trkpt lat="42.4890483" lon="2.6562565">
<ele>606.69</ele>
<time>2021-09-07T14:28:10Z</time>
</trkpt>
<trkpt lat="42.4889947" lon="2.6565147">
<ele>606.90</ele>
<time>2021-09-07T14:28:20Z</time>
</trkpt>
<trkpt lat="42.4889810" lon="2.6567702">
<ele>608.31</ele>
<time>2021-09-07T14:28:29Z</time>
</trkpt>
<trkpt lat="42.4890744" lon="2.6570010">
<ele>608.61</ele>
<time>2021-09-07T14:28:39Z</time>
</trkpt>
<trkpt lat="42.4891961" lon="2.6572107">
<ele>608.74</ele>
<time>2021-09-07T14:28:49Z</time>
</trkpt>
<trkpt lat="42.4893212" lon="2.6573989">
<ele>609.67</ele>
<time>2021-09-07T14:28:59Z</time>
</trkpt>
<trkpt lat="42.4894611" lon="2.6575774">
<ele>611.01</ele>
<time>2021-09-07T14:29:09Z</time>
</trkpt>
<trkpt lat="42.4895785" lon="2.6577637">
<ele>614.09</ele>
<time>2021-09-07T14:29:19Z</time>
</trkpt>
<trkpt lat="42.4896936" lon="2.6579624">
<ele>616.30</ele>
<time>2021-09-07T14:29:29Z</time>
</trkpt>
<trkpt lat="42.4898719" lon="2.6580887">
<ele>617.33</ele>
<time>2021-09-07T14:29:38Z</time>
</trkpt>
<trkpt lat="42.4900571" lon="2.6580320">
<ele>617.17</ele>
<time>2021-09-07T14:29:43Z</time>
</trkpt>
<trkpt lat="42.4902405" lon="2.6580044">
<ele>617.94</ele>
<time>2021-09-07T14:29:49Z</time>
</trkpt>
<trkpt lat="42.4904139" lon="2.6579096">
<ele>617.66</ele>
<time>2021-09-07T14:29:55Z</time>
</trkpt>
<trkpt lat="42.4905813" lon="2.6577988">
<ele>618.43</ele>
<time>2021-09-07T14:30:01Z</time>
</trkpt>
<trkpt lat="42.4907607" lon="2.6576681">
<ele>616.81</ele>
<time>2021-09-07T14:30:08Z</time>
</trkpt>
<trkpt lat="42.4909471" lon="2.6575479">
<ele>617.01</ele>
<time>2021-09-07T14:30:15Z</time>
</trkpt>
<trkpt lat="42.4911226" lon="2.6576282">
<ele>617.69</ele>
<time>2021-09-07T14:30:22Z</time>
</trkpt>
<trkpt lat="42.4911849" lon="2.6578647">
<ele>618.12</ele>
<time>2021-09-07T14:30:29Z</time>
</trkpt>
<trkpt lat="42.4912569" lon="2.6581219">
<ele>617.74</ele>
<time>2021-09-07T14:30:35Z</time>
</trkpt>
<trkpt lat="42.4913819" lon="2.6583070">
<ele>619.13</ele>
<time>2021-09-07T14:30:41Z</time>
</trkpt>
<trkpt lat="42.4915568" lon="2.6583918">
<ele>620.73</ele>
<time>2021-09-07T14:30:47Z</time>
</trkpt>
<trkpt lat="42.4917532" lon="2.6584552">
<ele>621.10</ele>
<time>2021-09-07T14:30:54Z</time>
</trkpt>
<trkpt lat="42.4918695" lon="2.6586582">
<ele>617.52</ele>
<time>2021-09-07T14:31:10Z</time>
</trkpt>
<trkpt lat="42.4920289" lon="2.6588003">
<ele>616.94</ele>
<time>2021-09-07T14:31:17Z</time>
</trkpt>
<trkpt lat="42.4921757" lon="2.6589758">
<ele>614.36</ele>
<time>2021-09-07T14:31:23Z</time>
</trkpt>
<trkpt lat="42.4923123" lon="2.6591621">
<ele>612.06</ele>
<time>2021-09-07T14:31:27Z</time>
</trkpt>
<trkpt lat="42.4924635" lon="2.6593816">
<ele>608.40</ele>
<time>2021-09-07T14:31:31Z</time>
</trkpt>
<trkpt lat="42.4925097" lon="2.6596247">
<ele>608.74</ele>
<time>2021-09-07T14:31:35Z</time>
</trkpt>
<trkpt lat="42.4924959" lon="2.6599096">
<ele>608.28</ele>
<time>2021-09-07T14:31:39Z</time>
</trkpt>
<trkpt lat="42.4924825" lon="2.6602243">
<ele>605.83</ele>
<time>2021-09-07T14:31:43Z</time>
</trkpt>
<trkpt lat="42.4924168" lon="2.6604535">
<ele>604.55</ele>
<time>2021-09-07T14:31:48Z</time>
</trkpt>
<trkpt lat="42.4924038" lon="2.6607426">
<ele>603.57</ele>
<time>2021-09-07T14:31:54Z</time>
</trkpt>
<trkpt lat="42.4923357" lon="2.6609995">
<ele>604.43</ele>
<time>2021-09-07T14:31:58Z</time>
</trkpt>
<trkpt lat="42.4923766" lon="2.6612624">
<ele>602.84</ele>
<time>2021-09-07T14:32:04Z</time>
</trkpt>
<trkpt lat="42.4925037" lon="2.6614414">
<ele>600.97</ele>
<time>2021-09-07T14:32:09Z</time>
</trkpt>
<trkpt lat="42.4926776" lon="2.6615214">
<ele>600.97</ele>
<time>2021-09-07T14:32:14Z</time>
</trkpt>
<trkpt lat="42.4928586" lon="2.6616140">
<ele>596.16</ele>
<time>2021-09-07T14:32:21Z</time>
</trkpt>
<trkpt lat="42.4930698" lon="2.6616307">
<ele>594.84</ele>
<time>2021-09-07T14:32:25Z</time>
</trkpt>
<trkpt lat="42.4932521" lon="2.6616144">
<ele>595.82</ele>
<time>2021-09-07T14:32:29Z</time>
</trkpt>
<trkpt lat="42.4936390" lon="2.6616592">
<ele>598.44</ele>
<time>2021-09-07T14:32:37Z</time>
</trkpt>
<trkpt lat="42.4938260" lon="2.6616760">
<ele>595.98</ele>
<time>2021-09-07T14:32:40Z</time>
</trkpt>
<trkpt lat="42.4940587" lon="2.6617172">
<ele>594.21</ele>
<time>2021-09-07T14:32:43Z</time>
</trkpt>
<trkpt lat="42.4942736" lon="2.6617876">
<ele>591.26</ele>
<time>2021-09-07T14:32:47Z</time>
</trkpt>
<trkpt lat="42.4944485" lon="2.6619128">
<ele>591.53</ele>
<time>2021-09-07T14:32:51Z</time>
</trkpt>
<trkpt lat="42.4946437" lon="2.6619763">
<ele>587.32</ele>
<time>2021-09-07T14:33:00Z</time>
</trkpt>
<trkpt lat="42.4944496" lon="2.6619709">
<ele>590.17</ele>
<time>2021-09-07T14:33:33Z</time>
</trkpt>
<trkpt lat="42.4942683" lon="2.6619581">
<ele>588.24</ele>
<time>2021-09-07T14:33:37Z</time>
</trkpt>
<trkpt lat="42.4940428" lon="2.6619560">
<ele>586.41</ele>
<time>2021-09-07T14:33:41Z</time>
</trkpt>
<trkpt lat="42.4938295" lon="2.6620021">
<ele>584.59</ele>
<time>2021-09-07T14:33:44Z</time>
</trkpt>
<trkpt lat="42.4936487" lon="2.6620896">
<ele>584.75</ele>
<time>2021-09-07T14:33:47Z</time>
</trkpt>
<trkpt lat="42.4937691" lon="2.6622920">
<ele>578.74</ele>
<time>2021-09-07T14:33:56Z</time>
</trkpt>
<trkpt lat="42.4938308" lon="2.6625370">
<ele>576.41</ele>
<time>2021-09-07T14:34:00Z</time>
</trkpt>
<trkpt lat="42.4936491" lon="2.6625953">
<ele>570.39</ele>
<time>2021-09-07T14:34:21Z</time>
</trkpt>
<trkpt lat="42.4934752" lon="2.6626872">
<ele>562.30</ele>
<time>2021-09-07T14:34:56Z</time>
</trkpt>
<trkpt lat="42.4932911" lon="2.6626784">
<ele>560.83</ele>
<time>2021-09-07T14:35:03Z</time>
</trkpt>
<trkpt lat="42.4931050" lon="2.6627363">
<ele>557.51</ele>
<time>2021-09-07T14:35:08Z</time>
</trkpt>
<trkpt lat="42.4929418" lon="2.6628467">
<ele>556.82</ele>
<time>2021-09-07T14:35:12Z</time>
</trkpt>
<trkpt lat="42.4927866" lon="2.6630296">
<ele>555.14</ele>
<time>2021-09-07T14:35:17Z</time>
</trkpt>
<trkpt lat="42.4929020" lon="2.6632302">
<ele>554.41</ele>
<time>2021-09-07T14:35:24Z</time>
</trkpt>
<trkpt lat="42.4930574" lon="2.6633574">
<ele>552.93</ele>
<time>2021-09-07T14:35:29Z</time>
</trkpt>
<trkpt lat="42.4932034" lon="2.6635259">
<ele>551.81</ele>
<time>2021-09-07T14:35:35Z</time>
</trkpt>
<trkpt lat="42.4932484" lon="2.6637849">
<ele>542.35</ele>
<time>2021-09-07T14:35:39Z</time>
</trkpt>
<trkpt lat="42.4932997" lon="2.6640405">
<ele>539.71</ele>
<time>2021-09-07T14:35:42Z</time>
</trkpt>
<trkpt lat="42.4933799" lon="2.6642736">
<ele>539.29</ele>
<time>2021-09-07T14:35:45Z</time>
</trkpt>
<trkpt lat="42.4934886" lon="2.6644812">
<ele>535.61</ele>
<time>2021-09-07T14:35:50Z</time>
</trkpt>
<trkpt lat="42.4936572" lon="2.6646043">
<ele>535.52</ele>
<time>2021-09-07T14:35:54Z</time>
</trkpt>
<trkpt lat="42.4938004" lon="2.6648036">
<ele>532.42</ele>
<time>2021-09-07T14:35:59Z</time>
</trkpt>
<trkpt lat="42.4939760" lon="2.6647238">
<ele>528.74</ele>
<time>2021-09-07T14:36:04Z</time>
</trkpt>
<trkpt lat="42.4941250" lon="2.6645685">
<ele>520.65</ele>
<time>2021-09-07T14:36:09Z</time>
</trkpt>
<trkpt lat="42.4942742" lon="2.6647343">
<ele>515.29</ele>
<time>2021-09-07T14:36:23Z</time>
</trkpt>
<trkpt lat="42.4944636" lon="2.6647247">
<ele>515.08</ele>
<time>2021-09-07T14:36:27Z</time>
</trkpt>
<trkpt lat="42.4946541" lon="2.6646522">
<ele>515.75</ele>
<time>2021-09-07T14:36:32Z</time>
</trkpt>
<trkpt lat="42.4947352" lon="2.6648871">
<ele>509.08</ele>
<time>2021-09-07T14:36:39Z</time>
</trkpt>
<trkpt lat="42.4948022" lon="2.6652654">
<ele>510.36</ele>
<time>2021-09-07T14:36:41Z</time>
</trkpt>
<trkpt lat="42.4947290" lon="2.6655033">
<ele>506.29</ele>
<time>2021-09-07T14:36:44Z</time>
</trkpt>
<trkpt lat="42.4946891" lon="2.6658364">
<ele>498.37</ele>
<time>2021-09-07T14:36:48Z</time>
</trkpt>
<trkpt lat="42.4948691" lon="2.6657964">
<ele>497.19</ele>
<time>2021-09-07T14:37:10Z</time>
</trkpt>
<trkpt lat="42.4950017" lon="2.6656275">
<ele>496.80</ele>
<time>2021-09-07T14:37:15Z</time>
</trkpt>
<trkpt lat="42.4950762" lon="2.6653878">
<ele>493.69</ele>
<time>2021-09-07T14:37:36Z</time>
</trkpt>
<trkpt lat="42.4952099" lon="2.6650662">
<ele>487.34</ele>
<time>2021-09-07T14:37:42Z</time>
</trkpt>
<trkpt lat="42.4953501" lon="2.6648241">
<ele>487.94</ele>
<time>2021-09-07T14:37:46Z</time>
</trkpt>
<trkpt lat="42.4954815" lon="2.6645163">
<ele>486.33</ele>
<time>2021-09-07T14:37:53Z</time>
</trkpt>
<trkpt lat="42.4956111" lon="2.6643102">
<ele>489.25</ele>
<time>2021-09-07T14:37:56Z</time>
</trkpt>
<trkpt lat="42.4957707" lon="2.6641605">
<ele>489.38</ele>
<time>2021-09-07T14:38:03Z</time>
</trkpt>
<trkpt lat="42.4958497" lon="2.6643827">
<ele>481.39</ele>
<time>2021-09-07T14:38:07Z</time>
</trkpt>
<trkpt lat="42.4958023" lon="2.6646255">
<ele>477.82</ele>
<time>2021-09-07T14:38:09Z</time>
</trkpt>
<trkpt lat="42.4956982" lon="2.6649581">
<ele>473.48</ele>
<time>2021-09-07T14:38:12Z</time>
</trkpt>
<trkpt lat="42.4956304" lon="2.6652616">
<ele>471.37</ele>
<time>2021-09-07T14:38:15Z</time>
</trkpt>
<trkpt lat="42.4956579" lon="2.6655299">
<ele>471.15</ele>
<time>2021-09-07T14:38:19Z</time>
</trkpt>
<trkpt lat="42.4957986" lon="2.6657583">
<ele>465.59</ele>
<time>2021-09-07T14:38:23Z</time>
</trkpt>
<trkpt lat="42.4959079" lon="2.6659794">
<ele>463.69</ele>
<time>2021-09-07T14:38:28Z</time>
</trkpt>
<trkpt lat="42.4958656" lon="2.6662504">
<ele>457.96</ele>
<time>2021-09-07T14:38:33Z</time>
</trkpt>
<trkpt lat="42.4958396" lon="2.6665395">
<ele>455.07</ele>
<time>2021-09-07T14:38:38Z</time>
</trkpt>
<trkpt lat="42.4957859" lon="2.6668030">
<ele>452.90</ele>
<time>2021-09-07T14:38:42Z</time>
</trkpt>
<trkpt lat="42.4959772" lon="2.6666543">
<ele>448.14</ele>
<time>2021-09-07T14:38:49Z</time>
</trkpt>
<trkpt lat="42.4961016" lon="2.6664129">
<ele>447.00</ele>
<time>2021-09-07T14:38:53Z</time>
</trkpt>
<trkpt lat="42.4962953" lon="2.6663447">
<ele>442.50</ele>
<time>2021-09-07T14:38:59Z</time>
</trkpt>
<trkpt lat="42.4963204" lon="2.6665934">
<ele>434.73</ele>
<time>2021-09-07T14:39:04Z</time>
</trkpt>
<trkpt lat="42.4964109" lon="2.6668055">
<ele>432.78</ele>
<time>2021-09-07T14:39:08Z</time>
</trkpt>
<trkpt lat="42.4964081" lon="2.6670788">
<ele>429.39</ele>
<time>2021-09-07T14:39:12Z</time>
</trkpt>
<trkpt lat="42.4964016" lon="2.6673402">
<ele>427.46</ele>
<time>2021-09-07T14:39:17Z</time>
</trkpt>
<trkpt lat="42.4965961" lon="2.6673651">
<ele>420.58</ele>
<time>2021-09-07T14:39:55Z</time>
</trkpt>
<trkpt lat="42.4965927" lon="2.6676166">
<ele>420.29</ele>
<time>2021-09-07T14:40:17Z</time>
</trkpt>
<trkpt lat="42.4965313" lon="2.6678576">
<ele>420.33</ele>
<time>2021-09-07T14:40:23Z</time>
</trkpt>
<trkpt lat="42.4963720" lon="2.6680230">
<ele>422.48</ele>
<time>2021-09-07T14:40:30Z</time>
</trkpt>
<trkpt lat="42.4962015" lon="2.6681442">
<ele>422.09</ele>
<time>2021-09-07T14:40:37Z</time>
</trkpt>
<trkpt lat="42.4960413" lon="2.6682867">
<ele>421.98</ele>
<time>2021-09-07T14:40:44Z</time>
</trkpt>
<trkpt lat="42.4959330" lon="2.6685032">
<ele>422.03</ele>
<time>2021-09-07T14:40:50Z</time>
</trkpt>
<trkpt lat="42.4958753" lon="2.6687598">
<ele>424.16</ele>
<time>2021-09-07T14:40:56Z</time>
</trkpt>
<trkpt lat="42.4957805" lon="2.6690118">
<ele>424.88</ele>
<time>2021-09-07T14:41:03Z</time>
</trkpt>
<trkpt lat="42.4956887" lon="2.6692239">
<ele>425.30</ele>
<time>2021-09-07T14:41:09Z</time>
</trkpt>
<trkpt lat="42.4955962" lon="2.6694386">
<ele>425.13</ele>
<time>2021-09-07T14:41:15Z</time>
</trkpt>
<trkpt lat="42.4955293" lon="2.6696724">
<ele>426.83</ele>
<time>2021-09-07T14:41:21Z</time>
</trkpt>
<trkpt lat="42.4954190" lon="2.6699148">
<ele>427.30</ele>
<time>2021-09-07T14:41:28Z</time>
</trkpt>
<trkpt lat="42.4953415" lon="2.6701539">
<ele>428.71</ele>
<time>2021-09-07T14:41:34Z</time>
</trkpt>
<trkpt lat="42.4952565" lon="2.6703968">
<ele>428.17</ele>
<time>2021-09-07T14:41:40Z</time>
</trkpt>
<trkpt lat="42.4951583" lon="2.6706455">
<ele>427.62</ele>
<time>2021-09-07T14:41:46Z</time>
</trkpt>
<trkpt lat="42.4950628" lon="2.6708720">
<ele>427.17</ele>
<time>2021-09-07T14:41:50Z</time>
</trkpt>
<trkpt lat="42.4949904" lon="2.6711632">
<ele>425.14</ele>
<time>2021-09-07T14:41:54Z</time>
</trkpt>
<trkpt lat="42.4949875" lon="2.6714294">
<ele>424.26</ele>
<time>2021-09-07T14:41:57Z</time>
</trkpt>
<trkpt lat="42.4949382" lon="2.6717199">
<ele>422.73</ele>
<time>2021-09-07T14:42:00Z</time>
</trkpt>
<trkpt lat="42.4947868" lon="2.6719489">
<ele>422.22</ele>
<time>2021-09-07T14:42:03Z</time>
</trkpt>
<trkpt lat="42.4945557" lon="2.6719319">
<ele>420.86</ele>
<time>2021-09-07T14:42:06Z</time>
</trkpt>
<trkpt lat="42.4943242" lon="2.6717623">
<ele>421.99</ele>
<time>2021-09-07T14:42:09Z</time>
</trkpt>
<trkpt lat="42.4941457" lon="2.6715337">
<ele>421.15</ele>
<time>2021-09-07T14:42:12Z</time>
</trkpt>
<trkpt lat="42.4939865" lon="2.6712942">
<ele>419.88</ele>
<time>2021-09-07T14:42:15Z</time>
</trkpt>
<trkpt lat="42.4938808" lon="2.6709873">
<ele>418.00</ele>
<time>2021-09-07T14:42:18Z</time>
</trkpt>
<trkpt lat="42.4937528" lon="2.6706714">
<ele>417.26</ele>
<time>2021-09-07T14:42:21Z</time>
</trkpt>
<trkpt lat="42.4936338" lon="2.6703621">
<ele>415.58</ele>
<time>2021-09-07T14:42:24Z</time>
</trkpt>
<trkpt lat="42.4934560" lon="2.6702146">
<ele>414.23</ele>
<time>2021-09-07T14:42:27Z</time>
</trkpt>
<trkpt lat="42.4932955" lon="2.6703756">
<ele>413.21</ele>
<time>2021-09-07T14:42:30Z</time>
</trkpt>
<trkpt lat="42.4932527" lon="2.6706822">
<ele>412.27</ele>
<time>2021-09-07T14:42:33Z</time>
</trkpt>
<trkpt lat="42.4931695" lon="2.6709459">
<ele>411.74</ele>
<time>2021-09-07T14:42:36Z</time>
</trkpt>
<trkpt lat="42.4930310" lon="2.6711956">
<ele>410.48</ele>
<time>2021-09-07T14:42:39Z</time>
</trkpt>
<trkpt lat="42.4928528" lon="2.6713901">
<ele>408.06</ele>
<time>2021-09-07T14:42:42Z</time>
</trkpt>
<trkpt lat="42.4926921" lon="2.6715793">
<ele>406.51</ele>
<time>2021-09-07T14:42:45Z</time>
</trkpt>
<trkpt lat="42.4928958" lon="2.6715790">
<ele>405.56</ele>
<time>2021-09-07T14:42:54Z</time>
</trkpt>
<trkpt lat="42.4930906" lon="2.6714066">
<ele>402.23</ele>
<time>2021-09-07T14:42:58Z</time>
</trkpt>
<trkpt lat="42.4932205" lon="2.6712341">
<ele>401.65</ele>
<time>2021-09-07T14:43:01Z</time>
</trkpt>
<trkpt lat="42.4933366" lon="2.6709863">
<ele>398.06</ele>
<time>2021-09-07T14:43:05Z</time>
</trkpt>
<trkpt lat="42.4934851" lon="2.6711976">
<ele>397.27</ele>
<time>2021-09-07T14:43:10Z</time>
</trkpt>
<trkpt lat="42.4935031" lon="2.6714925">
<ele>397.98</ele>
<time>2021-09-07T14:43:14Z</time>
</trkpt>
<trkpt lat="42.4936466" lon="2.6717285">
<ele>392.06</ele>
<time>2021-09-07T14:43:19Z</time>
</trkpt>
<trkpt lat="42.4937555" lon="2.6720122">
<ele>391.05</ele>
<time>2021-09-07T14:43:23Z</time>
</trkpt>
<trkpt lat="42.4938866" lon="2.6722336">
<ele>388.12</ele>
<time>2021-09-07T14:43:27Z</time>
</trkpt>
<trkpt lat="42.4940204" lon="2.6724270">
<ele>388.24</ele>
<time>2021-09-07T14:43:31Z</time>
</trkpt>
<trkpt lat="42.4941159" lon="2.6726740">
<ele>389.84</ele>
<time>2021-09-07T14:43:34Z</time>
</trkpt>
<trkpt lat="42.4942221" lon="2.6728764">
<ele>389.94</ele>
<time>2021-09-07T14:43:37Z</time>
</trkpt>
<trkpt lat="42.4942481" lon="2.6731350">
<ele>388.50</ele>
<time>2021-09-07T14:43:41Z</time>
</trkpt>
<trkpt lat="42.4943419" lon="2.6733885">
<ele>387.63</ele>
<time>2021-09-07T14:43:47Z</time>
</trkpt>
<trkpt lat="42.4944769" lon="2.6736346">
<ele>385.19</ele>
<time>2021-09-07T14:43:52Z</time>
</trkpt>
<trkpt lat="42.4945545" lon="2.6739058">
<ele>385.76</ele>
<time>2021-09-07T14:43:56Z</time>
</trkpt>
<trkpt lat="42.4947554" lon="2.6739398">
<ele>384.85</ele>
<time>2021-09-07T14:44:03Z</time>
</trkpt>
<trkpt lat="42.4949410" lon="2.6738084">
<ele>381.84</ele>
<time>2021-09-07T14:44:09Z</time>
</trkpt>
<trkpt lat="42.4951342" lon="2.6738621">
<ele>379.50</ele>
<time>2021-09-07T14:44:13Z</time>
</trkpt>
<trkpt lat="42.4953196" lon="2.6738942">
<ele>380.93</ele>
<time>2021-09-07T14:44:17Z</time>
</trkpt>
<trkpt lat="42.4955299" lon="2.6738525">
<ele>374.78</ele>
<time>2021-09-07T14:44:47Z</time>
</trkpt>
<trkpt lat="42.4957188" lon="2.6738285">
<ele>373.74</ele>
<time>2021-09-07T14:44:51Z</time>
</trkpt>
<trkpt lat="42.4959353" lon="2.6737267">
<ele>368.64</ele>
<time>2021-09-07T14:44:55Z</time>
</trkpt>
<trkpt lat="42.4961180" lon="2.6736711">
<ele>368.22</ele>
<time>2021-09-07T14:44:58Z</time>
</trkpt>
<trkpt lat="42.4963075" lon="2.6735492">
<ele>365.99</ele>
<time>2021-09-07T14:45:01Z</time>
</trkpt>
<trkpt lat="42.4964621" lon="2.6733662">
<ele>366.32</ele>
<time>2021-09-07T14:45:04Z</time>
</trkpt>
<trkpt lat="42.4966091" lon="2.6731329">
<ele>364.89</ele>
<time>2021-09-07T14:45:07Z</time>
</trkpt>
<trkpt lat="42.4966820" lon="2.6728886">
<ele>364.59</ele>
<time>2021-09-07T14:45:10Z</time>
</trkpt>
<trkpt lat="42.4967297" lon="2.6726508">
<ele>361.55</ele>
<time>2021-09-07T14:45:13Z</time>
</trkpt>
<trkpt lat="42.4967435" lon="2.6723859">
<ele>359.99</ele>
<time>2021-09-07T14:45:16Z</time>
</trkpt>
<trkpt lat="42.4968206" lon="2.6721194">
<ele>359.38</ele>
<time>2021-09-07T14:45:20Z</time>
</trkpt>
<trkpt lat="42.4968949" lon="2.6718770">
<ele>356.84</ele>
<time>2021-09-07T14:45:40Z</time>
</trkpt>
<trkpt lat="42.4970505" lon="2.6716784">
<ele>356.33</ele>
<time>2021-09-07T14:45:44Z</time>
</trkpt>
<trkpt lat="42.4972212" lon="2.6715771">
<ele>356.78</ele>
<time>2021-09-07T14:45:47Z</time>
</trkpt>
<trkpt lat="42.4974243" lon="2.6715443">
<ele>353.70</ele>
<time>2021-09-07T14:45:51Z</time>
</trkpt>
<trkpt lat="42.4974493" lon="2.6712948">
<ele>350.37</ele>
<time>2021-09-07T14:45:56Z</time>
</trkpt>
<trkpt lat="42.4975871" lon="2.6710538">
<ele>347.97</ele>
<time>2021-09-07T14:46:01Z</time>
</trkpt>
<trkpt lat="42.4977292" lon="2.6708416">
<ele>343.40</ele>
<time>2021-09-07T14:46:05Z</time>
</trkpt>
<trkpt lat="42.4978566" lon="2.6706576">
<ele>343.17</ele>
<time>2021-09-07T14:46:08Z</time>
</trkpt>
<trkpt lat="42.4979412" lon="2.6703774">
<ele>340.96</ele>
<time>2021-09-07T14:46:12Z</time>
</trkpt>
<trkpt lat="42.4979461" lon="2.6701004">
<ele>336.21</ele>
<time>2021-09-07T14:46:18Z</time>
</trkpt>
<trkpt lat="42.4981193" lon="2.6702310">
<ele>336.35</ele>
<time>2021-09-07T14:46:27Z</time>
</trkpt>
<trkpt lat="42.4983493" lon="2.6701181">
<ele>332.20</ele>
<time>2021-09-07T14:46:30Z</time>
</trkpt>
<trkpt lat="42.4985109" lon="2.6699540">
<ele>328.96</ele>
<time>2021-09-07T14:46:35Z</time>
</trkpt>
<trkpt lat="42.4986693" lon="2.6697883">
<ele>329.34</ele>
<time>2021-09-07T14:46:39Z</time>
</trkpt>
<trkpt lat="42.4988136" lon="2.6696330">
<ele>328.71</ele>
<time>2021-09-07T14:46:44Z</time>
</trkpt>
<trkpt lat="42.4989029" lon="2.6694212">
<ele>327.61</ele>
<time>2021-09-07T14:48:25Z</time>
</trkpt>
<trkpt lat="42.4990985" lon="2.6693681">
<ele>326.87</ele>
<time>2021-09-07T14:49:34Z</time>
</trkpt>
<trkpt lat="42.4992788" lon="2.6694393">
<ele>325.47</ele>
<time>2021-09-07T14:49:40Z</time>
</trkpt>
<trkpt lat="42.4994668" lon="2.6693113">
<ele>324.90</ele>
<time>2021-09-07T14:49:46Z</time>
</trkpt>
<trkpt lat="42.4996360" lon="2.6692136">
<ele>326.23</ele>
<time>2021-09-07T14:49:52Z</time>
</trkpt>
<trkpt lat="42.4998163" lon="2.6691251">
<ele>326.17</ele>
<time>2021-09-07T14:50:06Z</time>
</trkpt>
<trkpt lat="42.4999750" lon="2.6689696">
<ele>324.94</ele>
<time>2021-09-07T14:50:13Z</time>
</trkpt>
<trkpt lat="42.5001005" lon="2.6687925">
<ele>323.86</ele>
<time>2021-09-07T14:50:17Z</time>
</trkpt>
<trkpt lat="42.5002081" lon="2.6685839">
<ele>321.47</ele>
<time>2021-09-07T14:50:20Z</time>
</trkpt>
<trkpt lat="42.5002640" lon="2.6683128">
<ele>317.79</ele>
<time>2021-09-07T14:50:24Z</time>
</trkpt>
<trkpt lat="42.5002963" lon="2.6680665">
<ele>315.13</ele>
<time>2021-09-07T14:50:34Z</time>
</trkpt>
<trkpt lat="42.5002704" lon="2.6677989">
<ele>312.48</ele>
<time>2021-09-07T14:50:54Z</time>
</trkpt>
<trkpt lat="42.5002978" lon="2.6675515">
<ele>308.43</ele>
<time>2021-09-07T14:51:04Z</time>
</trkpt>
<trkpt lat="42.5003208" lon="2.6672807">
<ele>310.89</ele>
<time>2021-09-07T14:51:21Z</time>
</trkpt>
<trkpt lat="42.5003116" lon="2.6670205">
<ele>308.68</ele>
<time>2021-09-07T14:51:28Z</time>
</trkpt>
<trkpt lat="42.5002852" lon="2.6667236">
<ele>306.42</ele>
<time>2021-09-07T14:51:32Z</time>
</trkpt>
<trkpt lat="42.5002737" lon="2.6664722">
<ele>306.68</ele>
<time>2021-09-07T14:51:51Z</time>
</trkpt>
<trkpt lat="42.5004650" lon="2.6665335">
<ele>304.69</ele>
<time>2021-09-07T14:52:18Z</time>
</trkpt>
<trkpt lat="42.5006565" lon="2.6665799">
<ele>304.09</ele>
<time>2021-09-07T14:52:24Z</time>
</trkpt>
<trkpt lat="42.5008428" lon="2.6666417">
<ele>305.41</ele>
<time>2021-09-07T14:52:31Z</time>
</trkpt>
<trkpt lat="42.5009968" lon="2.6664754">
<ele>303.17</ele>
<time>2021-09-07T14:52:38Z</time>
</trkpt>
<trkpt lat="42.5011546" lon="2.6662662">
<ele>302.51</ele>
<time>2021-09-07T14:52:42Z</time>
</trkpt>
<trkpt lat="42.5012651" lon="2.6659962">
<ele>302.42</ele>
<time>2021-09-07T14:52:46Z</time>
</trkpt>
<trkpt lat="42.5013529" lon="2.6657798">
<ele>299.89</ele>
<time>2021-09-07T14:52:51Z</time>
</trkpt>
<trkpt lat="42.5014540" lon="2.6655271">
<ele>299.25</ele>
<time>2021-09-07T14:53:00Z</time>
</trkpt>
<trkpt lat="42.5014474" lon="2.6651797">
<ele>299.18</ele>
<time>2021-09-07T14:53:05Z</time>
</trkpt>
<trkpt lat="42.5016457" lon="2.6651846">
<ele>296.47</ele>
<time>2021-09-07T14:53:10Z</time>
</trkpt>
<trkpt lat="42.5018563" lon="2.6651040">
<ele>297.16</ele>
<time>2021-09-07T14:53:14Z</time>
</trkpt>
<trkpt lat="42.5018689" lon="2.6648355">
<ele>293.70</ele>
<time>2021-09-07T14:53:19Z</time>
</trkpt>
<trkpt lat="42.5017568" lon="2.6644942">
<ele>290.84</ele>
<time>2021-09-07T14:53:22Z</time>
</trkpt>
<trkpt lat="42.5019229" lon="2.6643263">
<ele>288.41</ele>
<time>2021-09-07T14:53:27Z</time>
</trkpt>
<trkpt lat="42.5021819" lon="2.6643442">
<ele>287.04</ele>
<time>2021-09-07T14:53:33Z</time>
</trkpt>
<trkpt lat="42.5023865" lon="2.6642624">
<ele>283.80</ele>
<time>2021-09-07T14:53:34Z</time>
</trkpt>
<trkpt lat="42.5024204" lon="2.6639817">
<ele>277.38</ele>
<time>2021-09-07T14:53:39Z</time>
</trkpt>
<trkpt lat="42.5025743" lon="2.6638052">
<ele>271.37</ele>
<time>2021-09-07T14:53:46Z</time>
</trkpt>
<trkpt lat="42.5027315" lon="2.6636575">
<ele>271.62</ele>
<time>2021-09-07T14:53:48Z</time>
</trkpt>
<trkpt lat="42.5027737" lon="2.6633945">
<ele>272.33</ele>
<time>2021-09-07T14:53:52Z</time>
</trkpt>
<trkpt lat="42.5028756" lon="2.6631872">
<ele>273.09</ele>
<time>2021-09-07T14:53:56Z</time>
</trkpt>
<trkpt lat="42.5029962" lon="2.6629955">
<ele>272.68</ele>
<time>2021-09-07T14:54:01Z</time>
</trkpt>
<trkpt lat="42.5029723" lon="2.6632421">
<ele>269.19</ele>
<time>2021-09-07T14:54:08Z</time>
</trkpt>
<trkpt lat="42.5030154" lon="2.6635164">
<ele>265.87</ele>
<time>2021-09-07T14:54:12Z</time>
</trkpt>
<trkpt lat="42.5030972" lon="2.6637926">
<ele>265.22</ele>
<time>2021-09-07T14:54:18Z</time>
</trkpt>
<trkpt lat="42.5030426" lon="2.6640722">
<ele>264.24</ele>
<time>2021-09-07T14:54:22Z</time>
</trkpt>
<trkpt lat="42.5028614" lon="2.6641335">
<ele>259.25</ele>
<time>2021-09-07T14:54:28Z</time>
</trkpt>
<trkpt lat="42.5028156" lon="2.6643921">
<ele>257.33</ele>
<time>2021-09-07T15:01:44Z</time>
</trkpt>
<trkpt lat="42.5028683" lon="2.6646280">
<ele>255.74</ele>
<time>2021-09-07T15:01:49Z</time>
</trkpt>
<trkpt lat="42.5027524" lon="2.6648506">
<ele>253.85</ele>
<time>2021-09-07T15:01:54Z</time>
</trkpt>
<trkpt lat="42.5026348" lon="2.6650426">
<ele>256.97</ele>
<time>2021-09-07T15:02:01Z</time>
</trkpt>
<trkpt lat="42.5026419" lon="2.6653377">
<ele>248.96</ele>
<time>2021-09-07T15:02:08Z</time>
</trkpt>
<trkpt lat="42.5025614" lon="2.6655643">
<ele>247.20</ele>
<time>2021-09-07T15:02:10Z</time>
</trkpt>
<trkpt lat="42.5024596" lon="2.6658636">
<ele>248.84</ele>
<time>2021-09-07T15:02:13Z</time>
</trkpt>
<trkpt lat="42.5023510" lon="2.6661261">
<ele>247.06</ele>
<time>2021-09-07T15:02:19Z</time>
</trkpt>
<trkpt lat="42.5023194" lon="2.6664532">
<ele>247.13</ele>
<time>2021-09-07T15:02:21Z</time>
</trkpt>
<trkpt lat="42.5021814" lon="2.6666291">
<ele>250.53</ele>
<time>2021-09-07T15:02:24Z</time>
</trkpt>
<trkpt lat="42.5021639" lon="2.6669354">
<ele>249.29</ele>
<time>2021-09-07T15:02:27Z</time>
</trkpt>
<trkpt lat="42.5021879" lon="2.6672570">
<ele>244.10</ele>
<time>2021-09-07T15:02:33Z</time>
</trkpt>
<trkpt lat="42.5021130" lon="2.6675447">
<ele>242.75</ele>
<time>2021-09-07T15:02:34Z</time>
</trkpt>
<trkpt lat="42.5021449" lon="2.6678062">
<ele>240.31</ele>
<time>2021-09-07T15:02:39Z</time>
</trkpt>
<trkpt lat="42.5021547" lon="2.6680633">
<ele>236.68</ele>
<time>2021-09-07T15:02:42Z</time>
</trkpt>
<trkpt lat="42.5021727" lon="2.6683494">
<ele>233.70</ele>
<time>2021-09-07T15:02:46Z</time>
</trkpt>
<trkpt lat="42.5021985" lon="2.6686145">
<ele>233.91</ele>
<time>2021-09-07T15:02:53Z</time>
</trkpt>
<trkpt lat="42.5021703" lon="2.6688721">
<ele>233.75</ele>
<time>2021-09-07T15:02:56Z</time>
</trkpt>
<trkpt lat="42.5021422" lon="2.6691446">
<ele>233.04</ele>
<time>2021-09-07T15:03:01Z</time>
</trkpt>
<trkpt lat="42.5021424" lon="2.6694374">
<ele>230.75</ele>
<time>2021-09-07T15:03:06Z</time>
</trkpt>
<trkpt lat="42.5020772" lon="2.6696731">
<ele>230.15</ele>
<time>2021-09-07T15:03:11Z</time>
</trkpt>
<trkpt lat="42.5020261" lon="2.6699150">
<ele>230.51</ele>
<time>2021-09-07T15:03:16Z</time>
</trkpt>
<trkpt lat="42.5019501" lon="2.6701731">
<ele>230.63</ele>
<time>2021-09-07T15:03:19Z</time>
</trkpt>
<trkpt lat="42.5019474" lon="2.6704494">
<ele>229.32</ele>
<time>2021-09-07T15:03:23Z</time>
</trkpt>
<trkpt lat="42.5019691" lon="2.6707460">
<ele>226.99</ele>
<time>2021-09-07T15:03:29Z</time>
</trkpt>
<trkpt lat="42.5019586" lon="2.6709927">
<ele>229.37</ele>
<time>2021-09-07T15:03:31Z</time>
</trkpt>
<trkpt lat="42.5018307" lon="2.6711997">
<ele>231.61</ele>
<time>2021-09-07T15:03:35Z</time>
</trkpt>
<trkpt lat="42.5016565" lon="2.6713579">
<ele>229.88</ele>
<time>2021-09-07T15:03:40Z</time>
</trkpt>
<trkpt lat="42.5014985" lon="2.6715139">
<ele>227.00</ele>
<time>2021-09-07T15:03:44Z</time>
</trkpt>
<trkpt lat="42.5013347" lon="2.6717003">
<ele>223.51</ele>
<time>2021-09-07T15:03:49Z</time>
</trkpt>
<trkpt lat="42.5011943" lon="2.6718942">
<ele>225.61</ele>
<time>2021-09-07T15:03:53Z</time>
</trkpt>
<trkpt lat="42.5010776" lon="2.6721062">
<ele>225.24</ele>
<time>2021-09-07T15:03:58Z</time>
</trkpt>
<trkpt lat="42.5009048" lon="2.6722582">
<ele>226.63</ele>
<time>2021-09-07T15:04:03Z</time>
</trkpt>
<trkpt lat="42.5007259" lon="2.6723211">
<ele>225.91</ele>
<time>2021-09-07T15:04:07Z</time>
</trkpt>
<trkpt lat="42.5005221" lon="2.6724083">
<ele>229.85</ele>
<time>2021-09-07T15:04:13Z</time>
</trkpt>
<trkpt lat="42.5003332" lon="2.6724677">
<ele>232.39</ele>
<time>2021-09-07T15:04:18Z</time>
</trkpt>
<trkpt lat="42.5001259" lon="2.6724811">
<ele>232.22</ele>
<time>2021-09-07T15:04:23Z</time>
</trkpt>
<trkpt lat="42.4999929" lon="2.6726594">
<ele>233.12</ele>
<time>2021-09-07T15:04:29Z</time>
</trkpt>
<trkpt lat="42.4999146" lon="2.6729058">
<ele>233.84</ele>
<time>2021-09-07T15:04:35Z</time>
</trkpt>
<trkpt lat="42.4997287" lon="2.6730240">
<ele>232.69</ele>
<time>2021-09-07T15:04:41Z</time>
</trkpt>
<trkpt lat="42.4996166" lon="2.6732575">
<ele>229.31</ele>
<time>2021-09-07T15:04:46Z</time>
</trkpt>
<trkpt lat="42.4994692" lon="2.6734796">
<ele>228.98</ele>
<time>2021-09-07T15:04:51Z</time>
</trkpt>
<trkpt lat="42.4993372" lon="2.6737140">
<ele>230.16</ele>
<time>2021-09-07T15:04:56Z</time>
</trkpt>
<trkpt lat="42.4993074" lon="2.6740054">
<ele>229.78</ele>
<time>2021-09-07T15:05:01Z</time>
</trkpt>
<trkpt lat="42.4993606" lon="2.6742624">
<ele>229.31</ele>
<time>2021-09-07T15:05:07Z</time>
</trkpt>
<trkpt lat="42.4994662" lon="2.6744987">
<ele>227.66</ele>
<time>2021-09-07T15:05:12Z</time>
</trkpt>
<trkpt lat="42.4995014" lon="2.6747670">
<ele>225.80</ele>
<time>2021-09-07T15:05:16Z</time>
</trkpt>
<trkpt lat="42.4995864" lon="2.6749959">
<ele>226.22</ele>
<time>2021-09-07T15:05:20Z</time>
</trkpt>
<trkpt lat="42.4997299" lon="2.6751478">
<ele>227.98</ele>
<time>2021-09-07T15:05:24Z</time>
</trkpt>
<trkpt lat="42.4999137" lon="2.6752966">
<ele>226.21</ele>
<time>2021-09-07T15:05:28Z</time>
</trkpt>
<trkpt lat="42.5000556" lon="2.6754544">
<ele>225.46</ele>
<time>2021-09-07T15:05:31Z</time>
</trkpt>
<trkpt lat="42.5001103" lon="2.6757276">
<ele>226.57</ele>
<time>2021-09-07T15:05:35Z</time>
</trkpt>
<trkpt lat="42.5000355" lon="2.6759716">
<ele>227.04</ele>
<time>2021-09-07T15:05:38Z</time>
</trkpt>
<trkpt lat="42.4999804" lon="2.6762781">
<ele>227.45</ele>
<time>2021-09-07T15:05:42Z</time>
</trkpt>
<trkpt lat="42.4999291" lon="2.6765197">
<ele>227.18</ele>
<time>2021-09-07T15:05:47Z</time>
</trkpt>
<trkpt lat="42.4998392" lon="2.6767821">
<ele>226.25</ele>
<time>2021-09-07T15:05:48Z</time>
</trkpt>
<trkpt lat="42.4997898" lon="2.6771008">
<ele>226.21</ele>
<time>2021-09-07T15:05:52Z</time>
</trkpt>
<trkpt lat="42.4998341" lon="2.6773441">
<ele>226.26</ele>
<time>2021-09-07T15:05:55Z</time>
</trkpt>
<trkpt lat="42.4997026" lon="2.6775191">
<ele>225.88</ele>
<time>2021-09-07T15:05:59Z</time>
</trkpt>
<trkpt lat="42.4994878" lon="2.6775529">
<ele>224.04</ele>
<time>2021-09-07T15:06:03Z</time>
</trkpt>
<trkpt lat="42.4992956" lon="2.6775563">
<ele>220.65</ele>
<time>2021-09-07T15:06:06Z</time>
</trkpt>
<trkpt lat="42.4990723" lon="2.6774935">
<ele>218.82</ele>
<time>2021-09-07T15:06:09Z</time>
</trkpt>
<trkpt lat="42.4988847" lon="2.6774099">
<ele>216.96</ele>
<time>2021-09-07T15:06:12Z</time>
</trkpt>
<trkpt lat="42.4987013" lon="2.6772727">
<ele>217.08</ele>
<time>2021-09-07T15:06:15Z</time>
</trkpt>
<trkpt lat="42.4985110" lon="2.6772687">
<ele>217.75</ele>
<time>2021-09-07T15:06:18Z</time>
</trkpt>
<trkpt lat="42.4983254" lon="2.6772734">
<ele>217.09</ele>
<time>2021-09-07T15:06:21Z</time>
</trkpt>
<trkpt lat="42.4981138" lon="2.6772089">
<ele>214.71</ele>
<time>2021-09-07T15:06:25Z</time>
</trkpt>
<trkpt lat="42.4978849" lon="2.6771411">
<ele>215.63</ele>
<time>2021-09-07T15:06:29Z</time>
</trkpt>
<trkpt lat="42.4976594" lon="2.6771310">
<ele>214.86</ele>
<time>2021-09-07T15:06:33Z</time>
</trkpt>
<trkpt lat="42.4974514" lon="2.6771756">
<ele>215.55</ele>
<time>2021-09-07T15:06:36Z</time>
</trkpt>
<trkpt lat="42.4972793" lon="2.6774554">
<ele>217.05</ele>
<time>2021-09-07T15:06:39Z</time>
</trkpt>
<trkpt lat="42.4971248" lon="2.6777224">
<ele>216.62</ele>
<time>2021-09-07T15:06:42Z</time>
</trkpt>
<trkpt lat="42.4970160" lon="2.6780393">
<ele>216.16</ele>
<time>2021-09-07T15:06:45Z</time>
</trkpt>
<trkpt lat="42.4969335" lon="2.6783909">
<ele>212.79</ele>
<time>2021-09-07T15:06:48Z</time>
</trkpt>
<trkpt lat="42.4968928" lon="2.6786316">
<ele>210.68</ele>
<time>2021-09-07T15:06:50Z</time>
</trkpt>
<trkpt lat="42.4968670" lon="2.6788778">
<ele>209.82</ele>
<time>2021-09-07T15:06:52Z</time>
</trkpt>
<trkpt lat="42.4968024" lon="2.6791156">
<ele>210.22</ele>
<time>2021-09-07T15:06:54Z</time>
</trkpt>
<trkpt lat="42.4967381" lon="2.6793649">
<ele>207.36</ele>
<time>2021-09-07T15:06:57Z</time>
</trkpt>
<trkpt lat="42.4966137" lon="2.6796142">
<ele>207.15</ele>
<time>2021-09-07T15:07:01Z</time>
</trkpt>
<trkpt lat="42.4964828" lon="2.6797951">
<ele>205.91</ele>
<time>2021-09-07T15:07:05Z</time>
</trkpt>
<trkpt lat="42.4963893" lon="2.6800166">
<ele>204.86</ele>
<time>2021-09-07T15:07:10Z</time>
</trkpt>
<trkpt lat="42.4964203" lon="2.6802970">
<ele>202.20</ele>
<time>2021-09-07T15:07:15Z</time>
</trkpt>
<trkpt lat="42.4963951" lon="2.6805665">
<ele>200.21</ele>
<time>2021-09-07T15:07:20Z</time>
</trkpt>
<trkpt lat="42.4963750" lon="2.6808308">
<ele>201.89</ele>
<time>2021-09-07T15:07:25Z</time>
</trkpt>
<trkpt lat="42.4963157" lon="2.6810635">
<ele>204.54</ele>
<time>2021-09-07T15:07:30Z</time>
</trkpt>
<trkpt lat="42.4962969" lon="2.6813263">
<ele>207.83</ele>
<time>2021-09-07T15:07:35Z</time>
</trkpt>
<trkpt lat="42.4963161" lon="2.6815978">
<ele>205.23</ele>
<time>2021-09-07T15:07:40Z</time>
</trkpt>
<trkpt lat="42.4963692" lon="2.6818547">
<ele>204.77</ele>
<time>2021-09-07T15:07:44Z</time>
</trkpt>
<trkpt lat="42.4965030" lon="2.6821117">
<ele>203.62</ele>
<time>2021-09-07T15:07:48Z</time>
</trkpt>
<trkpt lat="42.4965847" lon="2.6823418">
<ele>202.45</ele>
<time>2021-09-07T15:07:51Z</time>
</trkpt>
<trkpt lat="42.4966440" lon="2.6825888">
<ele>202.31</ele>
<time>2021-09-07T15:07:54Z</time>
</trkpt>
<trkpt lat="42.4967429" lon="2.6828518">
<ele>201.44</ele>
<time>2021-09-07T15:07:57Z</time>
</trkpt>
<trkpt lat="42.4968446" lon="2.6831020">
<ele>200.93</ele>
<time>2021-09-07T15:08:00Z</time>
</trkpt>
<trkpt lat="42.4968506" lon="2.6833467">
<ele>201.60</ele>
<time>2021-09-07T15:08:03Z</time>
</trkpt>
<trkpt lat="42.4967408" lon="2.6835550">
<ele>201.75</ele>
<time>2021-09-07T15:08:06Z</time>
</trkpt>
<trkpt lat="42.4966151" lon="2.6837779">
<ele>201.55</ele>
<time>2021-09-07T15:08:10Z</time>
</trkpt>
<trkpt lat="42.4965116" lon="2.6840252">
<ele>200.46</ele>
<time>2021-09-07T15:08:14Z</time>
</trkpt>
<trkpt lat="42.4964006" lon="2.6842563">
<ele>201.52</ele>
<time>2021-09-07T15:08:18Z</time>
</trkpt>
<trkpt lat="42.4963004" lon="2.6845018">
<ele>200.53</ele>
<time>2021-09-07T15:08:23Z</time>
</trkpt>
<trkpt lat="42.4962175" lon="2.6847618">
<ele>201.68</ele>
<time>2021-09-07T15:08:28Z</time>
</trkpt>
<trkpt lat="42.4961712" lon="2.6850247">
<ele>202.47</ele>
<time>2021-09-07T15:08:33Z</time>
</trkpt>
<trkpt lat="42.4961568" lon="2.6852936">
<ele>200.58</ele>
<time>2021-09-07T15:08:38Z</time>
</trkpt>
<trkpt lat="42.4962902" lon="2.6855318">
<ele>198.45</ele>
<time>2021-09-07T15:08:43Z</time>
</trkpt>
<trkpt lat="42.4961970" lon="2.6858040">
<ele>196.22</ele>
<time>2021-09-07T15:08:48Z</time>
</trkpt>
<trkpt lat="42.4961384" lon="2.6861135">
<ele>196.88</ele>
<time>2021-09-07T15:08:52Z</time>
</trkpt>
<trkpt lat="42.4961514" lon="2.6864119">
<ele>196.72</ele>
<time>2021-09-07T15:08:55Z</time>
</trkpt>
<trkpt lat="42.4962357" lon="2.6867105">
<ele>196.87</ele>
<time>2021-09-07T15:08:58Z</time>
</trkpt>
<trkpt lat="42.4963734" lon="2.6869713">
<ele>194.12</ele>
<time>2021-09-07T15:09:01Z</time>
</trkpt>
<trkpt lat="42.4965017" lon="2.6872237">
<ele>195.16</ele>
<time>2021-09-07T15:09:04Z</time>
</trkpt>
<trkpt lat="42.4966198" lon="2.6874241">
<ele>193.49</ele>
<time>2021-09-07T15:09:07Z</time>
</trkpt>
<trkpt lat="42.4965931" lon="2.6876724">
<ele>197.82</ele>
<time>2021-09-07T15:09:13Z</time>
</trkpt>
<trkpt lat="42.4967628" lon="2.6875606">
<ele>193.70</ele>
<time>2021-09-07T15:09:29Z</time>
</trkpt>
<trkpt lat="42.4969563" lon="2.6875193">
<ele>193.17</ele>
<time>2021-09-07T15:09:35Z</time>
</trkpt>
<trkpt lat="42.4971185" lon="2.6876748">
<ele>191.33</ele>
<time>2021-09-07T15:09:40Z</time>
</trkpt>
<trkpt lat="42.4971480" lon="2.6879175">
<ele>191.48</ele>
<time>2021-09-07T15:09:45Z</time>
</trkpt>
<trkpt lat="42.4971707" lon="2.6881703">
<ele>189.42</ele>
<time>2021-09-07T15:09:51Z</time>
</trkpt>
<trkpt lat="42.4971867" lon="2.6884447">
<ele>187.09</ele>
<time>2021-09-07T15:09:58Z</time>
</trkpt>
<trkpt lat="42.4971993" lon="2.6886971">
<ele>188.58</ele>
<time>2021-09-07T15:10:04Z</time>
</trkpt>
<trkpt lat="42.4972283" lon="2.6889416">
<ele>209.36</ele>
<time>2021-09-07T15:10:09Z</time>
</trkpt>
<trkpt lat="42.4972495" lon="2.6891928">
<ele>195.69</ele>
<time>2021-09-07T15:10:14Z</time>
</trkpt>
<trkpt lat="42.4972232" lon="2.6894456">
<ele>195.98</ele>
<time>2021-09-07T15:10:20Z</time>
</trkpt>
<trkpt lat="42.4971891" lon="2.6896899">
<ele>195.29</ele>
<time>2021-09-07T15:10:25Z</time>
</trkpt>
<trkpt lat="42.4971541" lon="2.6899443">
<ele>198.07</ele>
<time>2021-09-07T15:10:31Z</time>
</trkpt>
<trkpt lat="42.4971150" lon="2.6902380">
<ele>198.41</ele>
<time>2021-09-07T15:10:37Z</time>
</trkpt>
<trkpt lat="42.4969983" lon="2.6904718">
<ele>199.32</ele>
<time>2021-09-07T15:10:42Z</time>
</trkpt>
<trkpt lat="42.4968295" lon="2.6905856">
<ele>199.06</ele>
<time>2021-09-07T15:10:46Z</time>
</trkpt>
<trkpt lat="42.4966288" lon="2.6907340">
<ele>199.00</ele>
<time>2021-09-07T15:10:51Z</time>
</trkpt>
<trkpt lat="42.4964176" lon="2.6908514">
<ele>199.21</ele>
<time>2021-09-07T15:10:55Z</time>
</trkpt>
<trkpt lat="42.4962439" lon="2.6909267">
<ele>195.80</ele>
<time>2021-09-07T15:10:58Z</time>
</trkpt>
<trkpt lat="42.4960288" lon="2.6910443">
<ele>194.57</ele>
<time>2021-09-07T15:11:02Z</time>
</trkpt>
<trkpt lat="42.4959056" lon="2.6912640">
<ele>194.73</ele>
<time>2021-09-07T15:11:06Z</time>
</trkpt>
<trkpt lat="42.4958313" lon="2.6915265">
<ele>191.72</ele>
<time>2021-09-07T15:11:10Z</time>
</trkpt>
<trkpt lat="42.4957161" lon="2.6917815">
<ele>190.83</ele>
<time>2021-09-07T15:11:15Z</time>
</trkpt>
<trkpt lat="42.4955711" lon="2.6920320">
<ele>191.17</ele>
<time>2021-09-07T15:11:20Z</time>
</trkpt>
<trkpt lat="42.4954171" lon="2.6921689">
<ele>192.04</ele>
<time>2021-09-07T15:11:24Z</time>
</trkpt>
<trkpt lat="42.4952792" lon="2.6923945">
<ele>191.63</ele>
<time>2021-09-07T15:11:29Z</time>
</trkpt>
<trkpt lat="42.4952456" lon="2.6926589">
<ele>190.91</ele>
<time>2021-09-07T15:11:33Z</time>
</trkpt>
<trkpt lat="42.4952605" lon="2.6929268">
<ele>190.10</ele>
<time>2021-09-07T15:11:37Z</time>
</trkpt>
<trkpt lat="42.4952771" lon="2.6932264">
<ele>192.06</ele>
<time>2021-09-07T15:11:42Z</time>
</trkpt>
<trkpt lat="42.4952589" lon="2.6934986">
<ele>192.77</ele>
<time>2021-09-07T15:11:51Z</time>
</trkpt>
<trkpt lat="42.4953438" lon="2.6937312">
<ele>195.15</ele>
<time>2021-09-07T15:11:59Z</time>
</trkpt>
<trkpt lat="42.4955414" lon="2.6937515">
<ele>198.78</ele>
<time>2021-09-07T15:12:08Z</time>
</trkpt>
<trkpt lat="42.4957450" lon="2.6937965">
<ele>195.74</ele>
<time>2021-09-07T15:12:15Z</time>
</trkpt>
<trkpt lat="42.4959410" lon="2.6938647">
<ele>193.17</ele>
<time>2021-09-07T15:12:23Z</time>
</trkpt>
<trkpt lat="42.4961305" lon="2.6939099">
<ele>194.34</ele>
<time>2021-09-07T15:12:30Z</time>
</trkpt>
<trkpt lat="42.4963261" lon="2.6939218">
<ele>197.94</ele>
<time>2021-09-07T15:12:39Z</time>
</trkpt>
<trkpt lat="42.4964559" lon="2.6937311">
<ele>200.47</ele>
<time>2021-09-07T15:12:46Z</time>
</trkpt>
<trkpt lat="42.4966038" lon="2.6935846">
<ele>200.97</ele>
<time>2021-09-07T15:12:54Z</time>
</trkpt>
<trkpt lat="42.4964192" lon="2.6935132">
<ele>204.82</ele>
<time>2021-09-07T15:13:04Z</time>
</trkpt>
<trkpt lat="42.4962318" lon="2.6935717">
<ele>206.98</ele>
<time>2021-09-07T15:13:12Z</time>
</trkpt>
<trkpt lat="42.4960452" lon="2.6934631">
<ele>208.15</ele>
<time>2021-09-07T15:13:20Z</time>
</trkpt>
<trkpt lat="42.4960748" lon="2.6932188">
<ele>211.18</ele>
<time>2021-09-07T15:13:28Z</time>
</trkpt>
<trkpt lat="42.4961990" lon="2.6930196">
<ele>211.83</ele>
<time>2021-09-07T15:13:36Z</time>
</trkpt>
<trkpt lat="42.4963146" lon="2.6928111">
<ele>216.34</ele>
<time>2021-09-07T15:13:45Z</time>
</trkpt>
<trkpt lat="42.4964973" lon="2.6927433">
<ele>218.07</ele>
<time>2021-09-07T15:13:54Z</time>
</trkpt>
<trkpt lat="42.4966766" lon="2.6926974">
<ele>219.58</ele>
<time>2021-09-07T15:14:01Z</time>
</trkpt>
<trkpt lat="42.4968651" lon="2.6927051">
<ele>221.00</ele>
<time>2021-09-07T15:14:08Z</time>
</trkpt>
<trkpt lat="42.4970603" lon="2.6926817">
<ele>223.50</ele>
<time>2021-09-07T15:14:16Z</time>
</trkpt>
<trkpt lat="42.4972185" lon="2.6925422">
<ele>222.94</ele>
<time>2021-09-07T15:14:25Z</time>
</trkpt>
<trkpt lat="42.4973780" lon="2.6924046">
<ele>222.44</ele>
<time>2021-09-07T15:14:32Z</time>
</trkpt>
<trkpt lat="42.4975480" lon="2.6922556">
<ele>224.45</ele>
<time>2021-09-07T15:14:41Z</time>
</trkpt>
<trkpt lat="42.4973420" lon="2.6922054">
<ele>227.01</ele>
<time>2021-09-07T15:14:55Z</time>
</trkpt>
<trkpt lat="42.4971448" lon="2.6921905">
<ele>230.00</ele>
<time>2021-09-07T15:15:02Z</time>
</trkpt>
<trkpt lat="42.4969397" lon="2.6921851">
<ele>231.54</ele>
<time>2021-09-07T15:15:11Z</time>
</trkpt>
<trkpt lat="42.4967429" lon="2.6921211">
<ele>232.85</ele>
<time>2021-09-07T15:15:19Z</time>
</trkpt>
<trkpt lat="42.4966384" lon="2.6919032">
<ele>234.50</ele>
<time>2021-09-07T15:15:27Z</time>
</trkpt>
<trkpt lat="42.4968148" lon="2.6919820">
<ele>236.82</ele>
<time>2021-09-07T15:15:39Z</time>
</trkpt>
<trkpt lat="42.4970078" lon="2.6919137">
<ele>239.79</ele>
<time>2021-09-07T15:15:47Z</time>
</trkpt>
<trkpt lat="42.4971484" lon="2.6917478">
<ele>242.97</ele>
<time>2021-09-07T15:15:55Z</time>
</trkpt>
<trkpt lat="42.4973416" lon="2.6916647">
<ele>245.24</ele>
<time>2021-09-07T15:16:03Z</time>
</trkpt>
<trkpt lat="42.4975218" lon="2.6916462">
<ele>247.74</ele>
<time>2021-09-07T15:16:10Z</time>
</trkpt>
<trkpt lat="42.4977086" lon="2.6916017">
<ele>249.95</ele>
<time>2021-09-07T15:16:17Z</time>
</trkpt>
<trkpt lat="42.4978899" lon="2.6915100">
<ele>253.27</ele>
<time>2021-09-07T15:16:25Z</time>
</trkpt>
<trkpt lat="42.4980413" lon="2.6913364">
<ele>250.21</ele>
<time>2021-09-07T15:16:34Z</time>
</trkpt>
<trkpt lat="42.4981694" lon="2.6911344">
<ele>248.00</ele>
<time>2021-09-07T15:16:42Z</time>
</trkpt>
<trkpt lat="42.4979925" lon="2.6912375">
<ele>252.62</ele>
<time>2021-09-07T15:17:00Z</time>
</trkpt>
<trkpt lat="42.4977923" lon="2.6912638">
<ele>255.92</ele>
<time>2021-09-07T15:17:08Z</time>
</trkpt>
<trkpt lat="42.4977620" lon="2.6910189">
<ele>257.46</ele>
<time>2021-09-07T15:17:18Z</time>
</trkpt>
<trkpt lat="42.4979034" lon="2.6908534">
<ele>258.76</ele>
<time>2021-09-07T15:17:25Z</time>
</trkpt>
<trkpt lat="42.4980441" lon="2.6906619">
<ele>260.73</ele>
<time>2021-09-07T15:17:33Z</time>
</trkpt>
<trkpt lat="42.4981550" lon="2.6904663">
<ele>262.26</ele>
<time>2021-09-07T15:17:40Z</time>
</trkpt>
<trkpt lat="42.4982973" lon="2.6902732">
<ele>263.86</ele>
<time>2021-09-07T15:17:49Z</time>
</trkpt>
<trkpt lat="42.4984448" lon="2.6901103">
<ele>265.01</ele>
<time>2021-09-07T15:17:59Z</time>
</trkpt>
<trkpt lat="42.4985848" lon="2.6899510">
<ele>265.03</ele>
<time>2021-09-07T15:18:10Z</time>
</trkpt>
<trkpt lat="42.4987636" lon="2.6898341">
<ele>267.61</ele>
<time>2021-09-07T15:18:24Z</time>
</trkpt>
<trkpt lat="42.4989106" lon="2.6896530">
<ele>268.96</ele>
<time>2021-09-07T15:18:34Z</time>
</trkpt>
<trkpt lat="42.4988938" lon="2.6893962">
<ele>270.17</ele>
<time>2021-09-07T15:18:44Z</time>
</trkpt>
<trkpt lat="42.4987099" lon="2.6894339">
<ele>272.39</ele>
<time>2021-09-07T15:18:54Z</time>
</trkpt>
<trkpt lat="42.4986116" lon="2.6892117">
<ele>273.80</ele>
<time>2021-09-07T15:19:02Z</time>
</trkpt>
<trkpt lat="42.4986850" lon="2.6889478">
<ele>273.36</ele>
<time>2021-09-07T15:19:08Z</time>
</trkpt>
<trkpt lat="42.4987562" lon="2.6886750">
<ele>276.75</ele>
<time>2021-09-07T15:19:14Z</time>
</trkpt>
<trkpt lat="42.4989199" lon="2.6884869">
<ele>278.18</ele>
<time>2021-09-07T15:19:19Z</time>
</trkpt>
<trkpt lat="42.4991326" lon="2.6884767">
<ele>279.32</ele>
<time>2021-09-07T15:19:26Z</time>
</trkpt>
<trkpt lat="42.4993207" lon="2.6885796">
<ele>281.14</ele>
<time>2021-09-07T15:19:31Z</time>
</trkpt>
<trkpt lat="42.4995136" lon="2.6885812">
<ele>283.32</ele>
<time>2021-09-07T15:19:35Z</time>
</trkpt>
<trkpt lat="42.4996714" lon="2.6884415">
<ele>284.42</ele>
<time>2021-09-07T15:19:40Z</time>
</trkpt>
<trkpt lat="42.4998380" lon="2.6883241">
<ele>286.05</ele>
<time>2021-09-07T15:19:44Z</time>
</trkpt>
<trkpt lat="42.5000462" lon="2.6882983">
<ele>287.13</ele>
<time>2021-09-07T15:19:50Z</time>
</trkpt>
<trkpt lat="42.5002267" lon="2.6881996">
<ele>287.93</ele>
<time>2021-09-07T15:19:57Z</time>
</trkpt>
<trkpt lat="42.5004091" lon="2.6880708">
<ele>290.56</ele>
<time>2021-09-07T15:20:04Z</time>
</trkpt>
<trkpt lat="42.5005500" lon="2.6879093">
<ele>292.20</ele>
<time>2021-09-07T15:20:11Z</time>
</trkpt>
<trkpt lat="42.5007356" lon="2.6878552">
<ele>293.98</ele>
<time>2021-09-07T15:20:18Z</time>
</trkpt>
<trkpt lat="42.5009168" lon="2.6879773">
<ele>293.87</ele>
<time>2021-09-07T15:20:25Z</time>
</trkpt>
<trkpt lat="42.5010676" lon="2.6881270">
<ele>292.64</ele>
<time>2021-09-07T15:20:32Z</time>
</trkpt>
<trkpt lat="42.5012519" lon="2.6880764">
<ele>296.48</ele>
<time>2021-09-07T15:20:38Z</time>
</trkpt>
<trkpt lat="42.5014318" lon="2.6880193">
<ele>297.98</ele>
<time>2021-09-07T15:20:44Z</time>
</trkpt>
<trkpt lat="42.5013221" lon="2.6878217">
<ele>300.96</ele>
<time>2021-09-07T15:20:55Z</time>
</trkpt>
<trkpt lat="42.5011339" lon="2.6877945">
<ele>303.74</ele>
<time>2021-09-07T15:21:02Z</time>
</trkpt>
<trkpt lat="42.5009742" lon="2.6876530">
<ele>305.33</ele>
<time>2021-09-07T15:21:09Z</time>
</trkpt>
<trkpt lat="42.5008806" lon="2.6874427">
<ele>308.91</ele>
<time>2021-09-07T15:21:16Z</time>
</trkpt>
<trkpt lat="42.5007117" lon="2.6873140">
<ele>309.72</ele>
<time>2021-09-07T15:21:23Z</time>
</trkpt>
<trkpt lat="42.5005324" lon="2.6872534">
<ele>311.00</ele>
<time>2021-09-07T15:21:29Z</time>
</trkpt>
<trkpt lat="42.5003567" lon="2.6871561">
<ele>311.01</ele>
<time>2021-09-07T15:21:35Z</time>
</trkpt>
<trkpt lat="42.5002282" lon="2.6869719">
<ele>311.60</ele>
<time>2021-09-07T15:21:43Z</time>
</trkpt>
<trkpt lat="42.5004204" lon="2.6869566">
<ele>312.41</ele>
<time>2021-09-07T15:21:52Z</time>
</trkpt>
<trkpt lat="42.5005872" lon="2.6870660">
<ele>313.45</ele>
<time>2021-09-07T15:21:59Z</time>
</trkpt>
<trkpt lat="42.5007765" lon="2.6870528">
<ele>315.23</ele>
<time>2021-09-07T15:22:06Z</time>
</trkpt>
<trkpt lat="42.5009664" lon="2.6869834">
<ele>316.67</ele>
<time>2021-09-07T15:22:14Z</time>
</trkpt>
<trkpt lat="42.5011607" lon="2.6869552">
<ele>319.15</ele>
<time>2021-09-07T15:22:21Z</time>
</trkpt>
<trkpt lat="42.5013370" lon="2.6870632">
<ele>320.47</ele>
<time>2021-09-07T15:22:28Z</time>
</trkpt>
<trkpt lat="42.5015443" lon="2.6870980">
<ele>319.46</ele>
<time>2021-09-07T15:22:39Z</time>
</trkpt>
<trkpt lat="42.5017185" lon="2.6871868">
<ele>318.56</ele>
<time>2021-09-07T15:22:45Z</time>
</trkpt>
<trkpt lat="42.5018742" lon="2.6873712">
<ele>319.84</ele>
<time>2021-09-07T15:22:52Z</time>
</trkpt>
<trkpt lat="42.5020289" lon="2.6875270">
<ele>322.90</ele>
<time>2021-09-07T15:22:59Z</time>
</trkpt>
<trkpt lat="42.5019605" lon="2.6872860">
<ele>325.57</ele>
<time>2021-09-07T15:23:08Z</time>
</trkpt>
<trkpt lat="42.5018144" lon="2.6871298">
<ele>325.73</ele>
<time>2021-09-07T15:23:17Z</time>
</trkpt>
<trkpt lat="42.5016461" lon="2.6870187">
<ele>328.42</ele>
<time>2021-09-07T15:23:50Z</time>
</trkpt>
<trkpt lat="42.5014858" lon="2.6868546">
<ele>328.61</ele>
<time>2021-09-07T15:23:56Z</time>
</trkpt>
<trkpt lat="42.5012894" lon="2.6867623">
<ele>329.38</ele>
<time>2021-09-07T15:24:05Z</time>
</trkpt>
<trkpt lat="42.5011171" lon="2.6866822">
<ele>334.81</ele>
<time>2021-09-07T15:26:05Z</time>
</trkpt>
<trkpt lat="42.5009322" lon="2.6865984">
<ele>337.41</ele>
<time>2021-09-07T15:26:12Z</time>
</trkpt>
<trkpt lat="42.5007558" lon="2.6865327">
<ele>337.63</ele>
<time>2021-09-07T15:26:20Z</time>
</trkpt>
<trkpt lat="42.5005673" lon="2.6864363">
<ele>334.74</ele>
<time>2021-09-07T15:26:28Z</time>
</trkpt>
<trkpt lat="42.5004993" lon="2.6861858">
<ele>337.23</ele>
<time>2021-09-07T15:26:36Z</time>
</trkpt>
<trkpt lat="42.5004597" lon="2.6859380">
<ele>339.31</ele>
<time>2021-09-07T15:26:44Z</time>
</trkpt>
<trkpt lat="42.5004468" lon="2.6856762">
<ele>341.42</ele>
<time>2021-09-07T15:26:52Z</time>
</trkpt>
<trkpt lat="42.5004846" lon="2.6854092">
<ele>345.59</ele>
<time>2021-09-07T15:26:59Z</time>
</trkpt>
<trkpt lat="42.5004534" lon="2.6851557">
<ele>346.62</ele>
<time>2021-09-07T15:27:06Z</time>
</trkpt>
<trkpt lat="42.5003333" lon="2.6849515">
<ele>344.56</ele>
<time>2021-09-07T15:27:13Z</time>
</trkpt>
<trkpt lat="42.5001499" lon="2.6848430">
<ele>344.98</ele>
<time>2021-09-07T15:27:20Z</time>
</trkpt>
<trkpt lat="42.4999947" lon="2.6846885">
<ele>344.13</ele>
<time>2021-09-07T15:27:27Z</time>
</trkpt>
<trkpt lat="42.4998566" lon="2.6845122">
<ele>346.27</ele>
<time>2021-09-07T15:27:34Z</time>
</trkpt>
<trkpt lat="42.4998307" lon="2.6842457">
<ele>349.19</ele>
<time>2021-09-07T15:27:42Z</time>
</trkpt>
<trkpt lat="42.4999705" lon="2.6840842">
<ele>350.73</ele>
<time>2021-09-07T15:27:49Z</time>
</trkpt>
<trkpt lat="42.5001572" lon="2.6840297">
<ele>351.10</ele>
<time>2021-09-07T15:27:56Z</time>
</trkpt>
<trkpt lat="42.5003574" lon="2.6840576">
<ele>353.70</ele>
<time>2021-09-07T15:28:04Z</time>
</trkpt>
<trkpt lat="42.5005413" lon="2.6840706">
<ele>356.42</ele>
<time>2021-09-07T15:28:11Z</time>
</trkpt>
<trkpt lat="42.5007446" lon="2.6840740">
<ele>356.15</ele>
<time>2021-09-07T15:28:19Z</time>
</trkpt>
<trkpt lat="42.5009306" lon="2.6841699">
<ele>358.26</ele>
<time>2021-09-07T15:28:27Z</time>
</trkpt>
<trkpt lat="42.5010921" lon="2.6843132">
<ele>360.81</ele>
<time>2021-09-07T15:28:35Z</time>
</trkpt>
<trkpt lat="42.5012729" lon="2.6842930">
<ele>363.19</ele>
<time>2021-09-07T15:28:42Z</time>
</trkpt>
<trkpt lat="42.5014705" lon="2.6842722">
<ele>363.42</ele>
<time>2021-09-07T15:28:50Z</time>
</trkpt>
<trkpt lat="42.5016262" lon="2.6841258">
<ele>362.01</ele>
<time>2021-09-07T15:28:57Z</time>
</trkpt>
<trkpt lat="42.5017945" lon="2.6839821">
<ele>364.95</ele>
<time>2021-09-07T15:29:04Z</time>
</trkpt>
<trkpt lat="42.5019912" lon="2.6840037">
<ele>366.33</ele>
<time>2021-09-07T15:29:11Z</time>
</trkpt>
<trkpt lat="42.5021823" lon="2.6838935">
<ele>364.98</ele>
<time>2021-09-07T15:29:18Z</time>
</trkpt>
<trkpt lat="42.5023474" lon="2.6837910">
<ele>368.65</ele>
<time>2021-09-07T15:29:25Z</time>
</trkpt>
<trkpt lat="42.5025344" lon="2.6837625">
<ele>368.92</ele>
<time>2021-09-07T15:29:32Z</time>
</trkpt>
<trkpt lat="42.5023771" lon="2.6838949">
<ele>375.31</ele>
<time>2021-09-07T15:29:48Z</time>
</trkpt>
<trkpt lat="42.5022438" lon="2.6840925">
<ele>375.82</ele>
<time>2021-09-07T15:29:54Z</time>
</trkpt>
<trkpt lat="42.5021509" lon="2.6843046">
<ele>379.67</ele>
<time>2021-09-07T15:30:00Z</time>
</trkpt>
<trkpt lat="42.5019983" lon="2.6844415">
<ele>387.85</ele>
<time>2021-09-07T15:30:07Z</time>
</trkpt>
<trkpt lat="42.5018338" lon="2.6845881">
<ele>388.25</ele>
<time>2021-09-07T15:30:13Z</time>
</trkpt>
<trkpt lat="42.5016718" lon="2.6847446">
<ele>387.95</ele>
<time>2021-09-07T15:30:19Z</time>
</trkpt>
<trkpt lat="42.5015219" lon="2.6848999">
<ele>389.48</ele>
<time>2021-09-07T15:30:25Z</time>
</trkpt>
<trkpt lat="42.5014098" lon="2.6851313">
<ele>390.53</ele>
<time>2021-09-07T15:30:31Z</time>
</trkpt>
<trkpt lat="42.5013144" lon="2.6853650">
<ele>388.17</ele>
<time>2021-09-07T15:30:37Z</time>
</trkpt>
<trkpt lat="42.5013539" lon="2.6856100">
<ele>388.63</ele>
<time>2021-09-07T15:30:44Z</time>
</trkpt>
<trkpt lat="42.5014160" lon="2.6853519">
<ele>389.48</ele>
<time>2021-09-07T15:30:51Z</time>
</trkpt>
<trkpt lat="42.5015669" lon="2.6851623">
<ele>391.30</ele>
<time>2021-09-07T15:30:58Z</time>
</trkpt>
<trkpt lat="42.5017561" lon="2.6850947">
<ele>390.94</ele>
<time>2021-09-07T15:31:05Z</time>
</trkpt>
<trkpt lat="42.5019336" lon="2.6850536">
<ele>394.86</ele>
<time>2021-09-07T15:31:12Z</time>
</trkpt>
<trkpt lat="42.5021206" lon="2.6850144">
<ele>397.52</ele>
<time>2021-09-07T15:31:19Z</time>
</trkpt>
<trkpt lat="42.5023065" lon="2.6849747">
<ele>396.53</ele>
<time>2021-09-07T15:31:26Z</time>
</trkpt>
<trkpt lat="42.5024721" lon="2.6850760">
<ele>398.85</ele>
<time>2021-09-07T15:31:33Z</time>
</trkpt>
<trkpt lat="42.5026696" lon="2.6851421">
<ele>397.53</ele>
<time>2021-09-07T15:31:41Z</time>
</trkpt>
<trkpt lat="42.5028614" lon="2.6850799">
<ele>399.61</ele>
<time>2021-09-07T15:31:48Z</time>
</trkpt>
<trkpt lat="42.5030404" lon="2.6849710">
<ele>400.00</ele>
<time>2021-09-07T15:31:56Z</time>
</trkpt>
<trkpt lat="42.5032267" lon="2.6849901">
<ele>398.86</ele>
<time>2021-09-07T15:32:03Z</time>
</trkpt>
<trkpt lat="42.5034127" lon="2.6849209">
<ele>399.06</ele>
<time>2021-09-07T15:32:09Z</time>
</trkpt>
<trkpt lat="42.5036017" lon="2.6848165">
<ele>398.68</ele>
<time>2021-09-07T15:32:15Z</time>
</trkpt>
<trkpt lat="42.5037734" lon="2.6846844">
<ele>403.41</ele>
<time>2021-09-07T15:32:21Z</time>
</trkpt>
<trkpt lat="42.5039399" lon="2.6845524">
<ele>405.50</ele>
<time>2021-09-07T15:32:26Z</time>
</trkpt>
<trkpt lat="42.5040937" lon="2.6844117">
<ele>406.49</ele>
<time>2021-09-07T15:32:31Z</time>
</trkpt>
<trkpt lat="42.5042662" lon="2.6842650">
<ele>407.39</ele>
<time>2021-09-07T15:32:37Z</time>
</trkpt>
<trkpt lat="42.5043765" lon="2.6840713">
<ele>407.97</ele>
<time>2021-09-07T15:32:42Z</time>
</trkpt>
<trkpt lat="42.5044053" lon="2.6838109">
<ele>412.17</ele>
<time>2021-09-07T15:32:47Z</time>
</trkpt>
<trkpt lat="42.5044400" lon="2.6835460">
<ele>412.31</ele>
<time>2021-09-07T15:32:53Z</time>
</trkpt>
<trkpt lat="42.5045216" lon="2.6833073">
<ele>414.82</ele>
<time>2021-09-07T15:32:59Z</time>
</trkpt>
<trkpt lat="42.5045323" lon="2.6830200">
<ele>416.56</ele>
<time>2021-09-07T15:33:05Z</time>
</trkpt>
<trkpt lat="42.5045673" lon="2.6827684">
<ele>418.62</ele>
<time>2021-09-07T15:33:11Z</time>
</trkpt>
<trkpt lat="42.5046235" lon="2.6824962">
<ele>418.83</ele>
<time>2021-09-07T15:33:18Z</time>
</trkpt>
<trkpt lat="42.5046926" lon="2.6822585">
<ele>420.29</ele>
<time>2021-09-07T15:33:25Z</time>
</trkpt>
<trkpt lat="42.5048570" lon="2.6821292">
<ele>420.74</ele>
<time>2021-09-07T15:33:32Z</time>
</trkpt>
<trkpt lat="42.5049746" lon="2.6819434">
<ele>425.86</ele>
<time>2021-09-07T15:33:38Z</time>
</trkpt>
<trkpt lat="42.5050210" lon="2.6817039">
<ele>426.87</ele>
<time>2021-09-07T15:33:44Z</time>
</trkpt>
<trkpt lat="42.5051043" lon="2.6814482">
<ele>426.88</ele>
<time>2021-09-07T15:33:51Z</time>
</trkpt>
<trkpt lat="42.5051376" lon="2.6811931">
<ele>428.84</ele>
<time>2021-09-07T15:33:57Z</time>
</trkpt>
<trkpt lat="42.5052157" lon="2.6809654">
<ele>431.41</ele>
<time>2021-09-07T15:34:03Z</time>
</trkpt>
<trkpt lat="42.5053256" lon="2.6807640">
<ele>429.73</ele>
<time>2021-09-07T15:34:09Z</time>
</trkpt>
<trkpt lat="42.5053876" lon="2.6805340">
<ele>427.80</ele>
<time>2021-09-07T15:34:15Z</time>
</trkpt>
<trkpt lat="42.5055541" lon="2.6803963">
<ele>429.48</ele>
<time>2021-09-07T15:34:21Z</time>
</trkpt>
<trkpt lat="42.5057398" lon="2.6803025">
<ele>429.85</ele>
<time>2021-09-07T15:34:27Z</time>
</trkpt>
<trkpt lat="42.5058930" lon="2.6801692">
<ele>425.85</ele>
<time>2021-09-07T15:34:32Z</time>
</trkpt>
<trkpt lat="42.5060760" lon="2.6801540">
<ele>424.28</ele>
<time>2021-09-07T15:34:37Z</time>
</trkpt>
<trkpt lat="42.5062889" lon="2.6801421">
<ele>427.37</ele>
<time>2021-09-07T15:34:43Z</time>
</trkpt>
<trkpt lat="42.5064948" lon="2.6801254">
<ele>426.52</ele>
<time>2021-09-07T15:34:49Z</time>
</trkpt>
<trkpt lat="42.5066957" lon="2.6801323">
<ele>427.76</ele>
<time>2021-09-07T15:34:55Z</time>
</trkpt>
<trkpt lat="42.5068616" lon="2.6800164">
<ele>428.81</ele>
<time>2021-09-07T15:35:01Z</time>
</trkpt>
<trkpt lat="42.5067156" lon="2.6798691">
<ele>432.71</ele>
<time>2021-09-07T15:35:06Z</time>
</trkpt>
<trkpt lat="42.5065865" lon="2.6796649">
<ele>430.53</ele>
<time>2021-09-07T15:35:12Z</time>
</trkpt>
<trkpt lat="42.5065940" lon="2.6794124">
<ele>431.99</ele>
<time>2021-09-07T15:35:19Z</time>
</trkpt>
<trkpt lat="42.5066914" lon="2.6796356">
<ele>436.88</ele>
<time>2021-09-07T15:35:36Z</time>
</trkpt>
<trkpt lat="42.5068488" lon="2.6797962">
<ele>435.40</ele>
<time>2021-09-07T15:35:43Z</time>
</trkpt>
<trkpt lat="42.5070402" lon="2.6799020">
<ele>439.19</ele>
<time>2021-09-07T15:35:49Z</time>
</trkpt>
<trkpt lat="42.5071556" lon="2.6800972">
<ele>440.97</ele>
<time>2021-09-07T15:35:55Z</time>
</trkpt>
<trkpt lat="42.5069492" lon="2.6801492">
<ele>442.81</ele>
<time>2021-09-07T15:36:01Z</time>
</trkpt>
<trkpt lat="42.5067660" lon="2.6802239">
<ele>442.27</ele>
<time>2021-09-07T15:36:06Z</time>
</trkpt>
<trkpt lat="42.5065800" lon="2.6803298">
<ele>443.90</ele>
<time>2021-09-07T15:36:11Z</time>
</trkpt>
<trkpt lat="42.5064016" lon="2.6804562">
<ele>444.44</ele>
<time>2021-09-07T15:36:16Z</time>
</trkpt>
<trkpt lat="42.5062880" lon="2.6806792">
<ele>445.59</ele>
<time>2021-09-07T15:36:21Z</time>
</trkpt>
<trkpt lat="42.5061962" lon="2.6809143">
<ele>446.74</ele>
<time>2021-09-07T15:36:26Z</time>
</trkpt>
<trkpt lat="42.5061463" lon="2.6811824">
<ele>449.22</ele>
<time>2021-09-07T15:36:32Z</time>
</trkpt>
<trkpt lat="42.5060645" lon="2.6814030">
<ele>449.36</ele>
<time>2021-09-07T15:36:40Z</time>
</trkpt>
<trkpt lat="42.5059616" lon="2.6816035">
<ele>450.26</ele>
<time>2021-09-07T15:36:46Z</time>
</trkpt>
<trkpt lat="42.5058743" lon="2.6818608">
<ele>451.79</ele>
<time>2021-09-07T15:36:53Z</time>
</trkpt>
<trkpt lat="42.5058718" lon="2.6821317">
<ele>451.14</ele>
<time>2021-09-07T15:37:00Z</time>
</trkpt>
<trkpt lat="42.5059370" lon="2.6823676">
<ele>452.23</ele>
<time>2021-09-07T15:37:06Z</time>
</trkpt>
<trkpt lat="42.5058707" lon="2.6826213">
<ele>453.94</ele>
<time>2021-09-07T15:37:13Z</time>
</trkpt>
<trkpt lat="42.5057278" lon="2.6827705">
<ele>460.98</ele>
<time>2021-09-07T15:37:42Z</time>
</trkpt>
<trkpt lat="42.5055523" lon="2.6828937">
<ele>462.31</ele>
<time>2021-09-07T15:39:01Z</time>
</trkpt>
<trkpt lat="42.5054724" lon="2.6831531">
<ele>462.48</ele>
<time>2021-09-07T15:39:08Z</time>
</trkpt>
<trkpt lat="42.5054744" lon="2.6833994">
<ele>461.88</ele>
<time>2021-09-07T15:39:14Z</time>
</trkpt>
<trkpt lat="42.5055182" lon="2.6836527">
<ele>459.97</ele>
<time>2021-09-07T15:39:20Z</time>
</trkpt>
<trkpt lat="42.5056384" lon="2.6838773">
<ele>457.31</ele>
<time>2021-09-07T15:39:27Z</time>
</trkpt>
<trkpt lat="42.5057661" lon="2.6840823">
<ele>457.54</ele>
<time>2021-09-07T15:39:33Z</time>
</trkpt>
<trkpt lat="42.5059195" lon="2.6842621">
<ele>460.61</ele>
<time>2021-09-07T15:39:39Z</time>
</trkpt>
<trkpt lat="42.5060912" lon="2.6843407">
<ele>460.91</ele>
<time>2021-09-07T15:39:44Z</time>
</trkpt>
<trkpt lat="42.5062345" lon="2.6845574">
<ele>461.82</ele>
<time>2021-09-07T15:39:50Z</time>
</trkpt>
<trkpt lat="42.5063857" lon="2.6847081">
<ele>464.02</ele>
<time>2021-09-07T15:39:55Z</time>
</trkpt>
<trkpt lat="42.5065820" lon="2.6847998">
<ele>464.34</ele>
<time>2021-09-07T15:40:01Z</time>
</trkpt>
<trkpt lat="42.5067850" lon="2.6847882">
<ele>466.32</ele>
<time>2021-09-07T15:40:08Z</time>
</trkpt>
<trkpt lat="42.5069762" lon="2.6848699">
<ele>471.03</ele>
<time>2021-09-07T15:40:14Z</time>
</trkpt>
<trkpt lat="42.5071333" lon="2.6849947">
<ele>471.59</ele>
<time>2021-09-07T15:40:19Z</time>
</trkpt>
<trkpt lat="42.5073028" lon="2.6851410">
<ele>473.75</ele>
<time>2021-09-07T15:40:24Z</time>
</trkpt>
<trkpt lat="42.5071842" lon="2.6853614">
<ele>473.87</ele>
<time>2021-09-07T15:40:30Z</time>
</trkpt>
<trkpt lat="42.5071833" lon="2.6856243">
<ele>475.19</ele>
<time>2021-09-07T15:40:37Z</time>
</trkpt>
<trkpt lat="42.5072824" lon="2.6858645">
<ele>474.22</ele>
<time>2021-09-07T15:41:02Z</time>
</trkpt>
<trkpt lat="42.5073539" lon="2.6861070">
<ele>475.07</ele>
<time>2021-09-07T15:41:08Z</time>
</trkpt>
<trkpt lat="42.5074659" lon="2.6863263">
<ele>476.01</ele>
<time>2021-09-07T15:41:14Z</time>
</trkpt>
<trkpt lat="42.5076446" lon="2.6864198">
<ele>476.77</ele>
<time>2021-09-07T15:41:20Z</time>
</trkpt>
<trkpt lat="42.5078417" lon="2.6864130">
<ele>476.27</ele>
<time>2021-09-07T15:41:26Z</time>
</trkpt>
<trkpt lat="42.5080299" lon="2.6863636">
<ele>477.51</ele>
<time>2021-09-07T15:41:31Z</time>
</trkpt>
<trkpt lat="42.5082233" lon="2.6863314">
<ele>478.53</ele>
<time>2021-09-07T15:41:36Z</time>
</trkpt>
<trkpt lat="42.5084280" lon="2.6862883">
<ele>477.28</ele>
<time>2021-09-07T15:41:41Z</time>
</trkpt>
<trkpt lat="42.5086418" lon="2.6862238">
<ele>479.81</ele>
<time>2021-09-07T15:41:46Z</time>
</trkpt>
<trkpt lat="42.5088556" lon="2.6861991">
<ele>480.54</ele>
<time>2021-09-07T15:41:50Z</time>
</trkpt>
<trkpt lat="42.5089666" lon="2.6864439">
<ele>482.08</ele>
<time>2021-09-07T15:41:54Z</time>
</trkpt>
<trkpt lat="42.5090417" lon="2.6866723">
<ele>479.45</ele>
<time>2021-09-07T15:41:58Z</time>
</trkpt>
<trkpt lat="42.5090304" lon="2.6869465">
<ele>480.41</ele>
<time>2021-09-07T15:42:02Z</time>
</trkpt>
<trkpt lat="42.5090455" lon="2.6872075">
<ele>482.62</ele>
<time>2021-09-07T15:42:06Z</time>
</trkpt>
<trkpt lat="42.5090510" lon="2.6874810">
<ele>482.60</ele>
<time>2021-09-07T15:42:10Z</time>
</trkpt>
<trkpt lat="42.5091276" lon="2.6877644">
<ele>482.73</ele>
<time>2021-09-07T15:42:14Z</time>
</trkpt>
<trkpt lat="42.5092174" lon="2.6880224">
<ele>482.51</ele>
<time>2021-09-07T15:42:18Z</time>
</trkpt>
<trkpt lat="42.5091578" lon="2.6882897">
<ele>483.95</ele>
<time>2021-09-07T15:42:22Z</time>
</trkpt>
<trkpt lat="42.5089938" lon="2.6884403">
<ele>484.96</ele>
<time>2021-09-07T15:42:26Z</time>
</trkpt>
<trkpt lat="42.5088646" lon="2.6886248">
<ele>484.16</ele>
<time>2021-09-07T15:42:30Z</time>
</trkpt>
<trkpt lat="42.5087542" lon="2.6888421">
<ele>484.17</ele>
<time>2021-09-07T15:42:34Z</time>
</trkpt>
<trkpt lat="42.5086626" lon="2.6890796">
<ele>483.79</ele>
<time>2021-09-07T15:42:38Z</time>
</trkpt>
<trkpt lat="42.5086947" lon="2.6893278">
<ele>483.79</ele>
<time>2021-09-07T15:42:42Z</time>
</trkpt>
<trkpt lat="42.5088095" lon="2.6895176">
<ele>483.05</ele>
<time>2021-09-07T15:42:46Z</time>
</trkpt>
<trkpt lat="42.5089636" lon="2.6896610">
<ele>483.00</ele>
<time>2021-09-07T15:42:50Z</time>
</trkpt>
<trkpt lat="42.5091246" lon="2.6897840">
<ele>482.61</ele>
<time>2021-09-07T15:42:54Z</time>
</trkpt>
<trkpt lat="42.5091930" lon="2.6900154">
<ele>482.83</ele>
<time>2021-09-07T15:42:58Z</time>
</trkpt>
<trkpt lat="42.5090843" lon="2.6902638">
<ele>483.39</ele>
<time>2021-09-07T15:43:03Z</time>
</trkpt>
<trkpt lat="42.5089475" lon="2.6904559">
<ele>483.94</ele>
<time>2021-09-07T15:43:08Z</time>
</trkpt>
<trkpt lat="42.5089706" lon="2.6907225">
<ele>485.24</ele>
<time>2021-09-07T15:43:13Z</time>
</trkpt>
<trkpt lat="42.5090864" lon="2.6909753">
<ele>485.36</ele>
<time>2021-09-07T15:43:18Z</time>
</trkpt>
<trkpt lat="42.5091031" lon="2.6912359">
<ele>484.34</ele>
<time>2021-09-07T15:43:22Z</time>
</trkpt>
<trkpt lat="42.5089706" lon="2.6914360">
<ele>484.34</ele>
<time>2021-09-07T15:43:26Z</time>
</trkpt>
<trkpt lat="42.5088416" lon="2.6916201">
<ele>484.45</ele>
<time>2021-09-07T15:43:30Z</time>
</trkpt>
<trkpt lat="42.5086891" lon="2.6918144">
<ele>484.56</ele>
<time>2021-09-07T15:43:35Z</time>
</trkpt>
<trkpt lat="42.5085546" lon="2.6920183">
<ele>484.16</ele>
<time>2021-09-07T15:43:40Z</time>
</trkpt>
<trkpt lat="42.5085192" lon="2.6922654">
<ele>484.66</ele>
<time>2021-09-07T15:43:50Z</time>
</trkpt>
<trkpt lat="42.5083371" lon="2.6922324">
<ele>485.30</ele>
<time>2021-09-07T15:48:25Z</time>
</trkpt>
<trkpt lat="42.5081716" lon="2.6923958">
<ele>480.29</ele>
<time>2021-09-07T15:48:32Z</time>
</trkpt>
<trkpt lat="42.5080349" lon="2.6925891">
<ele>478.18</ele>
<time>2021-09-07T15:48:40Z</time>
</trkpt>
<trkpt lat="42.5078787" lon="2.6927608">
<ele>482.50</ele>
<time>2021-09-07T15:48:49Z</time>
</trkpt>
<trkpt lat="42.5077514" lon="2.6929500">
<ele>480.31</ele>
<time>2021-09-07T15:48:54Z</time>
</trkpt>
<trkpt lat="42.5075996" lon="2.6931431">
<ele>480.87</ele>
<time>2021-09-07T15:48:59Z</time>
</trkpt>
<trkpt lat="42.5074244" lon="2.6932604">
<ele>479.44</ele>
<time>2021-09-07T15:49:04Z</time>
</trkpt>
<trkpt lat="42.5072830" lon="2.6934134">
<ele>491.40</ele>
<time>2021-09-07T15:49:11Z</time>
</trkpt>
<trkpt lat="42.5071759" lon="2.6936179">
<ele>495.55</ele>
<time>2021-09-07T15:49:19Z</time>
</trkpt>
<trkpt lat="42.5070438" lon="2.6937850">
<ele>493.60</ele>
<time>2021-09-07T15:49:27Z</time>
</trkpt>
<trkpt lat="42.5068736" lon="2.6938709">
<ele>492.05</ele>
<time>2021-09-07T15:49:41Z</time>
</trkpt>
<trkpt lat="42.5067411" lon="2.6940698">
<ele>491.46</ele>
<time>2021-09-07T15:49:47Z</time>
</trkpt>
<trkpt lat="42.5065910" lon="2.6942550">
<ele>486.32</ele>
<time>2021-09-07T15:50:00Z</time>
</trkpt>
<trkpt lat="42.5064085" lon="2.6944198">
<ele>480.96</ele>
<time>2021-09-07T15:50:06Z</time>
</trkpt>
<trkpt lat="42.5062382" lon="2.6946017">
<ele>480.61</ele>
<time>2021-09-07T15:50:10Z</time>
</trkpt>
<trkpt lat="42.5060329" lon="2.6950326">
<ele>480.74</ele>
<time>2021-09-07T15:50:13Z</time>
</trkpt>
<trkpt lat="42.5059677" lon="2.6953086">
<ele>479.29</ele>
<time>2021-09-07T15:50:16Z</time>
</trkpt>
<trkpt lat="42.5058217" lon="2.6954999">
<ele>472.25</ele>
<time>2021-09-07T15:50:26Z</time>
</trkpt>
<trkpt lat="42.5057113" lon="2.6956966">
<ele>470.45</ele>
<time>2021-09-07T15:50:33Z</time>
</trkpt>
<trkpt lat="42.5054905" lon="2.6960911">
<ele>466.79</ele>
<time>2021-09-07T15:50:35Z</time>
</trkpt>
<trkpt lat="42.5053741" lon="2.6962898">
<ele>462.58</ele>
<time>2021-09-07T15:50:40Z</time>
</trkpt>
<trkpt lat="42.5052551" lon="2.6965382">
<ele>459.90</ele>
<time>2021-09-07T15:50:47Z</time>
</trkpt>
<trkpt lat="42.5051516" lon="2.6967730">
<ele>457.32</ele>
<time>2021-09-07T15:50:49Z</time>
</trkpt>
<trkpt lat="42.5050432" lon="2.6969739">
<ele>451.50</ele>
<time>2021-09-07T15:50:54Z</time>
</trkpt>
<trkpt lat="42.5049729" lon="2.6972150">
<ele>446.42</ele>
<time>2021-09-07T15:51:15Z</time>
</trkpt>
<trkpt lat="42.5048970" lon="2.6974701">
<ele>441.93</ele>
<time>2021-09-07T15:51:19Z</time>
</trkpt>
<trkpt lat="42.5047985" lon="2.6978056">
<ele>439.23</ele>
<time>2021-09-07T15:51:22Z</time>
</trkpt>
<trkpt lat="42.5046189" lon="2.6979863">
<ele>438.39</ele>
<time>2021-09-07T15:51:25Z</time>
</trkpt>
<trkpt lat="42.5044153" lon="2.6980724">
<ele>434.31</ele>
<time>2021-09-07T15:51:29Z</time>
</trkpt>
<trkpt lat="42.5042994" lon="2.6983354">
<ele>433.45</ele>
<time>2021-09-07T15:51:33Z</time>
</trkpt>
<trkpt lat="42.5042465" lon="2.6985823">
<ele>423.49</ele>
<time>2021-09-07T15:51:41Z</time>
</trkpt>
<trkpt lat="42.5041772" lon="2.6988300">
<ele>411.82</ele>
<time>2021-09-07T15:54:35Z</time>
</trkpt>
<trkpt lat="42.5040904" lon="2.6990616">
<ele>411.13</ele>
<time>2021-09-07T15:54:42Z</time>
</trkpt>
<trkpt lat="42.5039049" lon="2.6993521">
<ele>408.99</ele>
<time>2021-09-07T15:54:47Z</time>
</trkpt>
<trkpt lat="42.5038070" lon="2.6996110">
<ele>405.61</ele>
<time>2021-09-07T15:54:51Z</time>
</trkpt>
<trkpt lat="42.5036875" lon="2.6998241">
<ele>404.08</ele>
<time>2021-09-07T15:54:55Z</time>
</trkpt>
<trkpt lat="42.5036161" lon="2.7000532">
<ele>402.12</ele>
<time>2021-09-07T15:55:00Z</time>
</trkpt>
<trkpt lat="42.5035635" lon="2.7003183">
<ele>397.00</ele>
<time>2021-09-07T15:55:04Z</time>
</trkpt>
<trkpt lat="42.5035407" lon="2.7006116">
<ele>392.89</ele>
<time>2021-09-07T15:55:08Z</time>
</trkpt>
<trkpt lat="42.5035140" lon="2.7008592">
<ele>389.14</ele>
<time>2021-09-07T15:55:14Z</time>
</trkpt>
<trkpt lat="42.5034984" lon="2.7011061">
<ele>384.10</ele>
<time>2021-09-07T15:55:20Z</time>
</trkpt>
<trkpt lat="42.5034750" lon="2.7014120">
<ele>378.39</ele>
<time>2021-09-07T15:55:26Z</time>
</trkpt>
<trkpt lat="42.5035761" lon="2.7016544">
<ele>374.00</ele>
<time>2021-09-07T15:55:30Z</time>
</trkpt>
<trkpt lat="42.5037009" lon="2.7018627">
<ele>370.77</ele>
<time>2021-09-07T15:55:34Z</time>
</trkpt>
<trkpt lat="42.5036175" lon="2.7020823">
<ele>367.34</ele>
<time>2021-09-07T15:55:39Z</time>
</trkpt>
<trkpt lat="42.5035120" lon="2.7022924">
<ele>363.84</ele>
<time>2021-09-07T15:55:45Z</time>
</trkpt>
<trkpt lat="42.5034572" lon="2.7025326">
<ele>352.57</ele>
<time>2021-09-07T15:55:53Z</time>
</trkpt>
<trkpt lat="42.5034602" lon="2.7027773">
<ele>347.69</ele>
<time>2021-09-07T15:56:00Z</time>
</trkpt>
<trkpt lat="42.5035559" lon="2.7030082">
<ele>337.08</ele>
<time>2021-09-07T15:56:08Z</time>
</trkpt>
<trkpt lat="42.5036493" lon="2.7032592">
<ele>330.73</ele>
<time>2021-09-07T15:56:19Z</time>
</trkpt>
<trkpt lat="42.5037233" lon="2.7034950">
<ele>325.70</ele>
<time>2021-09-07T15:56:24Z</time>
</trkpt>
<trkpt lat="42.5037605" lon="2.7037522">
<ele>324.07</ele>
<time>2021-09-07T15:56:28Z</time>
</trkpt>
<trkpt lat="42.5038367" lon="2.7040240">
<ele>322.20</ele>
<time>2021-09-07T15:56:33Z</time>
</trkpt>
<trkpt lat="42.5039313" lon="2.7042401">
<ele>315.49</ele>
<time>2021-09-07T15:56:56Z</time>
</trkpt>
<trkpt lat="42.5040134" lon="2.7045206">
<ele>313.60</ele>
<time>2021-09-07T15:57:01Z</time>
</trkpt>
<trkpt lat="42.5040765" lon="2.7047548">
<ele>309.90</ele>
<time>2021-09-07T15:57:04Z</time>
</trkpt>
<trkpt lat="42.5040914" lon="2.7050132">
<ele>307.48</ele>
<time>2021-09-07T15:57:07Z</time>
</trkpt>
<trkpt lat="42.5041207" lon="2.7053398">
<ele>304.13</ele>
<time>2021-09-07T15:57:11Z</time>
</trkpt>
<trkpt lat="42.5041348" lon="2.7056246">
<ele>301.18</ele>
<time>2021-09-07T15:57:14Z</time>
</trkpt>
<trkpt lat="42.5042044" lon="2.7059345">
<ele>300.87</ele>
<time>2021-09-07T15:57:17Z</time>
</trkpt>
<trkpt lat="42.5042503" lon="2.7062571">
<ele>298.59</ele>
<time>2021-09-07T15:57:20Z</time>
</trkpt>
<trkpt lat="42.5042671" lon="2.7065732">
<ele>297.47</ele>
<time>2021-09-07T15:57:23Z</time>
</trkpt>
<trkpt lat="42.5041955" lon="2.7068066">
<ele>289.53</ele>
<time>2021-09-07T15:57:28Z</time>
</trkpt>
<trkpt lat="42.5041937" lon="2.7070998">
<ele>279.00</ele>
<time>2021-09-07T15:59:44Z</time>
</trkpt>
<trkpt lat="42.5041782" lon="2.7073856">
<ele>278.46</ele>
<time>2021-09-07T15:59:49Z</time>
</trkpt>
<trkpt lat="42.5041261" lon="2.7076664">
<ele>278.77</ele>
<time>2021-09-07T15:59:53Z</time>
</trkpt>
<trkpt lat="42.5041051" lon="2.7079694">
<ele>277.94</ele>
<time>2021-09-07T15:59:57Z</time>
</trkpt>
<trkpt lat="42.5041019" lon="2.7082292">
<ele>274.61</ele>
<time>2021-09-07T16:00:01Z</time>
</trkpt>
<trkpt lat="42.5040422" lon="2.7084849">
<ele>273.20</ele>
<time>2021-09-07T16:00:04Z</time>
</trkpt>
<trkpt lat="42.5039717" lon="2.7087589">
<ele>271.15</ele>
<time>2021-09-07T16:00:08Z</time>
</trkpt>
<trkpt lat="42.5038943" lon="2.7089961">
<ele>270.71</ele>
<time>2021-09-07T16:00:13Z</time>
</trkpt>
<trkpt lat="42.5038210" lon="2.7092437">
<ele>270.17</ele>
<time>2021-09-07T16:00:17Z</time>
</trkpt>
<trkpt lat="42.5037006" lon="2.7094771">
<ele>268.19</ele>
<time>2021-09-07T16:00:21Z</time>
</trkpt>
<trkpt lat="42.5035916" lon="2.7097324">
<ele>263.59</ele>
<time>2021-09-07T16:00:24Z</time>
</trkpt>
<trkpt lat="42.5034819" lon="2.7099507">
<ele>259.99</ele>
<time>2021-09-07T16:00:27Z</time>
</trkpt>
<trkpt lat="42.5033155" lon="2.7101813">
<ele>257.70</ele>
<time>2021-09-07T16:00:30Z</time>
</trkpt>
<trkpt lat="42.5031532" lon="2.7103941">
<ele>251.62</ele>
<time>2021-09-07T16:00:33Z</time>
</trkpt>
<trkpt lat="42.5030113" lon="2.7106059">
<ele>249.17</ele>
<time>2021-09-07T16:00:36Z</time>
</trkpt>
<trkpt lat="42.5029144" lon="2.7108302">
<ele>244.19</ele>
<time>2021-09-07T16:00:51Z</time>
</trkpt>
<trkpt lat="42.5027341" lon="2.7107268">
<ele>243.69</ele>
<time>2021-09-07T16:01:00Z</time>
</trkpt>
<trkpt lat="42.5025624" lon="2.7106312">
<ele>242.23</ele>
<time>2021-09-07T16:01:05Z</time>
</trkpt>
<trkpt lat="42.5023791" lon="2.7106480">
<ele>234.68</ele>
<time>2021-09-07T16:01:11Z</time>
</trkpt>
<trkpt lat="42.5022163" lon="2.7105384">
<ele>228.38</ele>
<time>2021-09-07T16:01:19Z</time>
</trkpt>
<trkpt lat="42.5020502" lon="2.7104139">
<ele>226.99</ele>
<time>2021-09-07T16:01:25Z</time>
</trkpt>
<trkpt lat="42.5018760" lon="2.7103368">
<ele>223.51</ele>
<time>2021-09-07T16:01:29Z</time>
</trkpt>
<trkpt lat="42.5016914" lon="2.7102431">
<ele>220.34</ele>
<time>2021-09-07T16:01:36Z</time>
</trkpt>
<trkpt lat="42.5014995" lon="2.7102275">
<ele>217.59</ele>
<time>2021-09-07T16:01:42Z</time>
</trkpt>
<trkpt lat="42.5013184" lon="2.7102341">
<ele>212.65</ele>
<time>2021-09-07T16:01:47Z</time>
</trkpt>
<trkpt lat="42.5011014" lon="2.7102531">
<ele>212.12</ele>
<time>2021-09-07T16:01:51Z</time>
</trkpt>
<trkpt lat="42.5008981" lon="2.7103427">
<ele>211.02</ele>
<time>2021-09-07T16:01:56Z</time>
</trkpt>
<trkpt lat="42.5007176" lon="2.7103942">
<ele>206.32</ele>
<time>2021-09-07T16:02:03Z</time>
</trkpt>
<trkpt lat="42.5005064" lon="2.7105354">
<ele>202.00</ele>
<time>2021-09-07T16:02:10Z</time>
</trkpt>
<trkpt lat="42.5002933" lon="2.7105789">
<ele>198.18</ele>
<time>2021-09-07T16:02:15Z</time>
</trkpt>
<trkpt lat="42.5000937" lon="2.7104552">
<ele>196.81</ele>
<time>2021-09-07T16:02:19Z</time>
</trkpt>
<trkpt lat="42.4999053" lon="2.7103592">
<ele>190.35</ele>
<time>2021-09-07T16:02:23Z</time>
</trkpt>
<trkpt lat="42.4997244" lon="2.7104139">
<ele>186.93</ele>
<time>2021-09-07T16:02:34Z</time>
</trkpt>
<trkpt lat="42.4995529" lon="2.7105283">
<ele>184.75</ele>
<time>2021-09-07T16:02:39Z</time>
</trkpt>
<trkpt lat="42.4993723" lon="2.7106003">
<ele>183.98</ele>
<time>2021-09-07T16:02:44Z</time>
</trkpt>
<trkpt lat="42.4991707" lon="2.7106327">
<ele>181.04</ele>
<time>2021-09-07T16:02:50Z</time>
</trkpt>
<trkpt lat="42.4989718" lon="2.7105489">
<ele>179.60</ele>
<time>2021-09-07T16:02:54Z</time>
</trkpt>
<trkpt lat="42.4987928" lon="2.7104481">
<ele>177.34</ele>
<time>2021-09-07T16:02:58Z</time>
</trkpt>
<trkpt lat="42.4986229" lon="2.7103420">
<ele>177.76</ele>
<time>2021-09-07T16:03:03Z</time>
</trkpt>
<trkpt lat="42.4986590" lon="2.7100819">
<ele>176.41</ele>
<time>2021-09-07T16:03:11Z</time>
</trkpt>
<trkpt lat="42.4987171" lon="2.7098098">
<ele>173.96</ele>
<time>2021-09-07T16:03:18Z</time>
</trkpt>
<trkpt lat="42.4987579" lon="2.7095386">
<ele>172.65</ele>
<time>2021-09-07T16:03:24Z</time>
</trkpt>
<trkpt lat="42.4988045" lon="2.7092991">
<ele>172.92</ele>
<time>2021-09-07T16:03:29Z</time>
</trkpt>
<trkpt lat="42.4988455" lon="2.7090498">
<ele>171.52</ele>
<time>2021-09-07T16:03:34Z</time>
</trkpt>
<trkpt lat="42.4988910" lon="2.7087650">
<ele>173.60</ele>
<time>2021-09-07T16:03:40Z</time>
</trkpt>
<trkpt lat="42.4989343" lon="2.7085071">
<ele>175.91</ele>
<time>2021-09-07T16:03:45Z</time>
</trkpt>
<trkpt lat="42.4989687" lon="2.7082466">
<ele>175.77</ele>
<time>2021-09-07T16:03:51Z</time>
</trkpt>
<trkpt lat="42.4990136" lon="2.7079821">
<ele>182.28</ele>
<time>2021-09-07T16:03:57Z</time>
</trkpt>
<trkpt lat="42.4990249" lon="2.7077262">
<ele>182.37</ele>
<time>2021-09-07T16:04:03Z</time>
</trkpt>
<trkpt lat="42.4989242" lon="2.7067067">
<ele>186.00</ele>
<time>2021-09-07T16:04:25Z</time>
</trkpt>
<trkpt lat="42.4988960" lon="2.7064424">
<ele>183.71</ele>
<time>2021-09-07T16:04:29Z</time>
</trkpt>
<trkpt lat="42.4988142" lon="2.7061608">
<ele>182.79</ele>
<time>2021-09-07T16:04:34Z</time>
</trkpt>
<trkpt lat="42.4987197" lon="2.7058920">
<ele>182.74</ele>
<time>2021-09-07T16:04:39Z</time>
</trkpt>
<trkpt lat="42.4986390" lon="2.7056705">
<ele>183.21</ele>
<time>2021-09-07T16:04:43Z</time>
</trkpt>
<trkpt lat="42.4985217" lon="2.7054236">
<ele>185.98</ele>
<time>2021-09-07T16:04:48Z</time>
</trkpt>
<trkpt lat="42.4984097" lon="2.7052098">
<ele>186.61</ele>
<time>2021-09-07T16:04:52Z</time>
</trkpt>
<trkpt lat="42.4982866" lon="2.7050132">
<ele>185.05</ele>
<time>2021-09-07T16:04:56Z</time>
</trkpt>
<trkpt lat="42.4981161" lon="2.7048185">
<ele>186.21</ele>
<time>2021-09-07T16:05:01Z</time>
</trkpt>
<trkpt lat="42.4979828" lon="2.7046537">
<ele>187.85</ele>
<time>2021-09-07T16:05:05Z</time>
</trkpt>
<trkpt lat="42.4978351" lon="2.7045079">
<ele>187.00</ele>
<time>2021-09-07T16:05:09Z</time>
</trkpt>
<trkpt lat="42.4976959" lon="2.7043509">
<ele>187.50</ele>
<time>2021-09-07T16:05:13Z</time>
</trkpt>
<trkpt lat="42.4974987" lon="2.7042160">
<ele>184.19</ele>
<time>2021-09-07T16:05:18Z</time>
</trkpt>
<trkpt lat="42.4973052" lon="2.7041083">
<ele>186.66</ele>
<time>2021-09-07T16:05:23Z</time>
</trkpt>
<trkpt lat="42.4971071" lon="2.7039957">
<ele>187.33</ele>
<time>2021-09-07T16:05:28Z</time>
</trkpt>
<trkpt lat="42.4969051" lon="2.7039146">
<ele>185.99</ele>
<time>2021-09-07T16:05:33Z</time>
</trkpt>
<trkpt lat="42.4967240" lon="2.7038636">
<ele>186.23</ele>
<time>2021-09-07T16:05:37Z</time>
</trkpt>
<trkpt lat="42.4964973" lon="2.7038092">
<ele>185.38</ele>
<time>2021-09-07T16:05:42Z</time>
</trkpt>
<trkpt lat="42.4963134" lon="2.7037645">
<ele>185.78</ele>
<time>2021-09-07T16:05:46Z</time>
</trkpt>
<trkpt lat="42.4960958" lon="2.7036973">
<ele>186.13</ele>
<time>2021-09-07T16:05:51Z</time>
</trkpt>
<trkpt lat="42.4959183" lon="2.7036283">
<ele>184.92</ele>
<time>2021-09-07T16:05:55Z</time>
</trkpt>
<trkpt lat="42.4957222" lon="2.7035474">
<ele>185.43</ele>
<time>2021-09-07T16:06:00Z</time>
</trkpt>
<trkpt lat="42.4955076" lon="2.7034912">
<ele>184.67</ele>
<time>2021-09-07T16:06:05Z</time>
</trkpt>
<trkpt lat="42.4953347" lon="2.7034145">
<ele>181.05</ele>
<time>2021-09-07T16:06:09Z</time>
</trkpt>
<trkpt lat="42.4951561" lon="2.7033492">
<ele>178.46</ele>
<time>2021-09-07T16:06:13Z</time>
</trkpt>
<trkpt lat="42.4949738" lon="2.7032942">
<ele>177.52</ele>
<time>2021-09-07T16:06:17Z</time>
</trkpt>
<trkpt lat="42.4947559" lon="2.7032551">
<ele>178.85</ele>
<time>2021-09-07T16:06:21Z</time>
</trkpt>
<trkpt lat="42.4945248" lon="2.7032332">
<ele>182.62</ele>
<time>2021-09-07T16:06:26Z</time>
</trkpt>
<trkpt lat="42.4943147" lon="2.7031244">
<ele>179.85</ele>
<time>2021-09-07T16:06:31Z</time>
</trkpt>
<trkpt lat="42.4941281" lon="2.7030565">
<ele>179.98</ele>
<time>2021-09-07T16:06:35Z</time>
</trkpt>
<trkpt lat="42.4942132" lon="2.7032809">
<ele>176.16</ele>
<time>2021-09-07T16:06:52Z</time>
</trkpt>
</trkseg>
</trk>
</gpx>
